Darstellungsparameter: Aktuell verwendete Einstellungen:
Skalierung der Graphiken ... ?
xyx+y,   Skalierungsfaktor:      Skalierung: Modus: x, Faktor: 1
Darstellungszeitraum ... ?
Vom - - bis: - -   Zeitraum: 16.12.2009 - 15.06.2010
Min/Max/Avg-Anzeige ... ?
Zeige MMA aktuell
Zeige MMA Monat
Zeige MMA alles
Zeige --A aktuell
Zeige --A Monat
Zeige --A alles
Keine MMA-Anzeige
MMA:
Average (ber die Originaldaten)
MMA-Basis: 16.12.2009 - 15.06.2010
Quicknavigation für Darstellung... ?
Tage:      1T, 2T, 3T, 5T -1T -2T -3T -5T +1T +2T +3T +5T
Wochen: 1W, 2W, 3W -1W -2W -3W +1W +2W +3W
Monate: 1M, 3M, 6M -1M -3M -6M +1M +3M +6M
Jahre:    1J, 3J, 5J, 10J -1J -3J -5J -10J +1J +3J +5J +10J
Nutze für die Darstellung ... ?
Originaldaten oder Mittelwerte auf ...
Stundenbasis Tagesbasis Wochenbasis
Monatsbasis Jahresbasis      Datenbasis: Original-Daten
Darstellen als:
Statistik (Auto) Statistik J:M      Darstellung:
Zur Graphik,    zurück zur Übersicht aller Sensoren.
 
Tabellarische Datenbersicht: ?
 
Sensor: Nr:Datum:Temp:Abs-Feuchte:Windchill:Wind:
Aussen-T/F 1 16-12-2009 00:02:03 -0.2 C 2.77 g/m*3 -0.2 C 0 km/h
2 16-12-2009 00:14:03 -0.2 C 2.77 g/m*3 -0.2 C 0 km/h
3 16-12-2009 00:26:03 -0.3 C 2.75 g/m*3 -0.3 C 0 km/h
4 16-12-2009 00:38:03 -0.4 C 2.78 g/m*3 -0.4 C 0 km/h
5 16-12-2009 00:50:03 -0.5 C 2.76 g/m*3 -0.5 C 0 km/h
6 16-12-2009 01:02:03 -0.9 C 2.73 g/m*3 -0.9 C 0 km/h
7 16-12-2009 01:14:03 -1 C 2.76 g/m*3 -1 C 0 km/h
8 16-12-2009 01:26:03 -1.1 C 2.78 g/m*3 -1.1 C 0 km/h
9 16-12-2009 01:38:03 -1.1 C 2.74 g/m*3 -1.1 C 0 km/h
10 16-12-2009 01:50:03 -1.1 C 2.74 g/m*3 -1.1 C 0 km/h
11 16-12-2009 02:02:03 -1.2 C 2.76 g/m*3 -1.2 C 0 km/h
12 16-12-2009 02:14:03 -1.3 C 2.74 g/m*3 -1.3 C 0 km/h
13 16-12-2009 02:26:03 -1.3 C 2.79 g/m*3 -1.3 C 0 km/h
14 16-12-2009 02:38:03 -1.2 C 2.81 g/m*3 -1.2 C 0 km/h
15 16-12-2009 02:50:03 -1.1 C 2.83 g/m*3 -1.1 C 0 km/h
16 16-12-2009 03:02:03 -1.1 C 2.78 g/m*3 -1.1 C 0 km/h
17 16-12-2009 03:14:04 -1.1 C 2.78 g/m*3 -1.1 C 0 km/h
18 16-12-2009 03:26:04 -1.1 C 2.78 g/m*3 -1.1 C 0 km/h
19 16-12-2009 03:38:04 -1 C 2.85 g/m*3 -1 C 0 km/h
20 16-12-2009 03:50:04 -1 C 2.85 g/m*3 -1 C 0 km/h
21 16-12-2009 04:02:04 -1 C 2.8 g/m*3 -1 C 0 km/h
22 16-12-2009 04:14:04 -1 C 2.8 g/m*3 -1 C 0 km/h
23 16-12-2009 04:26:04 -1 C 2.8 g/m*3 -1 C 0 km/h
24 16-12-2009 04:38:04 -1.1 C 2.78 g/m*3 -1.1 C 0 km/h
25 16-12-2009 04:50:04 -1.1 C 2.78 g/m*3 -1.1 C 0 km/h
Sensor: Nr:Datum:Temp:Abs-Feuchte:Windchill:Wind:
Aussen-T/F 26 16-12-2009 05:02:04 -1.1 C 2.83 g/m*3 -1.1 C 0 km/h
27 16-12-2009 05:14:04 -1.2 C 2.81 g/m*3 -1.2 C 0 km/h
28 16-12-2009 05:26:04 -1.2 C 2.85 g/m*3 -1.2 C 0 km/h
29 16-12-2009 05:38:04 -1.2 C 2.85 g/m*3 -1.2 C 0 km/h
30 16-12-2009 05:50:04 -1.1 C 2.92 g/m*3 -1.1 C 0 km/h
31 16-12-2009 06:02:04 -1.1 C 2.87 g/m*3 -1.1 C 0 km/h
32 16-12-2009 06:14:04 -1.1 C 2.87 g/m*3 -1.1 C 0 km/h
33 16-12-2009 06:26:04 -1.2 C 2.85 g/m*3 -1.2 C 0 km/h
34 16-12-2009 06:38:04 -1.2 C 2.85 g/m*3 -1.2 C 0 km/h
35 16-12-2009 06:50:04 -1.2 C 2.85 g/m*3 -1.2 C 0 km/h
36 16-12-2009 07:02:03 -1.2 C 2.85 g/m*3 -1.2 C 0 km/h
37 16-12-2009 07:14:03 -1.2 C 2.85 g/m*3 -1.2 C 0 km/h
38 16-12-2009 07:26:02 -1.2 C 2.85 g/m*3 -1.2 C 0 km/h
39 16-12-2009 07:38:02 -1.2 C 2.9 g/m*3 -1.2 C 0 km/h
40 16-12-2009 07:50:01 -1.2 C 2.9 g/m*3 -1.2 C 0 km/h
41 16-12-2009 08:02:02 -1.2 C 2.9 g/m*3 -1.2 C 0 km/h
42 16-12-2009 08:14:02 -1.2 C 2.9 g/m*3 -1.2 C 0 km/h
43 16-12-2009 08:26:02 -1.2 C 2.9 g/m*3 -1.2 C 0 km/h
44 16-12-2009 08:38:02 -1.2 C 2.9 g/m*3 -1.2 C 0 km/h
45 16-12-2009 08:50:03 -1.2 C 2.9 g/m*3 -1.2 C 0 km/h
46 16-12-2009 09:02:02 -1.2 C 2.94 g/m*3 -1.2 C 0 km/h
47 16-12-2009 09:14:02 -1.2 C 2.94 g/m*3 -1.2 C 0 km/h
48 16-12-2009 09:26:03 -1.1 C 2.96 g/m*3 -1.1 C 0 km/h
49 16-12-2009 09:38:02 -1 C 2.98 g/m*3 -1 C 0 km/h
50 16-12-2009 09:50:02 -0.8 C 2.98 g/m*3 -0.8 C 0 km/h
Sensor: Nr:Datum:Temp:Abs-Feuchte:Windchill:Wind:
Aussen-T/F 51 16-12-2009 10:02:02 -0.6 C 3.02 g/m*3 -0.6 C 0 km/h
52 16-12-2009 10:14:02 -0.4 C 3.02 g/m*3 -0.4 C 0 km/h
53 16-12-2009 10:26:02 -0.2 C 3.01 g/m*3 -0.2 C 0 km/h
54 16-12-2009 10:38:02 -0.2 C 2.91 g/m*3 -0.2 C 0 km/h
55 16-12-2009 10:50:02 0 C 2.96 g/m*3 0 C 0 km/h
56 16-12-2009 11:02:02 0.1 C 2.98 g/m*3 0.1 C 0 km/h
57 16-12-2009 11:14:02 0.2 C 2.95 g/m*3 0.2 C 0 km/h
58 16-12-2009 11:26:02 0.1 C 2.88 g/m*3 0.1 C 0 km/h
59 16-12-2009 11:38:03 0.2 C 2.9 g/m*3 0.2 C 0 km/h
60 16-12-2009 11:50:02 0.4 C 2.89 g/m*3 0.4 C 0 km/h
61 16-12-2009 12:02:02 0.6 C 2.98 g/m*3 0.6 C 0 km/h
62 16-12-2009 12:14:02 0.8 C 2.97 g/m*3 0.8 C 0 km/h
63 16-12-2009 12:26:02 0.7 C 2.9 g/m*3 0.7 C 0 km/h
64 16-12-2009 12:38:02 1 C 2.96 g/m*3 1 C 0 km/h
65 16-12-2009 12:50:02 1.1 C 2.93 g/m*3 1.1 C 0 km/h
66 16-12-2009 13:02:03 1.1 C 2.93 g/m*3 1.1 C 0 km/h
67 16-12-2009 13:14:03 1.2 C 2.89 g/m*3 1.2 C 0 km/h
68 16-12-2009 13:26:02 1.1 C 2.82 g/m*3 1.1 C 0 km/h
69 16-12-2009 13:38:03 0.6 C 2.78 g/m*3 0.6 C 0 km/h
70 16-12-2009 13:50:02 0.6 C 2.78 g/m*3 0.6 C 0 km/h
71 16-12-2009 14:02:02 0.8 C 2.76 g/m*3 0.8 C 0 km/h
72 16-12-2009 14:14:02 0.9 C 2.84 g/m*3 0.9 C 0 km/h
73 16-12-2009 14:26:01 1 C 2.7 g/m*3 1 C 0 km/h
74 16-12-2009 14:38:02 1.3 C 2.75 g/m*3 1.3 C 0 km/h
75 16-12-2009 14:50:02 1.1 C 2.72 g/m*3 1.1 C 0 km/h
Sensor: Nr:Datum:Temp:Abs-Feuchte:Windchill:Wind:
Aussen-T/F 76 16-12-2009 15:02:02 0.7 C 2.69 g/m*3 0.7 C 0 km/h
77 16-12-2009 15:14:03 0.4 C 2.59 g/m*3 0.4 C 0 km/h
78 16-12-2009 15:26:01 0 C 2.62 g/m*3 0 C 0 km/h
79 16-12-2009 15:38:02 -0.3 C 2.61 g/m*3 -0.3 C 0 km/h
80 16-12-2009 15:50:02 -0.5 C 2.62 g/m*3 -0.5 C 0 km/h
81 16-12-2009 16:02:02 -0.6 C 2.6 g/m*3 -0.6 C 0 km/h
82 16-12-2009 16:14:02 -0.7 C 2.58 g/m*3 -0.7 C 0 km/h
83 16-12-2009 16:26:02 -0.9 C 2.55 g/m*3 -0.9 C 0 km/h
84 16-12-2009 16:38:02 -1.1 C 2.51 g/m*3 -1.1 C 0 km/h
85 16-12-2009 16:50:01 -1.3 C 2.48 g/m*3 -1.3 C 0 km/h
86 16-12-2009 17:02:02 -1.5 C 2.49 g/m*3 -1.5 C 0 km/h
87 16-12-2009 17:14:02 -1.7 C 2.5 g/m*3 -1.7 C 0 km/h
88 16-12-2009 17:26:02 -1.7 C 2.58 g/m*3 -1.7 C 0 km/h
89 16-12-2009 17:38:02 -1.8 C 2.61 g/m*3 -1.8 C 0 km/h
90 16-12-2009 17:50:02 -1.9 C 2.63 g/m*3 -1.9 C 0 km/h
91 16-12-2009 18:02:02 -2 C 2.66 g/m*3 -2 C 0 km/h
92 16-12-2009 18:14:02 -2.1 C 2.68 g/m*3 -2.1 C 0 km/h
93 16-12-2009 18:26:02 -2 C 2.7 g/m*3 -2 C 0 km/h
94 16-12-2009 18:38:03 -2 C 2.7 g/m*3 -2 C 0 km/h
95 16-12-2009 18:50:02 -2 C 2.7 g/m*3 -2 C 0 km/h
96 16-12-2009 19:02:01 -1.9 C 2.76 g/m*3 -1.9 C 0 km/h
97 16-12-2009 19:14:01 -1.9 C 2.76 g/m*3 -1.9 C 0 km/h
98 16-12-2009 19:26:01 -2.1 C 2.72 g/m*3 -2.1 C 0 km/h
99 16-12-2009 19:38:02 -2.3 C 2.68 g/m*3 -2.3 C 0 km/h
100 16-12-2009 19:50:02 -2.5 C 2.65 g/m*3 -2.5 C 0 km/h
Sensor: Nr:Datum:Temp:Abs-Feuchte:Windchill:Wind:
Aussen-T/F 101 16-12-2009 20:02:02 -2.6 C 2.67 g/m*3 -2.6 C 0 km/h
102 16-12-2009 20:14:02 -2.8 C 2.67 g/m*3 -2.8 C 0 km/h
103 16-12-2009 20:26:01 -2.9 C 2.69 g/m*3 -2.9 C 0 km/h
104 16-12-2009 20:38:02 -3 C 2.71 g/m*3 -3 C 0 km/h
105 16-12-2009 20:50:02 -3.1 C 2.69 g/m*3 -3.1 C 0 km/h
106 16-12-2009 21:02:02 -3.2 C 2.71 g/m*3 -3.2 C 0 km/h
107 16-12-2009 21:14:02 -3.2 C 2.75 g/m*3 -3.2 C 0 km/h
108 16-12-2009 21:26:02 -3.3 C 2.73 g/m*3 -3.3 C 0 km/h
109 16-12-2009 21:38:02 -3.5 C 2.69 g/m*3 -3.5 C 0 km/h
110 16-12-2009 21:50:02 -3.7 C 2.69 g/m*3 -3.7 C 0 km/h
111 16-12-2009 22:02:02 -3.7 C 2.73 g/m*3 -3.7 C 0 km/h
112 16-12-2009 22:14:02 -3.8 C 2.71 g/m*3 -3.8 C 0 km/h
113 16-12-2009 22:27:05 -3.9 C 2.69 g/m*3 -3.9 C 0 km/h
114 16-12-2009 22:39:05 -3.9 C 2.73 g/m*3 -3.9 C 0 km/h
115 16-12-2009 22:51:05 -3.8 C 2.78 g/m*3 -3.8 C 0 km/h
116 16-12-2009 23:03:05 -3.8 C 2.78 g/m*3 -3.8 C 0 km/h
117 16-12-2009 23:15:06 -4.1 C 2.72 g/m*3 -4.1 C 0 km/h
118 16-12-2009 23:27:06 -4.3 C 2.69 g/m*3 -4.3 C 0 km/h
119 16-12-2009 23:39:06 -4.4 C 2.67 g/m*3 -4.4 C 0 km/h
120 16-12-2009 23:51:06 -4.4 C 2.67 g/m*3 -4.4 C 0 km/h
121 17-12-2009 00:03:06 -4.6 C 2.66 g/m*3 -4.6 C 0 km/h
122 17-12-2009 00:15:06 -4.7 C 2.64 g/m*3 -4.7 C 0 km/h
123 17-12-2009 00:27:06 -4.8 C 2.66 g/m*3 -4.8 C 0 km/h
124 17-12-2009 00:39:06 -5.1 C 2.6 g/m*3 -5.1 C 0 km/h
125 17-12-2009 00:51:06 -5.3 C 2.57 g/m*3 -5.3 C 0 km/h
Sensor: Nr:Datum:Temp:Abs-Feuchte:Windchill:Wind:
Aussen-T/F 126 17-12-2009 01:03:06 -5.2 C 2.62 g/m*3 -5.2 C 0 km/h
127 17-12-2009 01:15:06 -5.4 C 2.58 g/m*3 -5.4 C 0 km/h
128 17-12-2009 01:27:06 -5.3 C 2.63 g/m*3 -5.3 C 0 km/h
129 17-12-2009 01:39:06 -5.3 C 2.63 g/m*3 -5.3 C 0 km/h
130 17-12-2009 01:51:06 -5.6 C 2.58 g/m*3 -5.6 C 0 km/h
131 17-12-2009 02:03:06 -5.6 C 2.58 g/m*3 -5.6 C 0 km/h
132 17-12-2009 02:15:06 -5.5 C 2.63 g/m*3 -5.5 C 0 km/h
133 17-12-2009 02:27:06 -5.6 C 2.64 g/m*3 -5.6 C 0 km/h
134 17-12-2009 02:39:06 -5.7 C 2.62 g/m*3 -5.7 C 0 km/h
135 17-12-2009 02:51:06 -5.9 C 2.58 g/m*3 -5.9 C 0 km/h
136 17-12-2009 03:03:06 -5.9 C 2.58 g/m*3 -5.9 C 0 km/h
137 17-12-2009 03:15:06 -5.6 C 2.67 g/m*3 -5.6 C 0 km/h
138 17-12-2009 03:27:07 -5.4 C 2.75 g/m*3 -5.4 C 0 km/h
139 17-12-2009 03:39:07 -5.3 C 2.77 g/m*3 -5.3 C 0 km/h
140 17-12-2009 03:51:07 -5.4 C 2.75 g/m*3 -5.4 C 0 km/h
141 17-12-2009 04:03:07 -5.3 C 2.77 g/m*3 -5.3 C 0 km/h
142 17-12-2009 04:15:07 -5.4 C 2.75 g/m*3 -5.4 C 0 km/h
143 17-12-2009 04:27:07 -5.5 C 2.73 g/m*3 -5.5 C 0 km/h
144 17-12-2009 04:39:07 -5.6 C 2.71 g/m*3 -5.6 C 0 km/h
145 17-12-2009 04:51:07 -5.9 C 2.65 g/m*3 -5.9 C 0 km/h
146 17-12-2009 05:03:07 -5.9 C 2.65 g/m*3 -5.9 C 0 km/h
147 17-12-2009 05:15:07 -6 C 2.63 g/m*3 -6 C 0 km/h
148 17-12-2009 05:27:07 -5.8 C 2.67 g/m*3 -5.8 C 0 km/h
149 17-12-2009 05:39:07 -5.9 C 2.65 g/m*3 -5.9 C 0 km/h
150 17-12-2009 05:51:07 -6 C 2.63 g/m*3 -6 C 0 km/h
Sensor: Nr:Datum:Temp:Abs-Feuchte:Windchill:Wind:
Aussen-T/F 151 17-12-2009 06:03:07 -6 C 2.63 g/m*3 -6 C 0 km/h
152 17-12-2009 06:15:07 -6.1 C 2.61 g/m*3 -6.1 C 0 km/h
153 17-12-2009 06:27:07 -6 C 2.63 g/m*3 -6 C 0 km/h
154 17-12-2009 06:39:07 -6.2 C 2.59 g/m*3 -6.2 C 0 km/h
155 17-12-2009 06:51:02 -6.2 C 2.59 g/m*3 -6.2 C 0 km/h
156 17-12-2009 07:03:02 -6.1 C 2.61 g/m*3 -6.1 C 0 km/h
157 17-12-2009 07:15:02 -6.2 C 2.59 g/m*3 -6.2 C 0 km/h
158 17-12-2009 07:27:02 -6.4 C 2.55 g/m*3 -6.4 C 0 km/h
159 17-12-2009 07:39:02 -6.5 C 2.53 g/m*3 -6.5 C 0 km/h
160 17-12-2009 07:51:02 -6.6 C 2.52 g/m*3 -6.6 C 0 km/h
161 17-12-2009 08:03:01 -6.7 C 2.5 g/m*3 -6.7 C 0 km/h
162 17-12-2009 08:15:01 -6.7 C 2.5 g/m*3 -6.7 C 0 km/h
163 17-12-2009 08:27:01 -6.6 C 2.52 g/m*3 -6.6 C 0 km/h
164 17-12-2009 08:39:02 -6.2 C 2.62 g/m*3 -6.2 C 0 km/h
165 17-12-2009 08:51:02 -6 C 2.66 g/m*3 -6 C 0 km/h
166 17-12-2009 09:03:02 -6 C 2.66 g/m*3 -6 C 0 km/h
167 17-12-2009 09:15:02 -6 C 2.63 g/m*3 -6 C 0 km/h
168 17-12-2009 09:27:02 -5.9 C 2.65 g/m*3 -5.9 C 0 km/h
169 17-12-2009 09:39:02 -5.8 C 2.67 g/m*3 -5.8 C 0 km/h
170 17-12-2009 09:51:02 -5.7 C 2.69 g/m*3 -5.7 C 0 km/h
171 17-12-2009 10:03:03 -5.6 C 2.71 g/m*3 -5.6 C 0 km/h
172 17-12-2009 10:15:02 -5.5 C 2.73 g/m*3 -5.5 C 0 km/h
173 17-12-2009 10:27:02 -5.3 C 2.77 g/m*3 -5.3 C 0 km/h
174 17-12-2009 10:39:02 -5.1 C 2.81 g/m*3 -5.1 C 0 km/h
175 17-12-2009 10:51:01 -4.9 C 2.85 g/m*3 -4.9 C 0 km/h
Sensor: Nr:Datum:Temp:Abs-Feuchte:Windchill:Wind:
Aussen-T/F 176 17-12-2009 11:03:02 -4.5 C 2.93 g/m*3 -4.5 C 0 km/h
177 17-12-2009 11:15:01 -4.2 C 2.96 g/m*3 -4.2 C 0 km/h
178 17-12-2009 11:27:01 -4 C 3 g/m*3 -4 C 0 km/h
179 17-12-2009 11:39:01 -4.1 C 2.94 g/m*3 -4.1 C 0 km/h
180 17-12-2009 11:51:01 -4.1 C 2.94 g/m*3 -4.1 C 0 km/h
181 17-12-2009 12:03:01 -4.1 C 2.94 g/m*3 -4.1 C 0 km/h
182 17-12-2009 12:15:02 -3.8 C 3.01 g/m*3 -3.8 C 0 km/h
183 17-12-2009 12:27:02 -3 C 3.14 g/m*3 -3 C 0 km/h
184 17-12-2009 12:39:01 -2.3 C 3.05 g/m*3 -2.3 C 0 km/h
185 17-12-2009 12:51:01 -1.9 C 2.84 g/m*3 -1.9 C 0 km/h
186 17-12-2009 13:03:01 -1.8 C 2.78 g/m*3 -1.8 C 0 km/h
187 17-12-2009 13:15:02 -1.7 C 2.76 g/m*3 -1.7 C 0 km/h
188 17-12-2009 13:27:02 -1.6 C 2.64 g/m*3 -1.6 C 0 km/h
189 17-12-2009 13:39:01 -1.5 C 2.62 g/m*3 -1.5 C 0 km/h
190 17-12-2009 13:51:02 -1.5 C 2.62 g/m*3 -1.5 C 0 km/h
191 17-12-2009 14:03:02 -1.4 C 2.64 g/m*3 -1.4 C 0 km/h
192 17-12-2009 14:15:02 -1.4 C 2.64 g/m*3 -1.4 C 0 km/h
193 17-12-2009 14:27:03 -1.3 C 2.66 g/m*3 -1.3 C 0 km/h
194 17-12-2009 14:39:02 -1.3 C 2.61 g/m*3 -1.3 C 0 km/h
195 17-12-2009 14:51:02 -1.3 C 2.52 g/m*3 -1.3 C 0 km/h
196 17-12-2009 15:03:01 -1.3 C 2.48 g/m*3 -1.3 C 0 km/h
197 17-12-2009 15:15:02 -1.6 C 2.43 g/m*3 -1.6 C 0 km/h
198 17-12-2009 15:27:02 -1.7 C 2.45 g/m*3 -1.7 C 0 km/h
199 17-12-2009 15:39:02 -2 C 2.49 g/m*3 -2 C 0 km/h
200 17-12-2009 15:51:02 -2.2 C 2.54 g/m*3 -2.2 C 0 km/h
Sensor: Nr:Datum:Temp:Abs-Feuchte:Windchill:Wind:
Aussen-T/F 201 17-12-2009 16:03:03 -2.3 C 2.56 g/m*3 -2.3 C 0 km/h
202 17-12-2009 16:15:02 -2.5 C 2.52 g/m*3 -2.5 C 0 km/h
203 17-12-2009 16:27:02 -2.7 C 2.53 g/m*3 -2.7 C 0 km/h
204 17-12-2009 16:39:02 -2.6 C 2.51 g/m*3 -2.6 C 0 km/h
205 17-12-2009 16:51:01 -2.6 C 2.51 g/m*3 -2.6 C 0 km/h
206 17-12-2009 17:03:02 -3 C 2.44 g/m*3 -3 C 0 km/h
207 17-12-2009 17:15:01 -3.5 C 2.39 g/m*3 -3.5 C 0 km/h
208 17-12-2009 17:27:01 -3.8 C 2.37 g/m*3 -3.8 C 0 km/h
209 17-12-2009 17:39:02 -4.1 C 2.36 g/m*3 -4.1 C 0 km/h
210 17-12-2009 17:51:01 -4.2 C 2.34 g/m*3 -4.2 C 0 km/h
211 17-12-2009 18:03:02 -4.5 C 2.29 g/m*3 -4.5 C 0 km/h
212 17-12-2009 18:15:01 -4.6 C 2.28 g/m*3 -4.6 C 0 km/h
213 17-12-2009 18:27:01 -4.5 C 2.33 g/m*3 -4.5 C 0 km/h
214 17-12-2009 18:39:02 -4.6 C 2.35 g/m*3 -4.6 C 0 km/h
215 17-12-2009 18:51:01 -4.6 C 2.35 g/m*3 -4.6 C 0 km/h
216 17-12-2009 19:03:02 -4.7 C 2.37 g/m*3 -4.7 C 0 km/h
217 17-12-2009 19:15:02 -4.6 C 2.42 g/m*3 -4.6 C 0 km/h
218 17-12-2009 19:27:02 -4.7 C 2.4 g/m*3 -4.7 C 0 km/h
219 17-12-2009 19:39:02 -4.7 C 2.44 g/m*3 -4.7 C 0 km/h
220 17-12-2009 19:51:02 -4.6 C 2.45 g/m*3 -4.6 C 0 km/h
221 17-12-2009 20:03:01 -4.7 C 2.44 g/m*3 -4.7 C 0 km/h
222 17-12-2009 20:15:02 -4.6 C 2.49 g/m*3 -4.6 C 0 km/h
223 17-12-2009 20:27:02 -4.4 C 2.52 g/m*3 -4.4 C 0 km/h
224 17-12-2009 20:39:01 -4.2 C 2.56 g/m*3 -4.2 C 0 km/h
225 17-12-2009 20:51:02 -4.1 C 2.58 g/m*3 -4.1 C 0 km/h
Sensor: Nr:Datum:Temp:Abs-Feuchte:Windchill:Wind:
Aussen-T/F 226 17-12-2009 21:03:01 -4.1 C 2.54 g/m*3 -4.1 C 0 km/h
227 17-12-2009 21:15:01 -4.1 C 2.54 g/m*3 -4.1 C 0 km/h
228 17-12-2009 21:27:01 -4.1 C 2.58 g/m*3 -4.1 C 0 km/h
229 17-12-2009 21:39:01 -4.1 C 2.58 g/m*3 -4.1 C 0 km/h
230 17-12-2009 21:51:02 -4 C 2.56 g/m*3 -4 C 0 km/h
231 17-12-2009 22:04:03 -4 C 2.56 g/m*3 -4 C 0 km/h
232 17-12-2009 22:16:03 -3.9 C 2.54 g/m*3 -3.9 C 0 km/h
233 17-12-2009 22:28:03 -3.9 C 2.51 g/m*3 -3.9 C 0 km/h
234 17-12-2009 22:40:03 -3.7 C 2.54 g/m*3 -3.7 C 0 km/h
235 17-12-2009 22:52:03 -3.7 C 2.54 g/m*3 -3.7 C 0 km/h
236 17-12-2009 23:04:03 -3.7 C 2.54 g/m*3 -3.7 C 0 km/h
237 17-12-2009 23:16:03 -3.8 C 2.49 g/m*3 -3.8 C 0 km/h
238 17-12-2009 23:28:03 -4 C 2.41 g/m*3 -4 C 0 km/h
239 17-12-2009 23:40:03 -4.2 C 2.38 g/m*3 -4.2 C 0 km/h
240 17-12-2009 23:52:03 -4.3 C 2.4 g/m*3 -4.3 C 0 km/h
241 18-12-2009 00:04:03 -4.6 C 2.35 g/m*3 -4.6 C 0 km/h
242 18-12-2009 00:16:03 -4.9 C 2.33 g/m*3 -4.9 C 0 km/h
243 18-12-2009 00:28:03 -5.1 C 2.37 g/m*3 -5.1 C 0 km/h
244 18-12-2009 00:40:03 -5.3 C 2.33 g/m*3 -5.3 C 0 km/h
245 18-12-2009 00:52:03 -5.4 C 2.35 g/m*3 -5.4 C 0 km/h
246 18-12-2009 01:04:03 -5.5 C 2.33 g/m*3 -5.5 C 0 km/h
247 18-12-2009 01:16:03 -5.6 C 2.35 g/m*3 -5.6 C 0 km/h
248 18-12-2009 01:28:03 -5.7 C 2.33 g/m*3 -5.7 C 0 km/h
249 18-12-2009 01:40:03 -5.6 C 2.38 g/m*3 -5.6 C 0 km/h
250 18-12-2009 01:52:04 -5.6 C 2.41 g/m*3 -5.6 C 0 km/h
Sensor: Nr:Datum:Temp:Abs-Feuchte:Windchill:Wind:
Aussen-T/F 251 18-12-2009 02:04:04 -5.4 C 2.41 g/m*3 -5.4 C 0 km/h
252 18-12-2009 02:16:04 -5.7 C 2.33 g/m*3 -5.7 C 0 km/h
253 18-12-2009 02:28:04 -6 C 2.28 g/m*3 -6 C 0 km/h
254 18-12-2009 02:40:04 -6.1 C 2.3 g/m*3 -6.1 C 0 km/h
255 18-12-2009 02:52:04 -6.3 C 2.26 g/m*3 -6.3 C 0 km/h
256 18-12-2009 03:04:04 -6.4 C 2.28 g/m*3 -6.4 C 0 km/h
257 18-12-2009 03:16:04 -6.5 C 2.29 g/m*3 -6.5 C 0 km/h
258 18-12-2009 03:28:04 -6.6 C 2.27 g/m*3 -6.6 C 0 km/h
259 18-12-2009 03:40:04 -6.7 C 2.26 g/m*3 -6.7 C 0 km/h
260 18-12-2009 03:52:04 -6.6 C 2.3 g/m*3 -6.6 C 0 km/h
261 18-12-2009 04:04:04 -6.7 C 2.32 g/m*3 -6.7 C 0 km/h
262 18-12-2009 04:16:04 -6.8 C 2.3 g/m*3 -6.8 C 0 km/h
263 18-12-2009 04:28:04 -6.8 C 2.3 g/m*3 -6.8 C 0 km/h
264 18-12-2009 04:40:04 -6.9 C 2.31 g/m*3 -6.9 C 0 km/h
265 18-12-2009 04:52:04 -7.1 C 2.28 g/m*3 -7.1 C 0 km/h
266 18-12-2009 05:04:04 -7.1 C 2.28 g/m*3 -7.1 C 0 km/h
267 18-12-2009 05:16:04 -7.2 C 2.29 g/m*3 -7.2 C 0 km/h
268 18-12-2009 05:28:04 -7.4 C 2.26 g/m*3 -7.4 C 0 km/h
269 18-12-2009 05:40:04 -7.4 C 2.26 g/m*3 -7.4 C 0 km/h
270 18-12-2009 05:52:04 -7.5 C 2.24 g/m*3 -7.5 C 0 km/h
271 18-12-2009 06:04:04 -7.5 C 2.24 g/m*3 -7.5 C 0 km/h
272 18-12-2009 06:16:05 -7.6 C 2.25 g/m*3 -7.6 C 0 km/h
273 18-12-2009 06:28:05 -7.7 C 2.24 g/m*3 -7.7 C 0 km/h
274 18-12-2009 06:40:05 -7.8 C 2.22 g/m*3 -7.8 C 0 km/h
275 18-12-2009 06:52:05 -7.9 C 2.2 g/m*3 -7.9 C 0 km/h
Sensor: Nr:Datum:Temp:Abs-Feuchte:Windchill:Wind:
Aussen-T/F 276 18-12-2009 07:04:02 -7.9 C 2.2 g/m*3 -7.9 C 0 km/h
277 18-12-2009 07:16:02 -7.8 C 2.22 g/m*3 -7.8 C 0 km/h
278 18-12-2009 07:28:03 -7.7 C 2.24 g/m*3 -7.7 C 0 km/h
279 18-12-2009 07:40:02 -7.3 C 2.33 g/m*3 -7.3 C 0 km/h
280 18-12-2009 07:52:02 -7.1 C 2.37 g/m*3 -7.1 C 0 km/h
281 18-12-2009 08:04:02 -6.8 C 2.42 g/m*3 -6.8 C 0 km/h
282 18-12-2009 08:16:02 -6.6 C 2.46 g/m*3 -6.6 C 0 km/h
283 18-12-2009 08:28:02 -6.5 C 2.44 g/m*3 -6.5 C 0 km/h
284 18-12-2009 08:40:02 -6.6 C 2.43 g/m*3 -6.6 C 0 km/h
285 18-12-2009 08:52:02 -6.7 C 2.38 g/m*3 -6.7 C 0 km/h
286 18-12-2009 09:04:02 -6.7 C 2.38 g/m*3 -6.7 C 0 km/h
287 18-12-2009 09:16:01 -6.6 C 2.39 g/m*3 -6.6 C 0 km/h
288 18-12-2009 09:28:01 -6.4 C 2.43 g/m*3 -6.4 C 0 km/h
289 18-12-2009 09:40:02 -6.1 C 2.48 g/m*3 -6.1 C 0 km/h
290 18-12-2009 09:52:02 -5.7 C 2.56 g/m*3 -5.7 C 0 km/h
291 18-12-2009 10:04:02 -5.4 C 2.58 g/m*3 -5.4 C 0 km/h
292 18-12-2009 10:16:01 -5.2 C 2.58 g/m*3 -5.2 C 0 km/h
293 18-12-2009 10:28:01 -4.8 C 2.63 g/m*3 -4.8 C 0 km/h
294 18-12-2009 10:40:02 -4.4 C 2.67 g/m*3 -4.4 C 0 km/h
295 18-12-2009 10:52:02 -4.2 C 2.6 g/m*3 -4.2 C 0 km/h
296 18-12-2009 11:04:02 -4.1 C 2.51 g/m*3 -4.1 C 0 km/h
297 18-12-2009 11:16:01 -3.9 C 2.54 g/m*3 -3.9 C 0 km/h
298 18-12-2009 11:28:01 -3.7 C 2.54 g/m*3 -3.7 C 0 km/h
299 18-12-2009 11:40:02 -3.6 C 2.52 g/m*3 -3.6 C 0 km/h
300 18-12-2009 11:52:02 -3.4 C 2.52 g/m*3 -3.4 C 0 km/h
Sensor: Nr:Datum:Temp:Abs-Feuchte:Windchill:Wind:
Aussen-T/F 301 18-12-2009 12:04:02 -3.1 C 2.5 g/m*3 -3.1 C 0 km/h
302 18-12-2009 12:16:02 -2.9 C 2.49 g/m*3 -2.9 C 0 km/h
303 18-12-2009 12:28:02 -3 C 2.44 g/m*3 -3 C 0 km/h
304 18-12-2009 12:40:02 -3 C 2.44 g/m*3 -3 C 0 km/h
305 18-12-2009 12:52:02 -3.2 C 2.44 g/m*3 -3.2 C 0 km/h
306 18-12-2009 13:04:02 -3 C 2.51 g/m*3 -3 C 0 km/h
307 18-12-2009 13:16:02 -2.8 C 2.59 g/m*3 -2.8 C 0 km/h
308 18-12-2009 13:28:02 -2.8 C 2.55 g/m*3 -2.8 C 0 km/h
309 18-12-2009 13:40:01 -2.4 C 2.66 g/m*3 -2.4 C 0 km/h
310 18-12-2009 13:52:02 -2.1 C 2.68 g/m*3 -2.1 C 0 km/h
311 18-12-2009 14:04:01 -2.1 C 2.64 g/m*3 -2.1 C 0 km/h
312 18-12-2009 14:16:02 -2.2 C 2.66 g/m*3 -2.2 C 0 km/h
313 18-12-2009 14:28:02 -2.1 C 2.72 g/m*3 -2.1 C 0 km/h
314 18-12-2009 14:40:01 -2 C 2.78 g/m*3 -2 C 0 km/h
315 18-12-2009 14:52:02 -1.9 C 2.84 g/m*3 -1.9 C 0 km/h
316 18-12-2009 15:04:02 -1.8 C 2.91 g/m*3 -1.8 C 0 km/h
317 18-12-2009 15:16:02 -1.8 C 2.86 g/m*3 -1.8 C 0 km/h
318 18-12-2009 15:28:02 -1.9 C 2.89 g/m*3 -1.9 C 0 km/h
319 18-12-2009 15:40:03 -1.9 C 2.89 g/m*3 -1.9 C 0 km/h
320 18-12-2009 15:52:02 -1.9 C 2.8 g/m*3 -1.9 C 0 km/h
321 18-12-2009 16:04:02 -2 C 2.74 g/m*3 -2 C 0 km/h
322 18-12-2009 16:16:01 -2.1 C 2.89 g/m*3 -2.1 C 0 km/h
323 18-12-2009 16:28:01 -2.5 C 3.01 g/m*3 -2.5 C 0 km/h
324 18-12-2009 16:40:02 -2.6 C 3.07 g/m*3 -2.6 C 0 km/h
325 18-12-2009 16:52:02 -2.7 C 3.05 g/m*3 -2.7 C 0 km/h
Sensor: Nr:Datum:Temp:Abs-Feuchte:Windchill:Wind:
Aussen-T/F 326 18-12-2009 17:04:02 -2.9 C 3.05 g/m*3 -2.9 C 0 km/h
327 18-12-2009 17:16:02 -3 C 3.02 g/m*3 -3 C 0 km/h
328 18-12-2009 17:28:02 -3 C 3.02 g/m*3 -3 C 0 km/h
329 18-12-2009 17:40:02 -2.9 C 3.01 g/m*3 -2.9 C 0 km/h
330 18-12-2009 17:52:02 -3 C 2.83 g/m*3 -3 C 0 km/h
331 18-12-2009 18:04:01 -3.2 C 2.59 g/m*3 -3.2 C 0 km/h
332 18-12-2009 18:16:02 -3.4 C 2.52 g/m*3 -3.4 C 0 km/h
333 18-12-2009 18:28:02 -3.6 C 2.45 g/m*3 -3.6 C 0 km/h
334 18-12-2009 18:40:01 -3.7 C 2.35 g/m*3 -3.7 C 0 km/h
335 18-12-2009 18:52:02 -3.8 C 2.12 g/m*3 -3.8 C 0 km/h
336 18-12-2009 19:04:02 -3.8 C 2.08 g/m*3 -3.8 C 0 km/h
337 18-12-2009 19:16:02 -3.8 C 2.12 g/m*3 -3.8 C 0 km/h
338 18-12-2009 19:28:02 -4.1 C 1.96 g/m*3 -4.1 C 0 km/h
339 18-12-2009 19:40:03 -4.2 C 1.8 g/m*3 -4.2 C 0 km/h
340 18-12-2009 19:52:02 -4.2 C 1.8 g/m*3 -4.2 C 0 km/h
341 18-12-2009 20:04:01 -4.6 C 1.61 g/m*3 -4.6 C 0 km/h
342 18-12-2009 20:16:02 -4.8 C 1.59 g/m*3 -4.8 C 0 km/h
343 18-12-2009 20:28:02 -5.1 C 1.55 g/m*3 -5.1 C 0 km/h
344 18-12-2009 20:40:02 -5.2 C 1.51 g/m*3 -5.2 C 0 km/h
345 18-12-2009 20:52:02 -5.2 C 1.54 g/m*3 -5.2 C 0 km/h
346 18-12-2009 21:04:01 -5.3 C 1.5 g/m*3 -5.3 C 0 km/h
347 18-12-2009 21:16:01 -5.4 C 1.49 g/m*3 -5.4 C 0 km/h
348 18-12-2009 21:28:01 -5.4 C 1.59 g/m*3 -5.4 C 0 km/h
349 18-12-2009 21:41:29 -5.4 C 1.69 g/m*3 -5.4 C 0 km/h
350 18-12-2009 21:53:29 -5.4 C 1.72 g/m*3 -5.4 C 0 km/h
Sensor: Nr:Datum:Temp:Abs-Feuchte:Windchill:Wind:
Aussen-T/F 351 18-12-2009 22:05:29 -5.7 C 1.78 g/m*3 -5.7 C 0 km/h
352 18-12-2009 22:17:29 -5.8 C 1.86 g/m*3 -5.8 C 0 km/h
353 18-12-2009 22:29:29 -6 C 1.93 g/m*3 -6 C 0 km/h
354 18-12-2009 22:41:29 -7.2 C 1.83 g/m*3 -7.2 C 0 km/h
355 18-12-2009 22:53:29 -7.4 C 1.89 g/m*3 -7.4 C 0 km/h
356 18-12-2009 23:05:29 -7.3 C 1.96 g/m*3 -7.3 C 0 km/h
357 18-12-2009 23:17:29 -7.6 C 1.92 g/m*3 -7.6 C 0 km/h
358 18-12-2009 23:29:29 -7.8 C 1.89 g/m*3 -7.8 C 0 km/h
359 18-12-2009 23:41:29 -7.9 C 1.87 g/m*3 -7.9 C 0 km/h
360 18-12-2009 23:53:29 -8.2 C 1.75 g/m*3 -8.2 C 0 km/h
361 19-12-2009 00:05:29 -8.5 C 1.69 g/m*3 -8.5 C 0 km/h
362 19-12-2009 00:17:29 -8.6 C 1.65 g/m*3 -8.6 C 0 km/h
363 19-12-2009 00:29:29 -8.8 C 1.57 g/m*3 -8.8 C 0 km/h
364 19-12-2009 00:41:29 -9.1 C 1.49 g/m*3 -9.1 C 0 km/h
365 19-12-2009 00:53:29 -9.4 C 1.43 g/m*3 -9.4 C 0 km/h
366 19-12-2009 01:05:29 -9.6 C 1.38 g/m*3 -9.6 C 0 km/h
367 19-12-2009 01:17:29 -9.8 C 1.36 g/m*3 -9.8 C 0 km/h
368 19-12-2009 01:29:30 -9.9 C 1.35 g/m*3 -9.9 C 0 km/h
369 19-12-2009 01:41:30 -10 C 1.3 g/m*3 -10 C 0 km/h
370 19-12-2009 01:53:30 -10 C 1.27 g/m*3 -10 C 0 km/h
371 19-12-2009 02:05:30 -10 C 1.25 g/m*3 -10 C 0 km/h
372 19-12-2009 02:17:30 -10 C 1.22 g/m*3 -10 C 0 km/h
373 19-12-2009 02:29:30 -10 C 1.25 g/m*3 -10 C 0 km/h
374 19-12-2009 02:41:30 -10.4 C 1.17 g/m*3 -10.4 C 0 km/h
375 19-12-2009 02:53:30 -11.2 C 1.1 g/m*3 -11.2 C 0 km/h
Sensor: Nr:Datum:Temp:Abs-Feuchte:Windchill:Wind:
Aussen-T/F 376 19-12-2009 03:05:30 -11.8 C 1.07 g/m*3 -11.8 C 0 km/h
377 19-12-2009 03:17:30 -12.1 C 1.06 g/m*3 -12.1 C 0 km/h
378 19-12-2009 03:29:30 -12.3 C 1.07 g/m*3 -12.3 C 0 km/h
379 19-12-2009 03:41:30 -12.5 C 1.07 g/m*3 -12.5 C 0 km/h
380 19-12-2009 03:53:30 -12.5 C 1.09 g/m*3 -12.5 C 0 km/h
381 19-12-2009 04:05:30 -12.5 C 1.09 g/m*3 -12.5 C 0 km/h
382 19-12-2009 04:17:30 -12.6 C 1.08 g/m*3 -12.6 C 0 km/h
383 19-12-2009 04:29:30 -12.6 C 1.1 g/m*3 -12.6 C 0 km/h
384 19-12-2009 04:41:30 -12.6 C 1.08 g/m*3 -12.6 C 0 km/h
385 19-12-2009 04:53:30 -12.6 C 1.06 g/m*3 -12.6 C 0 km/h
386 19-12-2009 05:05:30 -12.7 C 1.04 g/m*3 -12.7 C 0 km/h
387 19-12-2009 05:17:30 -13.1 C 1 g/m*3 -13.1 C 0 km/h
388 19-12-2009 05:29:30 -13.2 C 1 g/m*3 -13.2 C 0 km/h
389 19-12-2009 05:41:30 -13.3 C 1.01 g/m*3 -13.3 C 0 km/h
390 19-12-2009 05:53:30 -13.4 C 1.02 g/m*3 -13.4 C 0 km/h
391 19-12-2009 06:05:31 -13.5 C 1.03 g/m*3 -13.5 C 0 km/h
392 19-12-2009 06:17:31 -13.6 C 1.02 g/m*3 -13.6 C 0 km/h
393 19-12-2009 06:29:31 -13.7 C 1.03 g/m*3 -13.7 C 0 km/h
394 19-12-2009 06:41:31 -13.9 C 1.01 g/m*3 -13.9 C 0 km/h
395 19-12-2009 06:53:31 -13.7 C 1.05 g/m*3 -13.7 C 0 km/h
396 19-12-2009 07:05:31 -13.9 C 1.05 g/m*3 -13.9 C 0 km/h
397 19-12-2009 07:17:31 -14 C 1.04 g/m*3 -14 C 0 km/h
398 19-12-2009 07:29:31 -13.7 C 1.08 g/m*3 -13.7 C 0 km/h
399 19-12-2009 07:41:01 -13.5 C 1.1 g/m*3 -13.5 C 0 km/h
400 19-12-2009 07:53:02 -13.4 C 1.13 g/m*3 -13.4 C 0 km/h
Sensor: Nr:Datum:Temp:Abs-Feuchte:Windchill:Wind:
Aussen-T/F 401 19-12-2009 08:05:02 -13.5 C 1.12 g/m*3 -13.5 C 0 km/h
402 19-12-2009 08:17:02 -13.7 C 1.1 g/m*3 -13.7 C 0 km/h
403 19-12-2009 08:29:03 -13.7 C 1.1 g/m*3 -13.7 C 0 km/h
404 19-12-2009 08:41:02 -14 C 1.07 g/m*3 -14 C 0 km/h
405 19-12-2009 08:53:02 -14.1 C 1.07 g/m*3 -14.1 C 0 km/h
406 19-12-2009 09:05:01 -14.1 C 1.07 g/m*3 -14.1 C 0 km/h
407 19-12-2009 09:17:02 -13.9 C 1.1 g/m*3 -13.9 C 0 km/h
408 19-12-2009 09:29:02 -13.9 C 1.1 g/m*3 -13.9 C 0 km/h
409 19-12-2009 09:41:02 -13.9 C 1.08 g/m*3 -13.9 C 0 km/h
410 19-12-2009 09:53:02 -13.7 C 1.12 g/m*3 -13.7 C 0 km/h
411 19-12-2009 10:05:03 -13.5 C 1.14 g/m*3 -13.5 C 0 km/h
412 19-12-2009 10:17:02 -13.4 C 1.16 g/m*3 -13.4 C 0 km/h
413 19-12-2009 10:29:02 -13.2 C 1.16 g/m*3 -13.2 C 0 km/h
414 19-12-2009 10:41:03 -13 C 1.18 g/m*3 -13 C 0 km/h
415 19-12-2009 10:53:02 -12.7 C 1.19 g/m*3 -12.7 C 0 km/h
416 19-12-2009 11:05:02 -12.8 C 1.16 g/m*3 -12.8 C 0 km/h
417 19-12-2009 11:17:01 -12.8 C 1.14 g/m*3 -12.8 C 0 km/h
418 19-12-2009 11:29:01 -12.7 C 1.15 g/m*3 -12.7 C 0 km/h
419 19-12-2009 11:41:02 -12.6 C 1.14 g/m*3 -12.6 C 0 km/h
420 19-12-2009 11:53:02 -12.6 C 1.12 g/m*3 -12.6 C 0 km/h
421 19-12-2009 12:05:02 -12.3 C 1.15 g/m*3 -12.3 C 0 km/h
422 19-12-2009 12:17:02 -12 C 1.13 g/m*3 -12 C 0 km/h
423 19-12-2009 12:29:02 -11.5 C 1.16 g/m*3 -11.5 C 0 km/h
424 19-12-2009 12:41:02 -11.7 C 1.12 g/m*3 -11.7 C 0 km/h
425 19-12-2009 12:53:02 -11.7 C 1.12 g/m*3 -11.7 C 0 km/h
Sensor: Nr:Datum:Temp:Abs-Feuchte:Windchill:Wind:
Aussen-T/F 426 19-12-2009 13:05:02 -11.6 C 1.11 g/m*3 -11.6 C 0 km/h
427 19-12-2009 13:17:01 -11.6 C 1.11 g/m*3 -11.6 C 0 km/h
428 19-12-2009 13:29:01 -11.4 C 1.12 g/m*3 -11.4 C 0 km/h
429 19-12-2009 13:41:02 -11.3 C 1.11 g/m*3 -11.3 C 0 km/h
430 19-12-2009 13:53:02 -11.1 C 1.13 g/m*3 -11.1 C 0 km/h
431 19-12-2009 14:05:02 -11.2 C 1.12 g/m*3 -11.2 C 0 km/h
432 19-12-2009 14:17:02 -11.2 C 1.12 g/m*3 -11.2 C 0 km/h
433 19-12-2009 14:29:02 -11.1 C 1.11 g/m*3 -11.1 C 0 km/h
434 19-12-2009 14:41:02 -11.2 C 1.12 g/m*3 -11.2 C 0 km/h
435 19-12-2009 14:53:02 -11.2 C 1.12 g/m*3 -11.2 C 0 km/h
436 19-12-2009 15:05:02 -11.2 C 1.12 g/m*3 -11.2 C 0 km/h
437 19-12-2009 15:17:02 -11.1 C 1.15 g/m*3 -11.1 C 0 km/h
438 19-12-2009 15:29:02 -11 C 1.16 g/m*3 -11 C 0 km/h
439 19-12-2009 15:41:02 -11.2 C 1.14 g/m*3 -11.2 C 0 km/h
440 19-12-2009 15:53:02 -11.4 C 1.12 g/m*3 -11.4 C 0 km/h
441 19-12-2009 16:05:02 -11.7 C 1.12 g/m*3 -11.7 C 0 km/h
442 19-12-2009 16:17:02 -12 C 1.11 g/m*3 -12 C 0 km/h
443 19-12-2009 16:29:02 -12.1 C 1.1 g/m*3 -12.1 C 0 km/h
444 19-12-2009 16:41:02 -12.3 C 1.11 g/m*3 -12.3 C 0 km/h
445 19-12-2009 16:53:02 -12.4 C 1.1 g/m*3 -12.4 C 0 km/h
446 19-12-2009 17:05:02 -12.4 C 1.1 g/m*3 -12.4 C 0 km/h
447 19-12-2009 17:17:03 -12.4 C 1.12 g/m*3 -12.4 C 0 km/h
448 19-12-2009 17:29:03 -12.5 C 1.09 g/m*3 -12.5 C 0 km/h
449 19-12-2009 17:41:02 -12.7 C 1.07 g/m*3 -12.7 C 0 km/h
450 19-12-2009 17:53:02 -13 C 1.05 g/m*3 -13 C 0 km/h
Sensor: Nr:Datum:Temp:Abs-Feuchte:Windchill:Wind:
Aussen-T/F 451 19-12-2009 18:05:04 -13.2 C 1.05 g/m*3 -13.2 C 0 km/h
452 19-12-2009 18:17:02 -13.3 C 1.06 g/m*3 -13.3 C 0 km/h
453 19-12-2009 18:29:02 -13.4 C 1.05 g/m*3 -13.4 C 0 km/h
454 19-12-2009 18:41:04 -13.6 C 1.05 g/m*3 -13.6 C 0 km/h
455 19-12-2009 18:53:05 -13.8 C 1.04 g/m*3 -13.8 C 0 km/h
456 19-12-2009 19:05:04 -13.5 C 1.1 g/m*3 -13.5 C 0 km/h
457 19-12-2009 19:17:03 -13.9 C 1.1 g/m*3 -13.9 C 0 km/h
458 19-12-2009 19:29:03 -13.9 C 1.1 g/m*3 -13.9 C 0 km/h
459 19-12-2009 19:41:03 -14.2 C 1.09 g/m*3 -14.2 C 0 km/h
460 19-12-2009 19:53:02 -14.4 C 1.07 g/m*3 -14.4 C 0 km/h
461 19-12-2009 20:05:02 -14.6 C 1.07 g/m*3 -14.6 C 0 km/h
462 19-12-2009 20:17:02 -14.8 C 1.06 g/m*3 -14.8 C 0 km/h
463 19-12-2009 20:29:02 -14.8 C 1.07 g/m*3 -14.8 C 0 km/h
464 19-12-2009 20:41:02 -14.9 C 1.07 g/m*3 -14.9 C 0 km/h
465 19-12-2009 20:53:02 -15 C 1.06 g/m*3 -15 C 0 km/h
466 19-12-2009 21:05:03 -15.1 C 1.05 g/m*3 -15.1 C 0 km/h
467 19-12-2009 21:17:02 -15 C 1.06 g/m*3 -15 C 0 km/h
468 19-12-2009 21:29:02 -15 C 1.06 g/m*3 -15 C 0 km/h
469 19-12-2009 21:41:02 -15.1 C 1.05 g/m*3 -15.1 C 0 km/h
470 19-12-2009 21:53:01 -15.3 C 1.03 g/m*3 -15.3 C 0 km/h
471 19-12-2009 22:05:01 -15.3 C 1.05 g/m*3 -15.3 C 0 km/h
472 19-12-2009 22:17:02 -15.4 C 1.02 g/m*3 -15.4 C 0 km/h
473 19-12-2009 22:29:02 -15.5 C 1.02 g/m*3 -15.5 C 0 km/h
474 19-12-2009 22:41:01 -15.6 C 1.02 g/m*3 -15.6 C 0 km/h
475 19-12-2009 22:53:03 -15.7 C 1.02 g/m*3 -15.7 C 0 km/h
Sensor: Nr:Datum:Temp:Abs-Feuchte:Windchill:Wind:
Aussen-T/F 476 19-12-2009 23:05:02 -15.8 C 0.99 g/m*3 -15.8 C 0 km/h
477 19-12-2009 23:17:02 -15.8 C 0.99 g/m*3 -15.8 C 0 km/h
478 19-12-2009 23:29:02 -15.8 C 0.99 g/m*3 -15.8 C 0 km/h
479 19-12-2009 23:41:02 -15.9 C 0.98 g/m*3 -15.9 C 0 km/h
480 19-12-2009 23:53:02 -15.9 C 0.98 g/m*3 -15.9 C 0 km/h
481 20-12-2009 00:05:01 -16 C 0.98 g/m*3 -16 C 0 km/h
482 20-12-2009 00:17:02 -16.1 C 0.97 g/m*3 -16.1 C 0 km/h
483 20-12-2009 00:29:02 -16.2 C 0.96 g/m*3 -16.2 C 0 km/h
484 20-12-2009 00:41:01 -16.3 C 0.95 g/m*3 -16.3 C 0 km/h
485 20-12-2009 00:54:01 -16.2 C 0.98 g/m*3 -16.2 C 0 km/h
486 20-12-2009 01:06:01 -16.2 C 0.98 g/m*3 -16.2 C 0 km/h
487 20-12-2009 01:18:01 -16.3 C 0.95 g/m*3 -16.3 C 0 km/h
488 20-12-2009 01:30:01 -16.4 C 0.95 g/m*3 -16.4 C 0 km/h
489 20-12-2009 01:42:01 -16.4 C 0.95 g/m*3 -16.4 C 0 km/h
490 20-12-2009 01:54:01 -16.4 C 0.95 g/m*3 -16.4 C 0 km/h
491 20-12-2009 02:06:01 -16 C 0.99 g/m*3 -16 C 0 km/h
492 20-12-2009 02:18:01 -16.1 C 0.98 g/m*3 -16.1 C 0 km/h
493 20-12-2009 02:30:01 -16.1 C 0.98 g/m*3 -16.1 C 0 km/h
494 20-12-2009 02:42:01 -16.1 C 0.98 g/m*3 -16.1 C 0 km/h
495 20-12-2009 02:54:01 -16 C 0.99 g/m*3 -16 C 0 km/h
496 20-12-2009 03:06:02 -16 C 0.99 g/m*3 -16 C 0 km/h
497 20-12-2009 03:18:02 -15.9 C 1 g/m*3 -15.9 C 0 km/h
498 20-12-2009 03:30:02 -15.8 C 1.01 g/m*3 -15.8 C 0 km/h
499 20-12-2009 03:42:02 -15.4 C 1.06 g/m*3 -15.4 C 0 km/h
500 20-12-2009 03:54:02 -14.8 C 1.12 g/m*3 -14.8 C 0 km/h
Sensor: Nr:Datum:Temp:Abs-Feuchte:Windchill:Wind:
Aussen-T/F 501 20-12-2009 04:06:02 -14.5 C 1.13 g/m*3 -14.5 C 0 km/h
502 20-12-2009 04:18:02 -14.7 C 1.1 g/m*3 -14.7 C 0 km/h
503 20-12-2009 04:30:02 -14.8 C 1.09 g/m*3 -14.8 C 0 km/h
504 20-12-2009 04:42:02 -14.5 C 1.12 g/m*3 -14.5 C 0 km/h
505 20-12-2009 04:54:02 -14.3 C 1.13 g/m*3 -14.3 C 0 km/h
506 20-12-2009 05:06:02 -14.2 C 1.16 g/m*3 -14.2 C 0 km/h
507 20-12-2009 05:18:02 -14.1 C 1.17 g/m*3 -14.1 C 0 km/h
508 20-12-2009 05:30:02 -13.3 C 1.24 g/m*3 -13.3 C 0 km/h
509 20-12-2009 05:42:02 -12.8 C 1.26 g/m*3 -12.8 C 0 km/h
510 20-12-2009 05:54:02 -13 C 1.22 g/m*3 -13 C 0 km/h
511 20-12-2009 06:06:03 -12.8 C 1.22 g/m*3 -12.8 C 0 km/h
512 20-12-2009 06:18:03 -12.5 C 1.25 g/m*3 -12.5 C 0 km/h
513 20-12-2009 06:30:03 -12.3 C 1.25 g/m*3 -12.3 C 0 km/h
514 20-12-2009 06:42:03 -12 C 1.25 g/m*3 -12 C 0 km/h
515 20-12-2009 06:54:03 -12.5 C 1.19 g/m*3 -12.5 C 0 km/h
516 20-12-2009 07:06:03 -12.8 C 1.18 g/m*3 -12.8 C 0 km/h
517 20-12-2009 07:18:03 -12.9 C 1.19 g/m*3 -12.9 C 0 km/h
518 20-12-2009 07:30:03 -12.7 C 1.23 g/m*3 -12.7 C 0 km/h
519 20-12-2009 07:42:03 -12.5 C 1.27 g/m*3 -12.5 C 0 km/h
520 20-12-2009 07:54:03 -12.1 C 1.33 g/m*3 -12.1 C 0 km/h
521 20-12-2009 08:06:02 -11.6 C 1.38 g/m*3 -11.6 C 0 km/h
522 20-12-2009 08:18:02 -11.3 C 1.41 g/m*3 -11.3 C 0 km/h
523 20-12-2009 08:30:02 -11.2 C 1.42 g/m*3 -11.2 C 0 km/h
524 20-12-2009 08:42:01 -11 C 1.44 g/m*3 -11 C 0 km/h
525 20-12-2009 08:54:02 -10.8 C 1.46 g/m*3 -10.8 C 0 km/h
Sensor: Nr:Datum:Temp:Abs-Feuchte:Windchill:Wind:
Aussen-T/F 526 20-12-2009 09:06:02 -10.6 C 1.51 g/m*3 -10.6 C 0 km/h
527 20-12-2009 09:18:02 -10 C 1.55 g/m*3 -10 C 0 km/h
528 20-12-2009 09:30:02 -9.6 C 1.6 g/m*3 -9.6 C 0 km/h
529 20-12-2009 09:42:02 -9.1 C 1.59 g/m*3 -9.1 C 0 km/h
530 20-12-2009 09:54:01 -8.8 C 1.6 g/m*3 -8.8 C 0 km/h
531 20-12-2009 10:06:01 -8.5 C 1.61 g/m*3 -8.5 C 0 km/h
532 20-12-2009 10:18:01 -8.2 C 1.62 g/m*3 -8.2 C 0 km/h
533 20-12-2009 10:30:01 -8 C 1.64 g/m*3 -8 C 0 km/h
534 20-12-2009 10:42:01 -7.8 C 1.67 g/m*3 -7.8 C 0 km/h
535 20-12-2009 10:54:01 -7.4 C 1.69 g/m*3 -7.4 C 0 km/h
536 20-12-2009 11:06:02 -7.2 C 1.68 g/m*3 -7.2 C 0 km/h
537 20-12-2009 11:18:01 -7.1 C 1.7 g/m*3 -7.1 C 0 km/h
538 20-12-2009 11:30:01 -7 C 1.71 g/m*3 -7 C 0 km/h
539 20-12-2009 11:42:01 -6.7 C 1.81 g/m*3 -6.7 C 0 km/h
540 20-12-2009 11:54:02 -6.5 C 1.83 g/m*3 -6.5 C 0 km/h
541 20-12-2009 12:06:02 -6.2 C 1.87 g/m*3 -6.2 C 0 km/h
542 20-12-2009 12:18:02 -6.1 C 1.92 g/m*3 -6.1 C 0 km/h
543 20-12-2009 12:30:02 -5.9 C 2.01 g/m*3 -5.9 C 0 km/h
544 20-12-2009 12:42:02 -6 C 2.06 g/m*3 -6 C 0 km/h
545 20-12-2009 12:54:02 -5.9 C 2.14 g/m*3 -5.9 C 0 km/h
546 20-12-2009 13:06:02 -5.8 C 2.25 g/m*3 -5.8 C 0 km/h
547 20-12-2009 13:18:03 -5.7 C 2.33 g/m*3 -5.7 C 0 km/h
548 20-12-2009 13:30:03 -5.7 C 2.36 g/m*3 -5.7 C 0 km/h
549 20-12-2009 13:42:02 -5.6 C 2.41 g/m*3 -5.6 C 0 km/h
550 20-12-2009 13:54:02 -5.5 C 2.46 g/m*3 -5.5 C 0 km/h
Sensor: Nr:Datum:Temp:Abs-Feuchte:Windchill:Wind:
Aussen-T/F 551 20-12-2009 14:06:02 -5.4 C 2.51 g/m*3 -5.4 C 0 km/h
552 20-12-2009 14:18:01 -5.3 C 2.57 g/m*3 -5.3 C 0 km/h
553 20-12-2009 14:30:01 -5.3 C 2.57 g/m*3 -5.3 C 0 km/h
554 20-12-2009 14:42:01 -5.2 C 2.62 g/m*3 -5.2 C 0 km/h
555 20-12-2009 14:54:01 -5 C 2.66 g/m*3 -5 C 0 km/h
556 20-12-2009 15:06:01 -5 C 2.66 g/m*3 -5 C 0 km/h
557 20-12-2009 15:18:02 -4.9 C 2.68 g/m*3 -4.9 C 0 km/h
558 20-12-2009 15:30:02 -4.7 C 2.71 g/m*3 -4.7 C 0 km/h
559 20-12-2009 15:42:01 -4.4 C 2.74 g/m*3 -4.4 C 0 km/h
560 20-12-2009 15:54:02 -4.3 C 2.76 g/m*3 -4.3 C 0 km/h
561 20-12-2009 16:06:02 -4.3 C 2.72 g/m*3 -4.3 C 0 km/h
562 20-12-2009 16:18:03 -4 C 2.82 g/m*3 -4 C 0 km/h
563 20-12-2009 16:30:03 -3.8 C 2.86 g/m*3 -3.8 C 0 km/h
564 20-12-2009 16:42:02 -3.7 C 2.84 g/m*3 -3.7 C 0 km/h
565 20-12-2009 16:54:03 -3.7 C 2.8 g/m*3 -3.7 C 0 km/h
566 20-12-2009 17:06:02 -3.5 C 2.84 g/m*3 -3.5 C 0 km/h
567 20-12-2009 17:18:02 -3.2 C 2.9 g/m*3 -3.2 C 0 km/h
568 20-12-2009 17:30:02 -3 C 2.95 g/m*3 -3 C 0 km/h
569 20-12-2009 17:42:02 -2.8 C 2.95 g/m*3 -2.8 C 0 km/h
570 20-12-2009 17:54:02 -2.8 C 2.95 g/m*3 -2.8 C 0 km/h
571 20-12-2009 18:06:02 -2.7 C 2.97 g/m*3 -2.7 C 0 km/h
572 20-12-2009 18:18:02 -2.7 C 2.97 g/m*3 -2.7 C 0 km/h
573 20-12-2009 18:30:02 -2.7 C 3.01 g/m*3 -2.7 C 0 km/h
574 20-12-2009 18:42:02 -2.5 C 3.05 g/m*3 -2.5 C 0 km/h
575 20-12-2009 18:54:02 -2.3 C 3.1 g/m*3 -2.3 C 0 km/h
Sensor: Nr:Datum:Temp:Abs-Feuchte:Windchill:Wind:
Aussen-T/F 576 20-12-2009 19:06:02 -2 C 3.12 g/m*3 -2 C 0 km/h
577 20-12-2009 19:18:01 -1.8 C 3.12 g/m*3 -1.8 C 0 km/h
578 20-12-2009 19:30:01 -1.9 C 3.1 g/m*3 -1.9 C 0 km/h
579 20-12-2009 19:42:02 -2 C 3.08 g/m*3 -2 C 0 km/h
580 20-12-2009 19:54:02 -1.9 C 3.14 g/m*3 -1.9 C 0 km/h
581 20-12-2009 20:06:02 -1.7 C 3.14 g/m*3 -1.7 C 0 km/h
582 20-12-2009 20:18:01 -1.6 C 3.16 g/m*3 -1.6 C 0 km/h
583 20-12-2009 20:30:01 -1.7 C 3.14 g/m*3 -1.7 C 0 km/h
584 20-12-2009 20:42:02 -1.6 C 3.16 g/m*3 -1.6 C 0 km/h
585 20-12-2009 20:54:02 -1.5 C 3.19 g/m*3 -1.5 C 0 km/h
586 20-12-2009 21:06:02 -1.5 C 3.14 g/m*3 -1.5 C 0 km/h
587 20-12-2009 21:18:01 -1.3 C 3.14 g/m*3 -1.3 C 0 km/h
588 20-12-2009 21:30:01 -1.1 C 3.14 g/m*3 -1.1 C 0 km/h
589 20-12-2009 21:42:02 -1.1 C 3.05 g/m*3 -1.1 C 0 km/h
590 20-12-2009 21:54:02 -1.2 C 2.99 g/m*3 -1.2 C 0 km/h
591 20-12-2009 22:06:02 -1.3 C 2.92 g/m*3 -1.3 C 0 km/h
592 20-12-2009 22:18:02 -1.8 C 2.78 g/m*3 -1.8 C 0 km/h
593 20-12-2009 22:30:02 -2 C 2.78 g/m*3 -2 C 0 km/h
594 20-12-2009 22:42:02 -2.1 C 2.76 g/m*3 -2.1 C 0 km/h
595 20-12-2009 22:54:02 -2 C 2.87 g/m*3 -2 C 0 km/h
596 20-12-2009 23:06:01 -2 C 2.87 g/m*3 -2 C 0 km/h
597 20-12-2009 23:18:01 -2.1 C 2.85 g/m*3 -2.1 C 0 km/h
598 20-12-2009 23:30:01 -2.3 C 2.85 g/m*3 -2.3 C 0 km/h
599 20-12-2009 23:42:02 -2.6 C 2.83 g/m*3 -2.6 C 0 km/h
600 20-12-2009 23:54:02 -2.6 C 2.87 g/m*3 -2.6 C 0 km/h
Sensor: Nr:Datum:Temp:Abs-Feuchte:Windchill:Wind:
Aussen-T/F 601 21-12-2009 00:06:02 -2.7 C 2.85 g/m*3 -2.7 C 0 km/h
602 21-12-2009 00:18:02 -3.1 C 2.81 g/m*3 -3.1 C 0 km/h
603 21-12-2009 00:30:02 -3.2 C 2.79 g/m*3 -3.2 C 0 km/h
604 21-12-2009 00:42:02 -3.2 C 2.79 g/m*3 -3.2 C 0 km/h
605 21-12-2009 00:54:01 -3.3 C 2.77 g/m*3 -3.3 C 0 km/h
606 21-12-2009 01:06:02 -3.3 C 2.77 g/m*3 -3.3 C 0 km/h
607 21-12-2009 01:18:01 -3.7 C 2.73 g/m*3 -3.7 C 0 km/h
608 21-12-2009 01:30:01 -3.9 C 2.73 g/m*3 -3.9 C 0 km/h
609 21-12-2009 01:42:02 -4.1 C 2.72 g/m*3 -4.1 C 0 km/h
610 21-12-2009 01:54:02 -4.2 C 2.74 g/m*3 -4.2 C 0 km/h
611 21-12-2009 02:06:02 -4.2 C 2.74 g/m*3 -4.2 C 0 km/h
612 21-12-2009 02:18:01 -4.4 C 2.7 g/m*3 -4.4 C 0 km/h
613 21-12-2009 02:30:01 -4.3 C 2.76 g/m*3 -4.3 C 0 km/h
614 21-12-2009 02:42:02 -4.1 C 2.8 g/m*3 -4.1 C 0 km/h
615 21-12-2009 02:55:03 -4 C 2.82 g/m*3 -4 C 0 km/h
616 21-12-2009 03:07:03 -3.8 C 2.86 g/m*3 -3.8 C 0 km/h
617 21-12-2009 03:19:04 -4 C 2.82 g/m*3 -4 C 0 km/h
618 21-12-2009 03:31:02 -3.9 C 2.84 g/m*3 -3.9 C 0 km/h
619 21-12-2009 03:43:02 -4 C 2.82 g/m*3 -4 C 0 km/h
620 21-12-2009 03:55:02 -4 C 2.82 g/m*3 -4 C 0 km/h
621 21-12-2009 04:07:02 -4 C 2.85 g/m*3 -4 C 0 km/h
622 21-12-2009 04:19:02 -4.4 C 2.74 g/m*3 -4.4 C 0 km/h
623 21-12-2009 04:31:02 -4.8 C 2.66 g/m*3 -4.8 C 0 km/h
624 21-12-2009 04:43:02 -5.2 C 2.62 g/m*3 -5.2 C 0 km/h
625 21-12-2009 04:55:02 -5.3 C 2.63 g/m*3 -5.3 C 0 km/h
Sensor: Nr:Datum:Temp:Abs-Feuchte:Windchill:Wind:
Aussen-T/F 626 21-12-2009 05:07:02 -5.3 C 2.67 g/m*3 -5.3 C 0 km/h
627 21-12-2009 05:19:02 -5.3 C 2.67 g/m*3 -5.3 C 0 km/h
628 21-12-2009 05:31:02 -5.3 C 2.7 g/m*3 -5.3 C 0 km/h
629 21-12-2009 05:43:02 -5.1 C 2.77 g/m*3 -5.1 C 0 km/h
630 21-12-2009 05:55:02 -5.1 C 2.77 g/m*3 -5.1 C 0 km/h
631 21-12-2009 06:07:02 -4.8 C 2.83 g/m*3 -4.8 C 0 km/h
632 21-12-2009 06:19:01 -4.6 C 2.87 g/m*3 -4.6 C 0 km/h
633 21-12-2009 06:31:02 -4.9 C 2.74 g/m*3 -4.9 C 0 km/h
634 21-12-2009 06:43:03 -5.1 C 2.7 g/m*3 -5.1 C 0 km/h
635 21-12-2009 06:55:02 -5 C 2.76 g/m*3 -5 C 0 km/h
636 21-12-2009 07:07:02 -4.7 C 2.82 g/m*3 -4.7 C 0 km/h
637 21-12-2009 07:19:01 -4.3 C 2.86 g/m*3 -4.3 C 0 km/h
638 21-12-2009 07:31:02 -4.2 C 2.81 g/m*3 -4.2 C 0 km/h
639 21-12-2009 07:43:02 -4.3 C 2.76 g/m*3 -4.3 C 0 km/h
640 21-12-2009 07:55:01 -4.5 C 2.72 g/m*3 -4.5 C 0 km/h
641 21-12-2009 08:07:02 -4.8 C 2.63 g/m*3 -4.8 C 0 km/h
642 21-12-2009 08:19:02 -5.2 C 2.55 g/m*3 -5.2 C 0 km/h
643 21-12-2009 08:31:01 -5.6 C 2.51 g/m*3 -5.6 C 0 km/h
644 21-12-2009 08:43:01 -5.7 C 2.49 g/m*3 -5.7 C 0 km/h
645 21-12-2009 08:55:01 -6 C 2.47 g/m*3 -6 C 0 km/h
646 21-12-2009 09:07:01 -5.8 C 2.54 g/m*3 -5.8 C 0 km/h
647 21-12-2009 09:19:02 -5.7 C 2.56 g/m*3 -5.7 C 0 km/h
648 21-12-2009 09:31:01 -5.7 C 2.56 g/m*3 -5.7 C 0 km/h
649 21-12-2009 09:43:01 -5.2 C 2.68 g/m*3 -5.2 C 0 km/h
650 21-12-2009 09:55:02 -5.3 C 2.63 g/m*3 -5.3 C 0 km/h
Sensor: Nr:Datum:Temp:Abs-Feuchte:Windchill:Wind:
Aussen-T/F 651 21-12-2009 10:07:01 -5.1 C 2.67 g/m*3 -5.1 C 0 km/h
652 21-12-2009 10:19:01 -4.7 C 2.75 g/m*3 -4.7 C 0 km/h
653 21-12-2009 10:31:01 -4 C 2.89 g/m*3 -4 C 0 km/h
654 21-12-2009 10:43:01 -3.3 C 2.88 g/m*3 -3.3 C 0 km/h
655 21-12-2009 10:55:02 -2.8 C 2.91 g/m*3 -2.8 C 0 km/h
656 21-12-2009 11:07:02 -2.6 C 2.83 g/m*3 -2.6 C 0 km/h
657 21-12-2009 11:19:02 -2.6 C 2.83 g/m*3 -2.6 C 0 km/h
658 21-12-2009 11:31:02 -2.4 C 2.87 g/m*3 -2.4 C 0 km/h
659 21-12-2009 11:43:02 -2.2 C 2.91 g/m*3 -2.2 C 0 km/h
660 21-12-2009 11:55:02 -2.1 C 2.93 g/m*3 -2.1 C 0 km/h
661 21-12-2009 12:07:01 -1.7 C 2.97 g/m*3 -1.7 C 0 km/h
662 21-12-2009 12:19:01 -1.1 C 3.05 g/m*3 -1.1 C 0 km/h
663 21-12-2009 12:31:02 -0.9 C 3.1 g/m*3 -0.9 C 0 km/h
664 21-12-2009 12:43:02 -0.8 C 3.07 g/m*3 -0.8 C 0 km/h
665 21-12-2009 12:55:02 -0.8 C 3.16 g/m*3 -0.8 C 0 km/h
666 21-12-2009 13:07:01 -0.8 C 3.21 g/m*3 -0.8 C 0 km/h
667 21-12-2009 13:19:02 -0.7 C 3.32 g/m*3 -0.7 C 0 km/h
668 21-12-2009 13:31:02 -0.6 C 3.35 g/m*3 -0.6 C 0 km/h
669 21-12-2009 13:43:02 -0.4 C 3.39 g/m*3 -0.4 C 0 km/h
670 21-12-2009 13:55:02 -0.4 C 3.39 g/m*3 -0.4 C 0 km/h
671 21-12-2009 14:07:02 -0.4 C 3.39 g/m*3 -0.4 C 0 km/h
672 21-12-2009 14:19:02 -0.3 C 3.42 g/m*3 -0.3 C 0 km/h
673 21-12-2009 14:31:02 -0.2 C 3.49 g/m*3 -0.2 C 0 km/h
674 21-12-2009 14:43:02 -0.1 C 3.51 g/m*3 -0.1 C 0 km/h
675 21-12-2009 14:55:01 0.1 C 3.56 g/m*3 0.1 C 0 km/h
Sensor: Nr:Datum:Temp:Abs-Feuchte:Windchill:Wind:
Aussen-T/F 676 21-12-2009 15:07:02 -0.1 C 3.56 g/m*3 -0.1 C 0 km/h
677 21-12-2009 15:19:01 -0.2 C 3.58 g/m*3 -0.2 C 0 km/h
678 21-12-2009 15:31:01 -0.2 C 3.63 g/m*3 -0.2 C 0 km/h
679 21-12-2009 15:43:01 -0.2 C 3.63 g/m*3 -0.2 C 0 km/h
680 21-12-2009 15:55:01 -0.3 C 3.65 g/m*3 -0.3 C 0 km/h
681 21-12-2009 16:07:02 -0.3 C 3.65 g/m*3 -0.3 C 0 km/h
682 21-12-2009 16:19:01 -0.5 C 3.65 g/m*3 -0.5 C 0 km/h
683 21-12-2009 16:31:01 -0.7 C 3.6 g/m*3 -0.7 C 0 km/h
684 21-12-2009 16:43:01 -0.8 C 3.62 g/m*3 -0.8 C 0 km/h
685 21-12-2009 16:55:01 -0.9 C 3.64 g/m*3 -0.9 C 0 km/h
686 21-12-2009 17:07:02 -0.8 C 3.67 g/m*3 -0.8 C 0 km/h
687 21-12-2009 17:19:02 -0.9 C 3.69 g/m*3 -0.9 C 0 km/h
688 21-12-2009 17:31:01 -1 C 3.71 g/m*3 -1 C 0 km/h
689 21-12-2009 17:43:01 -0.9 C 3.73 g/m*3 -0.9 C 0 km/h
690 21-12-2009 17:55:01 -0.7 C 3.83 g/m*3 -0.7 C 0 km/h
691 21-12-2009 18:07:02 -0.7 C 3.83 g/m*3 -0.7 C 0 km/h
692 21-12-2009 18:19:02 -0.6 C 3.86 g/m*3 -0.6 C 0 km/h
693 21-12-2009 18:31:01 -0.5 C 3.88 g/m*3 -0.5 C 0 km/h
694 21-12-2009 18:43:01 -0.2 C 3.97 g/m*3 -0.2 C 0 km/h
695 21-12-2009 18:55:02 0 C 3.97 g/m*3 0 C 0 km/h
696 21-12-2009 19:07:01 0.2 C 3.98 g/m*3 0.2 C 0 km/h
697 21-12-2009 19:19:02 0.3 C 3.96 g/m*3 0.3 C 0 km/h
698 21-12-2009 19:31:01 0.5 C 4.01 g/m*3 0.5 C 0 km/h
699 21-12-2009 19:43:01 0.5 C 4.01 g/m*3 0.5 C 0 km/h
700 21-12-2009 19:55:02 0.5 C 4.01 g/m*3 0.5 C 0 km/h
Sensor: Nr:Datum:Temp:Abs-Feuchte:Windchill:Wind:
Aussen-T/F 701 21-12-2009 20:07:02 0.5 C 4.01 g/m*3 0.5 C 0 km/h
702 21-12-2009 20:19:02 0.6 C 4.09 g/m*3 0.6 C 0 km/h
703 21-12-2009 20:31:03 0.5 C 4.06 g/m*3 0.5 C 0 km/h
704 21-12-2009 20:43:03 0.6 C 4.19 g/m*3 0.6 C 0 km/h
705 21-12-2009 20:55:02 0.7 C 4.27 g/m*3 0.7 C 0 km/h
706 21-12-2009 21:07:01 0.7 C 4.32 g/m*3 0.7 C 0 km/h
707 21-12-2009 21:19:02 1 C 4.41 g/m*3 1 C 0 km/h
708 21-12-2009 21:31:02 0.8 C 4.35 g/m*3 0.8 C 0 km/h
709 21-12-2009 21:43:02 0.7 C 4.37 g/m*3 0.7 C 0 km/h
710 21-12-2009 21:55:02 0.7 C 4.42 g/m*3 0.7 C 0 km/h
711 21-12-2009 22:08:02 0.6 C 4.44 g/m*3 0.6 C 0 km/h
712 21-12-2009 22:20:02 0.7 C 4.47 g/m*3 0.7 C 0 km/h
713 21-12-2009 22:32:02 0.6 C 4.49 g/m*3 0.6 C 0 km/h
714 21-12-2009 22:44:02 0.7 C 4.53 g/m*3 0.7 C 0 km/h
715 21-12-2009 22:56:02 0.8 C 4.56 g/m*3 0.8 C 0 km/h
716 21-12-2009 23:08:02 0.6 C 4.49 g/m*3 0.6 C 0 km/h
717 21-12-2009 23:20:02 0.7 C 4.53 g/m*3 0.7 C 0 km/h
718 21-12-2009 23:32:02 0.8 C 4.56 g/m*3 0.8 C 0 km/h
719 21-12-2009 23:44:02 0.8 C 4.56 g/m*3 0.8 C 0 km/h
720 21-12-2009 23:56:02 0.8 C 4.56 g/m*3 0.8 C 0 km/h
721 22-12-2009 00:08:02 0.8 C 4.56 g/m*3 0.8 C 0 km/h
722 22-12-2009 00:20:02 0.9 C 4.54 g/m*3 0.9 C 0 km/h
723 22-12-2009 00:32:02 1 C 4.52 g/m*3 1 C 0 km/h
724 22-12-2009 00:44:02 1.1 C 4.55 g/m*3 1.1 C 0 km/h
725 22-12-2009 00:56:02 1 C 4.52 g/m*3 1 C 0 km/h
Sensor: Nr:Datum:Temp:Abs-Feuchte:Windchill:Wind:
Aussen-T/F 726 22-12-2009 01:08:02 1 C 4.52 g/m*3 1 C 0 km/h
727 22-12-2009 01:20:02 1 C 4.52 g/m*3 1 C 0 km/h
728 22-12-2009 01:32:02 1 C 4.52 g/m*3 1 C 0 km/h
729 22-12-2009 01:44:02 1 C 4.57 g/m*3 1 C 0 km/h
730 22-12-2009 01:56:02 1.1 C 4.6 g/m*3 1.1 C 0 km/h
731 22-12-2009 02:08:02 1.2 C 4.63 g/m*3 1.2 C 0 km/h
732 22-12-2009 02:20:03 1.1 C 4.6 g/m*3 1.1 C 0 km/h
733 22-12-2009 02:32:03 1.2 C 4.63 g/m*3 1.2 C 0 km/h
734 22-12-2009 02:44:03 1.2 C 4.63 g/m*3 1.2 C 0 km/h
735 22-12-2009 02:56:03 1 C 4.57 g/m*3 1 C 0 km/h
736 22-12-2009 03:08:03 0.9 C 4.59 g/m*3 0.9 C 0 km/h
737 22-12-2009 03:20:03 1.1 C 4.65 g/m*3 1.1 C 0 km/h
738 22-12-2009 03:32:03 1.1 C 4.65 g/m*3 1.1 C 0 km/h
739 22-12-2009 03:44:03 0.9 C 4.64 g/m*3 0.9 C 0 km/h
740 22-12-2009 03:56:03 1.1 C 4.7 g/m*3 1.1 C 0 km/h
741 22-12-2009 04:08:03 1.2 C 4.79 g/m*3 1.2 C 0 km/h
742 22-12-2009 04:20:03 1.3 C 4.82 g/m*3 1.3 C 0 km/h
743 22-12-2009 04:32:03 1.6 C 4.92 g/m*3 1.6 C 0 km/h
744 22-12-2009 04:44:03 1.5 C 4.89 g/m*3 1.5 C 0 km/h
745 22-12-2009 04:56:03 1.5 C 4.89 g/m*3 1.5 C 0 km/h
746 22-12-2009 05:08:03 1.7 C 4.95 g/m*3 1.7 C 0 km/h
747 22-12-2009 05:20:03 1.6 C 4.92 g/m*3 1.6 C 0 km/h
748 22-12-2009 05:32:03 1.6 C 4.97 g/m*3 1.6 C 0 km/h
749 22-12-2009 05:44:03 1.6 C 4.97 g/m*3 1.6 C 0 km/h
750 22-12-2009 05:56:03 1.8 C 5.04 g/m*3 1.8 C 0 km/h
Sensor: Nr:Datum:Temp:Abs-Feuchte:Windchill:Wind:
Aussen-T/F 751 22-12-2009 06:08:03 1.8 C 5.1 g/m*3 1.8 C 0 km/h
752 22-12-2009 06:20:03 2 C 5.17 g/m*3 2 C 0 km/h
753 22-12-2009 06:32:04 2.3 C 5.27 g/m*3 2.3 C 0 km/h
754 22-12-2009 06:44:04 2.5 C 5.4 g/m*3 2.5 C 0 km/h
755 22-12-2009 06:56:04 2.5 C 5.4 g/m*3 2.5 C 0 km/h
756 22-12-2009 07:08:02 2.5 C 5.4 g/m*3 2.5 C 0 km/h
757 22-12-2009 07:20:02 2.6 C 5.44 g/m*3 2.6 C 0 km/h
758 22-12-2009 07:32:01 2.8 C 5.57 g/m*3 2.8 C 0 km/h
759 22-12-2009 07:44:01 2.8 C 5.57 g/m*3 2.8 C 0 km/h
760 22-12-2009 07:56:02 2.7 C 5.54 g/m*3 2.7 C 0 km/h
761 22-12-2009 08:08:01 2.7 C 5.54 g/m*3 2.7 C 0 km/h
762 22-12-2009 08:20:02 3 C 5.65 g/m*3 3 C 0 km/h
763 22-12-2009 08:32:02 3 C 5.65 g/m*3 3 C 0 km/h
764 22-12-2009 08:44:02 3.1 C 5.69 g/m*3 3.1 C 0 km/h
765 22-12-2009 08:56:02 3 C 5.65 g/m*3 3 C 0 km/h
766 22-12-2009 09:08:02 3 C 5.65 g/m*3 3 C 0 km/h
767 22-12-2009 09:20:02 3.3 C 5.76 g/m*3 3.3 C 0 km/h
768 22-12-2009 09:32:02 3.4 C 5.8 g/m*3 3.4 C 0 km/h
769 22-12-2009 09:44:02 3.4 C 5.8 g/m*3 3.4 C 0 km/h
770 22-12-2009 09:56:01 3.4 C 5.8 g/m*3 3.4 C 0 km/h
771 22-12-2009 10:08:02 3.5 C 5.84 g/m*3 3.5 C 0 km/h
772 22-12-2009 10:20:01 3.5 C 5.84 g/m*3 3.5 C 0 km/h
773 22-12-2009 10:32:02 3.5 C 5.84 g/m*3 3.5 C 0 km/h
774 22-12-2009 10:44:02 3.6 C 5.88 g/m*3 3.6 C 0 km/h
775 22-12-2009 10:56:02 3.7 C 5.92 g/m*3 3.7 C 0 km/h
Sensor: Nr:Datum:Temp:Abs-Feuchte:Windchill:Wind:
Aussen-T/F 776 22-12-2009 11:08:02 3.8 C 5.96 g/m*3 3.8 C 0 km/h
777 22-12-2009 11:20:01 3.9 C 6 g/m*3 3.9 C 0 km/h
778 22-12-2009 11:32:02 3.8 C 5.96 g/m*3 3.8 C 0 km/h
779 22-12-2009 11:44:02 4 C 6.04 g/m*3 4 C 0 km/h
780 22-12-2009 11:56:02 4.3 C 6.16 g/m*3 4.3 C 0 km/h
781 22-12-2009 12:08:02 5 C 6.46 g/m*3 5 C 0 km/h
782 22-12-2009 12:20:01 5.6 C 6.72 g/m*3 5.6 C 0 km/h
783 22-12-2009 12:32:02 6 C 6.9 g/m*3 6 C 0 km/h
784 22-12-2009 12:44:02 6 C 6.9 g/m*3 6 C 0 km/h
785 22-12-2009 12:56:02 6 C 6.68 g/m*3 6 C 0 km/h
786 22-12-2009 13:08:02 6 C 6.46 g/m*3 6 C 0 km/h
787 22-12-2009 13:20:02 6.2 C 6.25 g/m*3 6.2 C 0 km/h
788 22-12-2009 13:32:02 6.3 C 6.07 g/m*3 6.3 C 0 km/h
789 22-12-2009 13:44:02 6.1 C 5.77 g/m*3 6.1 C 0 km/h
790 22-12-2009 13:56:01 5.9 C 5.7 g/m*3 5.9 C 0 km/h
791 22-12-2009 14:08:02 6 C 5.52 g/m*3 6 C 0 km/h
792 22-12-2009 14:20:02 5.9 C 5.34 g/m*3 5.9 C 0 km/h
793 22-12-2009 14:32:02 5.7 C 5.05 g/m*3 5.7 C 0 km/h
794 22-12-2009 14:44:02 5.6 C 4.95 g/m*3 5.6 C 0 km/h
795 22-12-2009 14:56:02 5.5 C 4.92 g/m*3 5.5 C 0 km/h
796 22-12-2009 15:08:02 5.1 C 4.86 g/m*3 5.1 C 0 km/h
797 22-12-2009 15:20:02 5 C 4.76 g/m*3 5 C 0 km/h
798 22-12-2009 15:32:01 4.6 C 4.7 g/m*3 4.6 C 0 km/h
799 22-12-2009 15:44:01 4.4 C 4.7 g/m*3 4.4 C 0 km/h
800 22-12-2009 15:56:02 4.2 C 4.64 g/m*3 4.2 C 0 km/h
Sensor: Nr:Datum:Temp:Abs-Feuchte:Windchill:Wind:
Aussen-T/F 801 22-12-2009 16:08:01 3.9 C 4.61 g/m*3 3.9 C 0 km/h
802 22-12-2009 16:20:01 3.5 C 4.55 g/m*3 3.5 C 0 km/h
803 22-12-2009 16:32:02 3.4 C 4.64 g/m*3 3.4 C 0 km/h
804 22-12-2009 16:44:02 3.6 C 4.64 g/m*3 3.6 C 0 km/h
805 22-12-2009 16:56:02 3.4 C 4.64 g/m*3 3.4 C 0 km/h
806 22-12-2009 17:08:02 3.4 C 4.64 g/m*3 3.4 C 0 km/h
807 22-12-2009 17:20:02 3.5 C 4.55 g/m*3 3.5 C 0 km/h
808 22-12-2009 17:32:02 3.5 C 4.49 g/m*3 3.5 C 0 km/h
809 22-12-2009 17:44:02 3.4 C 4.46 g/m*3 3.4 C 0 km/h
810 22-12-2009 17:56:02 3.2 C 4.4 g/m*3 3.2 C 0 km/h
811 22-12-2009 18:08:02 3 C 4.46 g/m*3 3 C 0 km/h
812 22-12-2009 18:20:01 2.8 C 4.52 g/m*3 2.8 C 0 km/h
813 22-12-2009 18:32:02 2.8 C 4.58 g/m*3 2.8 C 0 km/h
814 22-12-2009 18:44:02 2.7 C 4.54 g/m*3 2.7 C 0 km/h
815 22-12-2009 18:56:02 2.7 C 4.6 g/m*3 2.7 C 0 km/h
816 22-12-2009 19:08:02 2.6 C 4.57 g/m*3 2.6 C 0 km/h
817 22-12-2009 19:20:02 2.5 C 4.54 g/m*3 2.5 C 0 km/h
818 22-12-2009 19:32:02 2.6 C 4.63 g/m*3 2.6 C 0 km/h
819 22-12-2009 19:44:03 2.4 C 4.62 g/m*3 2.4 C 0 km/h
820 22-12-2009 19:56:02 2.2 C 4.62 g/m*3 2.2 C 0 km/h
821 22-12-2009 20:08:02 2.2 C 4.73 g/m*3 2.2 C 0 km/h
822 22-12-2009 20:20:02 2.1 C 4.81 g/m*3 2.1 C 0 km/h
823 22-12-2009 20:32:02 2.1 C 4.87 g/m*3 2.1 C 0 km/h
824 22-12-2009 20:44:02 2 C 4.83 g/m*3 2 C 0 km/h
825 22-12-2009 20:56:01 1.9 C 4.91 g/m*3 1.9 C 0 km/h
Sensor: Nr:Datum:Temp:Abs-Feuchte:Windchill:Wind:
Aussen-T/F 826 22-12-2009 21:08:01 1.7 C 4.85 g/m*3 1.7 C 0 km/h
827 22-12-2009 21:20:01 1.6 C 4.87 g/m*3 1.6 C 0 km/h
828 22-12-2009 21:32:01 1.5 C 4.89 g/m*3 1.5 C 0 km/h
829 22-12-2009 21:44:01 1.4 C 4.85 g/m*3 1.4 C 0 km/h
830 22-12-2009 21:56:01 1.3 C 4.82 g/m*3 1.3 C 0 km/h
831 22-12-2009 22:08:01 1 C 4.72 g/m*3 1 C 0 km/h
832 22-12-2009 22:21:02 0.8 C 4.71 g/m*3 0.8 C 0 km/h
833 22-12-2009 22:33:02 0.8 C 4.76 g/m*3 0.8 C 0 km/h
834 22-12-2009 22:45:02 0.8 C 4.76 g/m*3 0.8 C 0 km/h
835 22-12-2009 22:57:02 0.8 C 4.76 g/m*3 0.8 C 0 km/h
836 22-12-2009 23:09:02 0.7 C 4.73 g/m*3 0.7 C 0 km/h
837 22-12-2009 23:21:02 0.5 C 4.66 g/m*3 0.5 C 0 km/h
838 22-12-2009 23:33:02 0.4 C 4.63 g/m*3 0.4 C 0 km/h
839 22-12-2009 23:45:02 0.4 C 4.63 g/m*3 0.4 C 0 km/h
840 22-12-2009 23:57:02 0.4 C 4.63 g/m*3 0.4 C 0 km/h
841 23-12-2009 00:09:02 0.4 C 4.68 g/m*3 0.4 C 0 km/h
842 23-12-2009 00:21:02 0.4 C 4.68 g/m*3 0.4 C 0 km/h
843 23-12-2009 00:33:02 0.5 C 4.71 g/m*3 0.5 C 0 km/h
844 23-12-2009 00:45:02 0.5 C 4.71 g/m*3 0.5 C 0 km/h
845 23-12-2009 00:57:03 0.6 C 4.8 g/m*3 0.6 C 0 km/h
846 23-12-2009 01:09:03 0.5 C 4.76 g/m*3 0.5 C 0 km/h
847 23-12-2009 01:21:03 0.5 C 4.76 g/m*3 0.5 C 0 km/h
848 23-12-2009 01:33:03 0.6 C 4.8 g/m*3 0.6 C 0 km/h
849 23-12-2009 01:45:03 0.6 C 4.8 g/m*3 0.6 C 0 km/h
850 23-12-2009 01:57:03 0.6 C 4.8 g/m*3 0.6 C 0 km/h
Sensor: Nr:Datum:Temp:Abs-Feuchte:Windchill:Wind:
Aussen-T/F 851 23-12-2009 02:09:03 0.6 C 4.8 g/m*3 0.6 C 0 km/h
852 23-12-2009 02:21:03 0.6 C 4.8 g/m*3 0.6 C 0 km/h
853 23-12-2009 02:33:03 0.6 C 4.8 g/m*3 0.6 C 0 km/h
854 23-12-2009 02:45:03 0.7 C 4.83 g/m*3 0.7 C 0 km/h
855 23-12-2009 02:57:03 0.6 C 4.8 g/m*3 0.6 C 0 km/h
856 23-12-2009 03:09:03 0.6 C 4.8 g/m*3 0.6 C 0 km/h
857 23-12-2009 03:21:03 0.5 C 4.76 g/m*3 0.5 C 0 km/h
858 23-12-2009 03:33:03 0.4 C 4.73 g/m*3 0.4 C 0 km/h
859 23-12-2009 03:45:03 0.4 C 4.73 g/m*3 0.4 C 0 km/h
860 23-12-2009 03:57:03 0.3 C 4.7 g/m*3 0.3 C 0 km/h
861 23-12-2009 04:09:03 0.3 C 4.7 g/m*3 0.3 C 0 km/h
862 23-12-2009 04:21:03 0.3 C 4.7 g/m*3 0.3 C 0 km/h
863 23-12-2009 04:33:03 0.3 C 4.7 g/m*3 0.3 C 0 km/h
864 23-12-2009 04:45:03 0.4 C 4.73 g/m*3 0.4 C 0 km/h
865 23-12-2009 04:57:04 0.2 C 4.67 g/m*3 0.2 C 0 km/h
866 23-12-2009 05:09:04 0.3 C 4.7 g/m*3 0.3 C 0 km/h
867 23-12-2009 05:21:04 0.3 C 4.7 g/m*3 0.3 C 0 km/h
868 23-12-2009 05:33:04 0.3 C 4.7 g/m*3 0.3 C 0 km/h
869 23-12-2009 05:45:04 0.3 C 4.7 g/m*3 0.3 C 0 km/h
870 23-12-2009 05:57:04 0.3 C 4.7 g/m*3 0.3 C 0 km/h
871 23-12-2009 06:09:04 0.1 C 4.63 g/m*3 0.1 C 0 km/h
872 23-12-2009 06:21:04 0.1 C 4.63 g/m*3 0.1 C 0 km/h
873 23-12-2009 06:33:03 0.2 C 4.67 g/m*3 0.2 C 0 km/h
874 23-12-2009 06:45:02 0.3 C 4.7 g/m*3 0.3 C 0 km/h
875 23-12-2009 06:57:02 0.3 C 4.7 g/m*3 0.3 C 0 km/h
Sensor: Nr:Datum:Temp:Abs-Feuchte:Windchill:Wind:
Aussen-T/F 876 23-12-2009 07:09:02 0.3 C 4.7 g/m*3 0.3 C 0 km/h
877 23-12-2009 07:21:02 0.1 C 4.63 g/m*3 0.1 C 0 km/h
878 23-12-2009 07:33:02 -0.2 C 4.54 g/m*3 -0.2 C 0 km/h
879 23-12-2009 07:45:02 -0.4 C 4.48 g/m*3 -0.4 C 0 km/h
880 23-12-2009 07:57:02 -0.6 C 4.42 g/m*3 -0.6 C 0 km/h
881 23-12-2009 08:09:02 -1 C 4.29 g/m*3 -1 C 0 km/h
882 23-12-2009 08:21:02 -1.2 C 4.24 g/m*3 -1.2 C 0 km/h
883 23-12-2009 08:33:02 -1.4 C 4.18 g/m*3 -1.4 C 0 km/h
884 23-12-2009 08:45:01 -1.4 C 4.18 g/m*3 -1.4 C 0 km/h
885 23-12-2009 08:57:01 -1.4 C 4.18 g/m*3 -1.4 C 0 km/h
886 23-12-2009 09:09:01 -1.4 C 4.18 g/m*3 -1.4 C 0 km/h
887 23-12-2009 09:21:01 -1.2 C 4.24 g/m*3 -1.2 C 0 km/h
888 23-12-2009 09:33:01 -1 C 4.29 g/m*3 -1 C 0 km/h
889 23-12-2009 09:45:01 -0.5 C 4.45 g/m*3 -0.5 C 0 km/h
890 23-12-2009 09:57:01 -0.3 C 4.51 g/m*3 -0.3 C 0 km/h
891 23-12-2009 10:09:01 0.1 C 4.63 g/m*3 0.1 C 0 km/h
892 23-12-2009 10:21:02 0.2 C 4.67 g/m*3 0.2 C 0 km/h
893 23-12-2009 10:33:01 0.2 C 4.67 g/m*3 0.2 C 0 km/h
894 23-12-2009 10:45:02 0.5 C 4.76 g/m*3 0.5 C 0 km/h
895 23-12-2009 10:57:02 0.8 C 4.86 g/m*3 0.8 C 0 km/h
896 23-12-2009 11:09:02 0.8 C 4.81 g/m*3 0.8 C 0 km/h
897 23-12-2009 11:21:03 0.9 C 4.74 g/m*3 0.9 C 0 km/h
898 23-12-2009 11:33:02 0.9 C 4.69 g/m*3 0.9 C 0 km/h
899 23-12-2009 11:45:02 0.5 C 4.46 g/m*3 0.5 C 0 km/h
900 23-12-2009 11:57:02 0.4 C 4.43 g/m*3 0.4 C 0 km/h
Sensor: Nr:Datum:Temp:Abs-Feuchte:Windchill:Wind:
Aussen-T/F 901 23-12-2009 12:09:02 0.4 C 4.43 g/m*3 0.4 C 0 km/h
902 23-12-2009 12:21:02 0.9 C 4.64 g/m*3 0.9 C 0 km/h
903 23-12-2009 12:33:02 1 C 4.62 g/m*3 1 C 0 km/h
904 23-12-2009 12:45:02 1 C 4.62 g/m*3 1 C 0 km/h
905 23-12-2009 12:57:02 1.1 C 4.65 g/m*3 1.1 C 0 km/h
906 23-12-2009 13:09:01 1.5 C 4.78 g/m*3 1.5 C 0 km/h
907 23-12-2009 13:21:02 2 C 4.89 g/m*3 2 C 0 km/h
908 23-12-2009 13:33:02 2.3 C 4.93 g/m*3 2.3 C 0 km/h
909 23-12-2009 13:45:02 2.5 C 5 g/m*3 2.5 C 0 km/h
910 23-12-2009 13:57:03 2.4 C 4.97 g/m*3 2.4 C 0 km/h
911 23-12-2009 14:09:02 1.6 C 4.65 g/m*3 1.6 C 0 km/h
912 23-12-2009 14:21:02 2 C 4.83 g/m*3 2 C 0 km/h
913 23-12-2009 14:33:02 2.3 C 4.93 g/m*3 2.3 C 0 km/h
914 23-12-2009 14:45:02 2.3 C 4.93 g/m*3 2.3 C 0 km/h
915 23-12-2009 14:57:02 1.8 C 4.77 g/m*3 1.8 C 0 km/h
916 23-12-2009 15:09:02 1.6 C 4.76 g/m*3 1.6 C 0 km/h
917 23-12-2009 15:21:01 1.3 C 4.66 g/m*3 1.3 C 0 km/h
918 23-12-2009 15:33:02 1.2 C 4.63 g/m*3 1.2 C 0 km/h
919 23-12-2009 15:45:02 1 C 4.62 g/m*3 1 C 0 km/h
920 23-12-2009 15:57:02 1.1 C 4.65 g/m*3 1.1 C 0 km/h
921 23-12-2009 16:09:02 0.8 C 4.61 g/m*3 0.8 C 0 km/h
922 23-12-2009 16:21:02 0.5 C 4.51 g/m*3 0.5 C 0 km/h
923 23-12-2009 16:33:02 0.4 C 4.48 g/m*3 0.4 C 0 km/h
924 23-12-2009 16:45:02 0.2 C 4.47 g/m*3 0.2 C 0 km/h
925 23-12-2009 16:57:02 0 C 4.41 g/m*3 0 C 0 km/h
Sensor: Nr:Datum:Temp:Abs-Feuchte:Windchill:Wind:
Aussen-T/F 926 23-12-2009 17:09:01 -0.2 C 4.4 g/m*3 -0.2 C 0 km/h
927 23-12-2009 17:21:02 -0.3 C 4.37 g/m*3 -0.3 C 0 km/h
928 23-12-2009 17:33:01 -0.3 C 4.41 g/m*3 -0.3 C 0 km/h
929 23-12-2009 17:45:01 -0.5 C 4.35 g/m*3 -0.5 C 0 km/h
930 23-12-2009 17:57:01 -0.5 C 4.35 g/m*3 -0.5 C 0 km/h
931 23-12-2009 18:09:02 -0.5 C 4.35 g/m*3 -0.5 C 0 km/h
932 23-12-2009 18:21:01 -0.6 C 4.32 g/m*3 -0.6 C 0 km/h
933 23-12-2009 18:33:02 -0.7 C 4.34 g/m*3 -0.7 C 0 km/h
934 23-12-2009 18:45:02 -0.7 C 4.34 g/m*3 -0.7 C 0 km/h
935 23-12-2009 18:57:02 -0.3 C 4.46 g/m*3 -0.3 C 0 km/h
936 23-12-2009 19:09:02 0 C 4.6 g/m*3 0 C 0 km/h
937 23-12-2009 19:21:02 0.2 C 4.67 g/m*3 0.2 C 0 km/h
938 23-12-2009 19:33:02 0.2 C 4.67 g/m*3 0.2 C 0 km/h
939 23-12-2009 19:45:02 0.3 C 4.7 g/m*3 0.3 C 0 km/h
940 23-12-2009 19:57:02 0.3 C 4.7 g/m*3 0.3 C 0 km/h
941 23-12-2009 20:09:02 0.5 C 4.76 g/m*3 0.5 C 0 km/h
942 23-12-2009 20:21:02 0.6 C 4.8 g/m*3 0.6 C 0 km/h
943 23-12-2009 20:33:02 0.7 C 4.83 g/m*3 0.7 C 0 km/h
944 23-12-2009 20:45:01 0.8 C 4.86 g/m*3 0.8 C 0 km/h
945 23-12-2009 20:57:01 1 C 4.93 g/m*3 1 C 0 km/h
946 23-12-2009 21:09:01 1 C 4.93 g/m*3 1 C 0 km/h
947 23-12-2009 21:21:01 1.1 C 4.96 g/m*3 1.1 C 0 km/h
948 23-12-2009 21:33:01 1.2 C 5 g/m*3 1.2 C 0 km/h
949 23-12-2009 21:45:01 1.2 C 5 g/m*3 1.2 C 0 km/h
950 23-12-2009 21:57:01 1.3 C 5.03 g/m*3 1.3 C 0 km/h
Sensor: Nr:Datum:Temp:Abs-Feuchte:Windchill:Wind:
Aussen-T/F 951 23-12-2009 22:09:01 1.3 C 5.03 g/m*3 1.3 C 0 km/h
952 23-12-2009 22:21:02 1.3 C 5.03 g/m*3 1.3 C 0 km/h
953 23-12-2009 22:33:01 1.3 C 5.03 g/m*3 1.3 C 0 km/h
954 23-12-2009 22:45:02 1.2 C 5 g/m*3 1.2 C 0 km/h
955 23-12-2009 22:57:02 1.1 C 4.96 g/m*3 1.1 C 0 km/h
956 23-12-2009 23:09:02 1.1 C 4.96 g/m*3 1.1 C 0 km/h
957 23-12-2009 23:21:02 1.1 C 4.96 g/m*3 1.1 C 0 km/h
958 23-12-2009 23:33:02 1.2 C 5 g/m*3 1.2 C 0 km/h
959 23-12-2009 23:45:02 1.2 C 5 g/m*3 1.2 C 0 km/h
960 23-12-2009 23:57:02 1.2 C 5 g/m*3 1.2 C 0 km/h
961 24-12-2009 00:09:01 1.2 C 5 g/m*3 1.2 C 0 km/h
962 24-12-2009 00:21:02 1.2 C 5 g/m*3 1.2 C 0 km/h
963 24-12-2009 00:34:03 1.1 C 4.96 g/m*3 1.1 C 0 km/h
964 24-12-2009 00:46:03 1.2 C 5 g/m*3 1.2 C 0 km/h
965 24-12-2009 00:58:03 1.2 C 5 g/m*3 1.2 C 0 km/h
966 24-12-2009 01:10:03 1.1 C 4.91 g/m*3 1.1 C 0 km/h
967 24-12-2009 01:22:03 1.1 C 4.91 g/m*3 1.1 C 0 km/h
968 24-12-2009 01:34:04 1.2 C 4.95 g/m*3 1.2 C 0 km/h
969 24-12-2009 01:46:04 1.2 C 4.95 g/m*3 1.2 C 0 km/h
970 24-12-2009 01:58:04 1.1 C 4.91 g/m*3 1.1 C 0 km/h
971 24-12-2009 02:10:04 1 C 4.88 g/m*3 1 C 0 km/h
972 24-12-2009 02:22:04 0.9 C 4.85 g/m*3 0.9 C 0 km/h
973 24-12-2009 02:34:04 1 C 4.88 g/m*3 1 C 0 km/h
974 24-12-2009 02:46:04 0.9 C 4.9 g/m*3 0.9 C 0 km/h
975 24-12-2009 02:58:04 0.6 C 4.75 g/m*3 0.6 C 0 km/h
Sensor: Nr:Datum:Temp:Abs-Feuchte:Windchill:Wind:
Aussen-T/F 976 24-12-2009 03:10:04 0.6 C 4.8 g/m*3 0.6 C 0 km/h
977 24-12-2009 03:22:04 0.7 C 4.83 g/m*3 0.7 C 0 km/h
978 24-12-2009 03:34:04 0.8 C 4.86 g/m*3 0.8 C 0 km/h
979 24-12-2009 03:46:04 0.9 C 4.9 g/m*3 0.9 C 0 km/h
980 24-12-2009 03:58:04 1 C 4.93 g/m*3 1 C 0 km/h
981 24-12-2009 04:10:04 1.1 C 4.96 g/m*3 1.1 C 0 km/h
982 24-12-2009 04:22:04 1.1 C 4.96 g/m*3 1.1 C 0 km/h
983 24-12-2009 04:34:04 1.2 C 5 g/m*3 1.2 C 0 km/h
984 24-12-2009 04:46:04 1.2 C 5 g/m*3 1.2 C 0 km/h
985 24-12-2009 04:58:04 1.3 C 5.03 g/m*3 1.3 C 0 km/h
986 24-12-2009 05:10:04 1.3 C 5.03 g/m*3 1.3 C 0 km/h
987 24-12-2009 05:22:04 1.4 C 5.07 g/m*3 1.4 C 0 km/h
988 24-12-2009 05:34:04 1.3 C 5.03 g/m*3 1.3 C 0 km/h
989 24-12-2009 05:46:05 1.3 C 5.03 g/m*3 1.3 C 0 km/h
990 24-12-2009 05:58:05 1.4 C 5.01 g/m*3 1.4 C 0 km/h
991 24-12-2009 06:10:05 1.3 C 4.98 g/m*3 1.3 C 0 km/h
992 24-12-2009 06:22:05 1.2 C 4.95 g/m*3 1.2 C 0 km/h
993 24-12-2009 06:34:05 1.3 C 4.98 g/m*3 1.3 C 0 km/h
994 24-12-2009 06:46:05 1.3 C 4.98 g/m*3 1.3 C 0 km/h
995 24-12-2009 06:58:05 1.3 C 4.98 g/m*3 1.3 C 0 km/h
996 24-12-2009 07:10:05 1.4 C 5.01 g/m*3 1.4 C 0 km/h
997 24-12-2009 07:22:05 1.4 C 5.01 g/m*3 1.4 C 0 km/h
998 24-12-2009 07:34:05 1.4 C 5.01 g/m*3 1.4 C 0 km/h
999 24-12-2009 07:46:05 1.4 C 5.01 g/m*3 1.4 C 0 km/h
1000 24-12-2009 07:58:05 1.4 C 5.01 g/m*3 1.4 C 0 km/h
Sensor: Nr:Datum:Temp:Abs-Feuchte:Windchill:Wind:
Aussen-T/F 1001 24-12-2009 08:10:05 1.5 C 5.05 g/m*3 1.5 C 0 km/h
1002 24-12-2009 08:22:05 1.6 C 5.08 g/m*3 1.6 C 0 km/h
1003 24-12-2009 08:34:05 1.6 C 5.08 g/m*3 1.6 C 0 km/h
1004 24-12-2009 08:46:05 1.6 C 5.08 g/m*3 1.6 C 0 km/h
1005 24-12-2009 08:58:05 1.7 C 5.12 g/m*3 1.7 C 0 km/h
1006 24-12-2009 09:10:05 1.7 C 5.12 g/m*3 1.7 C 0 km/h
1007 24-12-2009 09:22:05 1.7 C 5.12 g/m*3 1.7 C 0 km/h
1008 24-12-2009 09:34:05 1.8 C 5.15 g/m*3 1.8 C 0 km/h
1009 24-12-2009 09:46:06 1.9 C 5.19 g/m*3 1.9 C 0 km/h
1010 24-12-2009 09:58:06 2 C 5.17 g/m*3 2 C 0 km/h
1011 24-12-2009 10:10:06 2 C 5.17 g/m*3 2 C 0 km/h
1012 24-12-2009 10:22:02 2.1 C 5.2 g/m*3 2.1 C 0 km/h
1013 24-12-2009 10:34:02 2.2 C 5.24 g/m*3 2.2 C 0 km/h
1014 24-12-2009 10:46:01 2.3 C 5.22 g/m*3 2.3 C 0 km/h
1015 24-12-2009 10:58:01 2.6 C 5.32 g/m*3 2.6 C 0 km/h
1016 24-12-2009 11:10:02 2.7 C 5.36 g/m*3 2.7 C 0 km/h
1017 24-12-2009 11:22:01 2.8 C 5.34 g/m*3 2.8 C 0 km/h
1018 24-12-2009 11:34:02 3 C 5.35 g/m*3 3 C 0 km/h
1019 24-12-2009 11:46:01 3.2 C 5.42 g/m*3 3.2 C 0 km/h
1020 24-12-2009 11:58:01 3.6 C 5.57 g/m*3 3.6 C 0 km/h
1021 24-12-2009 12:10:02 3.7 C 5.55 g/m*3 3.7 C 0 km/h
1022 24-12-2009 12:22:01 4.1 C 5.57 g/m*3 4.1 C 0 km/h
1023 24-12-2009 12:34:02 4.4 C 5.62 g/m*3 4.4 C 0 km/h
1024 24-12-2009 12:46:02 4.2 C 5.22 g/m*3 4.2 C 0 km/h
1025 24-12-2009 12:58:02 4.1 C 5.06 g/m*3 4.1 C 0 km/h
Sensor: Nr:Datum:Temp:Abs-Feuchte:Windchill:Wind:
Aussen-T/F 1026 24-12-2009 13:10:02 4 C 5.02 g/m*3 4 C 0 km/h
1027 24-12-2009 13:22:01 4 C 5.02 g/m*3 4 C 0 km/h
1028 24-12-2009 13:34:02 4.2 C 5.09 g/m*3 4.2 C 0 km/h
1029 24-12-2009 13:46:01 4.3 C 5.06 g/m*3 4.3 C 0 km/h
1030 24-12-2009 13:58:01 4.4 C 5.03 g/m*3 4.4 C 0 km/h
1031 24-12-2009 14:10:02 4.3 C 4.99 g/m*3 4.3 C 0 km/h
1032 24-12-2009 14:22:02 4.1 C 4.93 g/m*3 4.1 C 0 km/h
1033 24-12-2009 14:34:02 4.1 C 4.99 g/m*3 4.1 C 0 km/h
1034 24-12-2009 14:46:01 4.2 C 5.09 g/m*3 4.2 C 0 km/h
1035 24-12-2009 14:58:01 4 C 5.02 g/m*3 4 C 0 km/h
1036 24-12-2009 15:10:02 3.9 C 5.05 g/m*3 3.9 C 0 km/h
1037 24-12-2009 15:22:02 3.8 C 5.08 g/m*3 3.8 C 0 km/h
1038 24-12-2009 15:34:02 3.6 C 5.08 g/m*3 3.6 C 0 km/h
1039 24-12-2009 15:46:02 3.5 C 5.1 g/m*3 3.5 C 0 km/h
1040 24-12-2009 15:58:02 3.4 C 5.07 g/m*3 3.4 C 0 km/h
1041 24-12-2009 16:10:02 3.2 C 5.06 g/m*3 3.2 C 0 km/h
1042 24-12-2009 16:22:02 3 C 4.99 g/m*3 3 C 0 km/h
1043 24-12-2009 16:34:01 2.8 C 5.04 g/m*3 2.8 C 0 km/h
1044 24-12-2009 16:46:02 2.7 C 5.07 g/m*3 2.7 C 0 km/h
1045 24-12-2009 16:58:02 2.5 C 5 g/m*3 2.5 C 0 km/h
1046 24-12-2009 17:10:01 2.5 C 5.06 g/m*3 2.5 C 0 km/h
1047 24-12-2009 17:22:02 2.5 C 5.12 g/m*3 2.5 C 0 km/h
1048 24-12-2009 17:34:01 2.6 C 5.15 g/m*3 2.6 C 0 km/h
1049 24-12-2009 17:46:02 2.6 C 5.21 g/m*3 2.6 C 0 km/h
1050 24-12-2009 17:58:02 2.6 C 5.21 g/m*3 2.6 C 0 km/h
Sensor: Nr:Datum:Temp:Abs-Feuchte:Windchill:Wind:
Aussen-T/F 1051 24-12-2009 18:10:01 2.6 C 5.21 g/m*3 2.6 C 0 km/h
1052 24-12-2009 18:22:01 2.6 C 5.27 g/m*3 2.6 C 0 km/h
1053 24-12-2009 18:34:01 2.6 C 5.27 g/m*3 2.6 C 0 km/h
1054 24-12-2009 18:46:02 2.7 C 5.3 g/m*3 2.7 C 0 km/h
1055 24-12-2009 18:58:02 2.7 C 5.3 g/m*3 2.7 C 0 km/h
1056 24-12-2009 19:10:02 2.7 C 5.36 g/m*3 2.7 C 0 km/h
1057 24-12-2009 19:22:02 2.7 C 5.36 g/m*3 2.7 C 0 km/h
1058 24-12-2009 19:34:02 2.7 C 5.36 g/m*3 2.7 C 0 km/h
1059 24-12-2009 19:46:02 2.7 C 5.36 g/m*3 2.7 C 0 km/h
1060 24-12-2009 19:58:02 2.7 C 5.36 g/m*3 2.7 C 0 km/h
1061 24-12-2009 20:10:01 2.7 C 5.36 g/m*3 2.7 C 0 km/h
1062 24-12-2009 20:22:01 2.7 C 5.36 g/m*3 2.7 C 0 km/h
1063 24-12-2009 20:34:02 2.7 C 5.36 g/m*3 2.7 C 0 km/h
1064 24-12-2009 20:46:02 2.7 C 5.36 g/m*3 2.7 C 0 km/h
1065 24-12-2009 20:58:02 2.7 C 5.36 g/m*3 2.7 C 0 km/h
1066 24-12-2009 21:10:02 2.7 C 5.36 g/m*3 2.7 C 0 km/h
1067 24-12-2009 21:22:02 2.6 C 5.32 g/m*3 2.6 C 0 km/h
1068 24-12-2009 21:34:02 2.6 C 5.32 g/m*3 2.6 C 0 km/h
1069 24-12-2009 21:46:01 2.6 C 5.32 g/m*3 2.6 C 0 km/h
1070 24-12-2009 21:58:01 2.6 C 5.32 g/m*3 2.6 C 0 km/h
1071 24-12-2009 22:10:02 2.6 C 5.38 g/m*3 2.6 C 0 km/h
1072 24-12-2009 22:22:01 2.6 C 5.38 g/m*3 2.6 C 0 km/h
1073 24-12-2009 22:34:02 2.7 C 5.42 g/m*3 2.7 C 0 km/h
1074 24-12-2009 22:47:01 2.7 C 5.42 g/m*3 2.7 C 0 km/h
1075 24-12-2009 22:59:01 2.7 C 5.48 g/m*3 2.7 C 0 km/h
Sensor: Nr:Datum:Temp:Abs-Feuchte:Windchill:Wind:
Aussen-T/F 1076 24-12-2009 23:11:01 2.7 C 5.48 g/m*3 2.7 C 0 km/h
1077 24-12-2009 23:23:01 2.8 C 5.51 g/m*3 2.8 C 0 km/h
1078 24-12-2009 23:35:01 2.8 C 5.51 g/m*3 2.8 C 0 km/h
1079 24-12-2009 23:47:01 2.9 C 5.61 g/m*3 2.9 C 0 km/h
1080 24-12-2009 23:59:01 2.9 C 5.61 g/m*3 2.9 C 0 km/h
1081 25-12-2009 00:11:01 3 C 5.59 g/m*3 3 C 0 km/h
1082 25-12-2009 00:23:02 3 C 5.59 g/m*3 3 C 0 km/h
1083 25-12-2009 00:35:02 3 C 5.65 g/m*3 3 C 0 km/h
1084 25-12-2009 00:47:02 3.1 C 5.69 g/m*3 3.1 C 0 km/h
1085 25-12-2009 00:59:02 3.1 C 5.69 g/m*3 3.1 C 0 km/h
1086 25-12-2009 01:11:02 3.1 C 5.69 g/m*3 3.1 C 0 km/h
1087 25-12-2009 01:23:02 3 C 5.65 g/m*3 3 C 0 km/h
1088 25-12-2009 01:35:02 3 C 5.65 g/m*3 3 C 0 km/h
1089 25-12-2009 01:47:02 3.1 C 5.69 g/m*3 3.1 C 0 km/h
1090 25-12-2009 01:59:02 3.1 C 5.69 g/m*3 3.1 C 0 km/h
1091 25-12-2009 02:11:02 3.2 C 5.72 g/m*3 3.2 C 0 km/h
1092 25-12-2009 02:23:02 3.2 C 5.72 g/m*3 3.2 C 0 km/h
1093 25-12-2009 02:35:02 3.1 C 5.69 g/m*3 3.1 C 0 km/h
1094 25-12-2009 02:47:02 3.1 C 5.69 g/m*3 3.1 C 0 km/h
1095 25-12-2009 02:59:02 3.1 C 5.69 g/m*3 3.1 C 0 km/h
1096 25-12-2009 03:11:02 3.1 C 5.69 g/m*3 3.1 C 0 km/h
1097 25-12-2009 03:23:02 3.1 C 5.69 g/m*3 3.1 C 0 km/h
1098 25-12-2009 03:35:02 3.1 C 5.69 g/m*3 3.1 C 0 km/h
1099 25-12-2009 03:47:02 3.2 C 5.72 g/m*3 3.2 C 0 km/h
1100 25-12-2009 03:59:02 3.2 C 5.72 g/m*3 3.2 C 0 km/h
Sensor: Nr:Datum:Temp:Abs-Feuchte:Windchill:Wind:
Aussen-T/F 1101 25-12-2009 04:11:02 3.2 C 5.72 g/m*3 3.2 C 0 km/h
1102 25-12-2009 04:23:02 3.1 C 5.69 g/m*3 3.1 C 0 km/h
1103 25-12-2009 04:35:03 3.1 C 5.69 g/m*3 3.1 C 0 km/h
1104 25-12-2009 04:47:03 3.2 C 5.72 g/m*3 3.2 C 0 km/h
1105 25-12-2009 04:59:03 3.2 C 5.72 g/m*3 3.2 C 0 km/h
1106 25-12-2009 05:11:03 3.2 C 5.72 g/m*3 3.2 C 0 km/h
1107 25-12-2009 05:23:03 3.3 C 5.76 g/m*3 3.3 C 0 km/h
1108 25-12-2009 05:35:03 3.4 C 5.8 g/m*3 3.4 C 0 km/h
1109 25-12-2009 05:47:03 3.4 C 5.8 g/m*3 3.4 C 0 km/h
1110 25-12-2009 05:59:03 3.5 C 5.84 g/m*3 3.5 C 0 km/h
1111 25-12-2009 06:11:03 3.6 C 5.88 g/m*3 3.6 C 0 km/h
1112 25-12-2009 06:23:03 3.6 C 5.88 g/m*3 3.6 C 0 km/h
1113 25-12-2009 06:35:03 3.6 C 5.88 g/m*3 3.6 C 0 km/h
1114 25-12-2009 06:47:03 3.5 C 5.84 g/m*3 3.5 C 0 km/h
1115 25-12-2009 06:59:03 6.8 C 7.27 g/m*3 6.8 C 0 km/h
1116 25-12-2009 07:11:03 7.1 C 7.41 g/m*3 7.1 C 0 km/h
1117 25-12-2009 07:23:03 7.1 C 7.41 g/m*3 7.1 C 0 km/h
1118 25-12-2009 07:35:03 6.8 C 7.11 g/m*3 6.8 C 0 km/h
1119 25-12-2009 07:47:03 6.4 C 6.56 g/m*3 6.4 C 0 km/h
1120 25-12-2009 07:59:03 5.9 C 6.06 g/m*3 5.9 C 0 km/h
1121 25-12-2009 08:11:03 5.6 C 5.87 g/m*3 5.6 C 0 km/h
1122 25-12-2009 08:23:03 5.1 C 5.68 g/m*3 5.1 C 0 km/h
1123 25-12-2009 08:35:03 4.8 C 5.5 g/m*3 4.8 C 0 km/h
1124 25-12-2009 08:47:04 4.4 C 5.09 g/m*3 4.4 C 0 km/h
1125 25-12-2009 08:59:04 4.2 C 4.77 g/m*3 4.2 C 0 km/h
Sensor: Nr:Datum:Temp:Abs-Feuchte:Windchill:Wind:
Aussen-T/F 1126 25-12-2009 09:11:04 4.1 C 4.67 g/m*3 4.1 C 0 km/h
1127 25-12-2009 09:23:04 4 C 4.58 g/m*3 4 C 0 km/h
1128 25-12-2009 09:35:04 4 C 4.58 g/m*3 4 C 0 km/h
1129 25-12-2009 09:47:01 4 C 4.64 g/m*3 4 C 0 km/h
1130 25-12-2009 09:59:01 3.8 C 4.64 g/m*3 3.8 C 0 km/h
1131 25-12-2009 10:11:02 4 C 4.64 g/m*3 4 C 0 km/h
1132 25-12-2009 10:23:01 4.1 C 4.74 g/m*3 4.1 C 0 km/h
1133 25-12-2009 10:35:02 4.2 C 4.77 g/m*3 4.2 C 0 km/h
1134 25-12-2009 10:47:02 4.3 C 4.8 g/m*3 4.3 C 0 km/h
1135 25-12-2009 10:59:02 4.1 C 4.67 g/m*3 4.1 C 0 km/h
1136 25-12-2009 11:11:02 4.1 C 4.67 g/m*3 4.1 C 0 km/h
1137 25-12-2009 11:23:02 4.5 C 4.73 g/m*3 4.5 C 0 km/h
1138 25-12-2009 11:35:02 4.7 C 4.73 g/m*3 4.7 C 0 km/h
1139 25-12-2009 11:47:02 5 C 4.69 g/m*3 5 C 0 km/h
1140 25-12-2009 11:59:02 5.2 C 4.68 g/m*3 5.2 C 0 km/h
1141 25-12-2009 12:11:03 5.2 C 4.75 g/m*3 5.2 C 0 km/h
1142 25-12-2009 12:23:02 5.3 C 4.78 g/m*3 5.3 C 0 km/h
1143 25-12-2009 12:35:03 5.5 C 4.78 g/m*3 5.5 C 0 km/h
1144 25-12-2009 12:47:02 5.7 C 4.84 g/m*3 5.7 C 0 km/h
1145 25-12-2009 12:59:02 5.9 C 4.83 g/m*3 5.9 C 0 km/h
1146 25-12-2009 13:11:02 6 C 4.72 g/m*3 6 C 0 km/h
1147 25-12-2009 13:23:01 6 C 4.65 g/m*3 6 C 0 km/h
1148 25-12-2009 13:35:02 6.2 C 4.71 g/m*3 6.2 C 0 km/h
1149 25-12-2009 13:47:02 6.3 C 4.66 g/m*3 6.3 C 0 km/h
1150 25-12-2009 13:59:02 6.2 C 4.56 g/m*3 6.2 C 0 km/h
Sensor: Nr:Datum:Temp:Abs-Feuchte:Windchill:Wind:
Aussen-T/F 1151 25-12-2009 14:11:02 6.2 C 4.56 g/m*3 6.2 C 0 km/h
1152 25-12-2009 14:23:02 6 C 4.5 g/m*3 6 C 0 km/h
1153 25-12-2009 14:35:02 5.9 C 4.61 g/m*3 5.9 C 0 km/h
1154 25-12-2009 14:47:02 5.8 C 4.58 g/m*3 5.8 C 0 km/h
1155 25-12-2009 14:59:03 5.8 C 4.66 g/m*3 5.8 C 0 km/h
1156 25-12-2009 15:11:01 5.7 C 4.7 g/m*3 5.7 C 0 km/h
1157 25-12-2009 15:23:02 5.7 C 4.77 g/m*3 5.7 C 0 km/h
1158 25-12-2009 15:35:02 5.6 C 4.88 g/m*3 5.6 C 0 km/h
1159 25-12-2009 15:47:02 5.4 C 4.95 g/m*3 5.4 C 0 km/h
1160 25-12-2009 15:59:02 5.4 C 4.95 g/m*3 5.4 C 0 km/h
1161 25-12-2009 16:11:02 5.4 C 4.88 g/m*3 5.4 C 0 km/h
1162 25-12-2009 16:23:02 5.1 C 4.92 g/m*3 5.1 C 0 km/h
1163 25-12-2009 16:35:03 5 C 4.89 g/m*3 5 C 0 km/h
1164 25-12-2009 16:47:02 5 C 4.89 g/m*3 5 C 0 km/h
1165 25-12-2009 16:59:02 4.8 C 4.9 g/m*3 4.8 C 0 km/h
1166 25-12-2009 17:11:02 4.7 C 4.93 g/m*3 4.7 C 0 km/h
1167 25-12-2009 17:23:01 4.9 C 4.93 g/m*3 4.9 C 0 km/h
1168 25-12-2009 17:35:02 5 C 4.76 g/m*3 5 C 0 km/h
1169 25-12-2009 17:47:02 5 C 4.69 g/m*3 5 C 0 km/h
1170 25-12-2009 17:59:02 4.7 C 4.66 g/m*3 4.7 C 0 km/h
1171 25-12-2009 18:11:02 4.6 C 4.63 g/m*3 4.6 C 0 km/h
1172 25-12-2009 18:23:02 4.7 C 4.66 g/m*3 4.7 C 0 km/h
1173 25-12-2009 18:35:02 4.7 C 4.6 g/m*3 4.7 C 0 km/h
1174 25-12-2009 18:47:02 4.7 C 4.6 g/m*3 4.7 C 0 km/h
1175 25-12-2009 18:59:02 4.7 C 4.53 g/m*3 4.7 C 0 km/h
Sensor: Nr:Datum:Temp:Abs-Feuchte:Windchill:Wind:
Aussen-T/F 1176 25-12-2009 19:11:02 4.7 C 4.46 g/m*3 4.7 C 0 km/h
1177 25-12-2009 19:23:02 4.5 C 4.47 g/m*3 4.5 C 0 km/h
1178 25-12-2009 19:35:02 4.2 C 4.45 g/m*3 4.2 C 0 km/h
1179 25-12-2009 19:47:02 4.2 C 4.38 g/m*3 4.2 C 0 km/h
1180 25-12-2009 19:59:02 4.3 C 4.28 g/m*3 4.3 C 0 km/h
1181 25-12-2009 20:11:02 4.6 C 4.04 g/m*3 4.6 C 0 km/h
1182 25-12-2009 20:23:02 4.5 C 3.88 g/m*3 4.5 C 0 km/h
1183 25-12-2009 20:35:02 4.5 C 3.88 g/m*3 4.5 C 0 km/h
1184 25-12-2009 20:47:01 4.3 C 3.89 g/m*3 4.3 C 0 km/h
1185 25-12-2009 20:59:01 4.1 C 4.03 g/m*3 4.1 C 0 km/h
1186 25-12-2009 21:11:01 3.8 C 4.27 g/m*3 3.8 C 0 km/h
1187 25-12-2009 21:23:02 3.6 C 4.39 g/m*3 3.6 C 0 km/h
1188 25-12-2009 21:35:01 3.5 C 4.43 g/m*3 3.5 C 0 km/h
1189 25-12-2009 21:47:03 3.4 C 4.46 g/m*3 3.4 C 0 km/h
1190 25-12-2009 21:59:03 3.7 C 4.55 g/m*3 3.7 C 0 km/h
1191 25-12-2009 22:11:03 3.9 C 4.48 g/m*3 3.9 C 0 km/h
1192 25-12-2009 22:23:02 4 C 4.32 g/m*3 4 C 0 km/h
1193 25-12-2009 22:35:03 3.8 C 4.33 g/m*3 3.8 C 0 km/h
1194 25-12-2009 22:48:03 3.8 C 4.33 g/m*3 3.8 C 0 km/h
1195 25-12-2009 23:00:03 3.8 C 4.27 g/m*3 3.8 C 0 km/h
1196 25-12-2009 23:12:04 3.7 C 4.24 g/m*3 3.7 C 0 km/h
1197 25-12-2009 23:24:04 3.8 C 4.27 g/m*3 3.8 C 0 km/h
1198 25-12-2009 23:36:04 3.8 C 4.27 g/m*3 3.8 C 0 km/h
1199 25-12-2009 23:48:04 3.8 C 4.27 g/m*3 3.8 C 0 km/h
1200 26-12-2009 00:00:04 3.8 C 4.27 g/m*3 3.8 C 0 km/h
Sensor: Nr:Datum:Temp:Abs-Feuchte:Windchill:Wind:
Aussen-T/F 1201 26-12-2009 00:12:04 3.8 C 4.14 g/m*3 3.8 C 0 km/h
1202 26-12-2009 00:24:04 3.5 C 4 g/m*3 3.5 C 0 km/h
1203 26-12-2009 00:36:04 3.4 C 3.97 g/m*3 3.4 C 0 km/h
1204 26-12-2009 00:48:04 3 C 3.92 g/m*3 3 C 0 km/h
1205 26-12-2009 01:00:04 2.6 C 4.05 g/m*3 2.6 C 0 km/h
1206 26-12-2009 01:12:04 2.5 C 4.08 g/m*3 2.5 C 0 km/h
1207 26-12-2009 01:24:04 2.5 C 4.08 g/m*3 2.5 C 0 km/h
1208 26-12-2009 01:36:04 2.8 C 4.11 g/m*3 2.8 C 0 km/h
1209 26-12-2009 01:48:04 2.7 C 4.08 g/m*3 2.7 C 0 km/h
1210 26-12-2009 02:00:04 2.7 C 4.14 g/m*3 2.7 C 0 km/h
1211 26-12-2009 02:12:04 2.6 C 4.17 g/m*3 2.6 C 0 km/h
1212 26-12-2009 02:24:04 2.8 C 4.34 g/m*3 2.8 C 0 km/h
1213 26-12-2009 02:36:04 2.8 C 4.34 g/m*3 2.8 C 0 km/h
1214 26-12-2009 02:48:04 2.7 C 4.31 g/m*3 2.7 C 0 km/h
1215 26-12-2009 03:00:04 2.7 C 4.37 g/m*3 2.7 C 0 km/h
1216 26-12-2009 03:12:05 2.6 C 4.4 g/m*3 2.6 C 0 km/h
1217 26-12-2009 03:24:05 2.5 C 4.43 g/m*3 2.5 C 0 km/h
1218 26-12-2009 03:36:05 2.4 C 4.45 g/m*3 2.4 C 0 km/h
1219 26-12-2009 03:48:05 2.6 C 4.51 g/m*3 2.6 C 0 km/h
1220 26-12-2009 04:00:05 2.7 C 4.54 g/m*3 2.7 C 0 km/h
1221 26-12-2009 04:12:05 2.7 C 4.49 g/m*3 2.7 C 0 km/h
1222 26-12-2009 04:24:05 2.5 C 4.48 g/m*3 2.5 C 0 km/h
1223 26-12-2009 04:36:05 2.5 C 4.48 g/m*3 2.5 C 0 km/h
1224 26-12-2009 04:48:05 2.7 C 4.6 g/m*3 2.7 C 0 km/h
1225 26-12-2009 05:00:05 2.7 C 4.6 g/m*3 2.7 C 0 km/h
Sensor: Nr:Datum:Temp:Abs-Feuchte:Windchill:Wind:
Aussen-T/F 1226 26-12-2009 05:12:05 2.8 C 4.58 g/m*3 2.8 C 0 km/h
1227 26-12-2009 05:24:05 2.8 C 4.52 g/m*3 2.8 C 0 km/h
1228 26-12-2009 05:36:05 2.5 C 4.43 g/m*3 2.5 C 0 km/h
1229 26-12-2009 05:48:05 2.7 C 4.54 g/m*3 2.7 C 0 km/h
1230 26-12-2009 06:00:05 2.7 C 4.54 g/m*3 2.7 C 0 km/h
1231 26-12-2009 06:12:05 2.8 C 4.52 g/m*3 2.8 C 0 km/h
1232 26-12-2009 06:24:05 2.8 C 4.52 g/m*3 2.8 C 0 km/h
1233 26-12-2009 06:36:05 2.9 C 4.55 g/m*3 2.9 C 0 km/h
1234 26-12-2009 06:48:05 2.8 C 4.52 g/m*3 2.8 C 0 km/h
1235 26-12-2009 07:00:05 2.7 C 4.54 g/m*3 2.7 C 0 km/h
1236 26-12-2009 07:12:05 2.6 C 4.57 g/m*3 2.6 C 0 km/h
1237 26-12-2009 07:24:05 2.6 C 4.57 g/m*3 2.6 C 0 km/h
1238 26-12-2009 07:36:05 2.5 C 4.6 g/m*3 2.5 C 0 km/h
1239 26-12-2009 07:48:06 2.2 C 4.51 g/m*3 2.2 C 0 km/h
1240 26-12-2009 08:00:06 2 C 4.5 g/m*3 2 C 0 km/h
1241 26-12-2009 08:12:06 1.7 C 4.46 g/m*3 1.7 C 0 km/h
1242 26-12-2009 08:24:06 1.9 C 4.58 g/m*3 1.9 C 0 km/h
1243 26-12-2009 08:36:06 1.7 C 4.52 g/m*3 1.7 C 0 km/h
1244 26-12-2009 08:48:06 1.6 C 4.54 g/m*3 1.6 C 0 km/h
1245 26-12-2009 09:00:06 1.7 C 4.57 g/m*3 1.7 C 0 km/h
1246 26-12-2009 09:12:06 1.8 C 4.6 g/m*3 1.8 C 0 km/h
1247 26-12-2009 09:24:06 2.1 C 4.59 g/m*3 2.1 C 0 km/h
1248 26-12-2009 09:36:03 2.3 C 4.59 g/m*3 2.3 C 0 km/h
1249 26-12-2009 09:48:02 2.7 C 4.6 g/m*3 2.7 C 0 km/h
1250 26-12-2009 10:00:02 3 C 4.58 g/m*3 3 C 0 km/h
Sensor: Nr:Datum:Temp:Abs-Feuchte:Windchill:Wind:
Aussen-T/F 1251 26-12-2009 10:12:01 3.2 C 4.52 g/m*3 3.2 C 0 km/h
1252 26-12-2009 10:24:02 3.3 C 4.55 g/m*3 3.3 C 0 km/h
1253 26-12-2009 10:36:02 3.4 C 4.58 g/m*3 3.4 C 0 km/h
1254 26-12-2009 10:48:02 3.5 C 4.61 g/m*3 3.5 C 0 km/h
1255 26-12-2009 11:00:02 3.8 C 4.71 g/m*3 3.8 C 0 km/h
1256 26-12-2009 11:12:02 3.9 C 4.74 g/m*3 3.9 C 0 km/h
1257 26-12-2009 11:24:02 3.6 C 4.64 g/m*3 3.6 C 0 km/h
1258 26-12-2009 11:36:02 3.7 C 4.74 g/m*3 3.7 C 0 km/h
1259 26-12-2009 11:48:02 4 C 4.83 g/m*3 4 C 0 km/h
1260 26-12-2009 12:00:02 4.1 C 4.8 g/m*3 4.1 C 0 km/h
1261 26-12-2009 12:12:02 4.1 C 4.74 g/m*3 4.1 C 0 km/h
1262 26-12-2009 12:24:01 3.8 C 4.71 g/m*3 3.8 C 0 km/h
1263 26-12-2009 12:36:02 3.7 C 4.67 g/m*3 3.7 C 0 km/h
1264 26-12-2009 12:48:02 3.6 C 4.64 g/m*3 3.6 C 0 km/h
1265 26-12-2009 13:00:02 3.6 C 4.7 g/m*3 3.6 C 0 km/h
1266 26-12-2009 13:12:02 3.9 C 4.74 g/m*3 3.9 C 0 km/h
1267 26-12-2009 13:24:01 3.9 C 4.74 g/m*3 3.9 C 0 km/h
1268 26-12-2009 13:36:02 4 C 4.7 g/m*3 4 C 0 km/h
1269 26-12-2009 13:48:02 4.1 C 4.67 g/m*3 4.1 C 0 km/h
1270 26-12-2009 14:00:02 4 C 4.64 g/m*3 4 C 0 km/h
1271 26-12-2009 14:12:02 3.9 C 4.74 g/m*3 3.9 C 0 km/h
1272 26-12-2009 14:24:01 4.1 C 4.74 g/m*3 4.1 C 0 km/h
1273 26-12-2009 14:36:02 4.2 C 4.7 g/m*3 4.2 C 0 km/h
1274 26-12-2009 14:48:02 4.1 C 4.67 g/m*3 4.1 C 0 km/h
1275 26-12-2009 15:00:02 3.7 C 4.67 g/m*3 3.7 C 0 km/h
Sensor: Nr:Datum:Temp:Abs-Feuchte:Windchill:Wind:
Aussen-T/F 1276 26-12-2009 15:12:02 3.5 C 4.67 g/m*3 3.5 C 0 km/h
1277 26-12-2009 15:24:02 3.3 C 4.67 g/m*3 3.3 C 0 km/h
1278 26-12-2009 15:36:02 3.1 C 4.67 g/m*3 3.1 C 0 km/h
1279 26-12-2009 15:48:01 3 C 4.7 g/m*3 3 C 0 km/h
1280 26-12-2009 16:00:01 2.8 C 4.75 g/m*3 2.8 C 0 km/h
1281 26-12-2009 16:12:02 2.7 C 4.72 g/m*3 2.7 C 0 km/h
1282 26-12-2009 16:24:02 2.7 C 4.72 g/m*3 2.7 C 0 km/h
1283 26-12-2009 16:36:02 2.5 C 4.66 g/m*3 2.5 C 0 km/h
1284 26-12-2009 16:48:02 2.2 C 4.56 g/m*3 2.2 C 0 km/h
1285 26-12-2009 17:00:02 1.6 C 4.43 g/m*3 1.6 C 0 km/h
1286 26-12-2009 17:12:02 1.4 C 4.48 g/m*3 1.4 C 0 km/h
1287 26-12-2009 17:24:02 1.4 C 4.53 g/m*3 1.4 C 0 km/h
1288 26-12-2009 17:36:01 1.7 C 4.68 g/m*3 1.7 C 0 km/h
1289 26-12-2009 17:48:02 1.6 C 4.54 g/m*3 1.6 C 0 km/h
1290 26-12-2009 18:00:02 1 C 4.36 g/m*3 1 C 0 km/h
1291 26-12-2009 18:12:02 0.6 C 4.29 g/m*3 0.6 C 0 km/h
1292 26-12-2009 18:24:02 0.5 C 4.26 g/m*3 0.5 C 0 km/h
1293 26-12-2009 18:36:02 0.3 C 4.25 g/m*3 0.3 C 0 km/h
1294 26-12-2009 18:48:02 0.3 C 4.3 g/m*3 0.3 C 0 km/h
1295 26-12-2009 19:00:02 0.1 C 4.24 g/m*3 0.1 C 0 km/h
1296 26-12-2009 19:12:02 0.1 C 4.29 g/m*3 0.1 C 0 km/h
1297 26-12-2009 19:24:02 0.1 C 4.29 g/m*3 0.1 C 0 km/h
1298 26-12-2009 19:36:02 -0.1 C 4.23 g/m*3 -0.1 C 0 km/h
1299 26-12-2009 19:48:02 -0.3 C 4.22 g/m*3 -0.3 C 0 km/h
1300 26-12-2009 20:00:02 -0.5 C 4.17 g/m*3 -0.5 C 0 km/h
Sensor: Nr:Datum:Temp:Abs-Feuchte:Windchill:Wind:
Aussen-T/F 1301 26-12-2009 20:12:02 -0.7 C 4.11 g/m*3 -0.7 C 0 km/h
1302 26-12-2009 20:24:02 -0.5 C 4.17 g/m*3 -0.5 C 0 km/h
1303 26-12-2009 20:36:02 -0.4 C 4.24 g/m*3 -0.4 C 0 km/h
1304 26-12-2009 20:48:01 -0.7 C 4.15 g/m*3 -0.7 C 0 km/h
1305 26-12-2009 21:00:01 -0.8 C 4.17 g/m*3 -0.8 C 0 km/h
1306 26-12-2009 21:12:02 -0.8 C 4.17 g/m*3 -0.8 C 0 km/h
1307 26-12-2009 21:24:01 -0.8 C 4.17 g/m*3 -0.8 C 0 km/h
1308 26-12-2009 21:36:01 -0.8 C 4.17 g/m*3 -0.8 C 0 km/h
1309 26-12-2009 21:48:01 -0.8 C 4.17 g/m*3 -0.8 C 0 km/h
1310 26-12-2009 22:00:01 -0.9 C 4.14 g/m*3 -0.9 C 0 km/h
1311 26-12-2009 22:12:01 -0.9 C 4.19 g/m*3 -0.9 C 0 km/h
1312 26-12-2009 22:24:01 -1 C 4.16 g/m*3 -1 C 0 km/h
1313 26-12-2009 22:36:02 -1.1 C 4.09 g/m*3 -1.1 C 0 km/h
1314 26-12-2009 22:49:03 -1.2 C 4.06 g/m*3 -1.2 C 0 km/h
1315 26-12-2009 23:01:03 -1.1 C 4.13 g/m*3 -1.1 C 0 km/h
1316 26-12-2009 23:13:03 -1.3 C 4.07 g/m*3 -1.3 C 0 km/h
1317 26-12-2009 23:25:03 -1.2 C 4.1 g/m*3 -1.2 C 0 km/h
1318 26-12-2009 23:37:03 -1.4 C 4.04 g/m*3 -1.4 C 0 km/h
1319 26-12-2009 23:49:03 -1.6 C 3.99 g/m*3 -1.6 C 0 km/h
1320 27-12-2009 00:01:03 -1.6 C 3.99 g/m*3 -1.6 C 0 km/h
1321 27-12-2009 00:13:03 -1.8 C 3.93 g/m*3 -1.8 C 0 km/h
1322 27-12-2009 00:25:03 -1.8 C 3.93 g/m*3 -1.8 C 0 km/h
1323 27-12-2009 00:37:03 -1.8 C 3.93 g/m*3 -1.8 C 0 km/h
1324 27-12-2009 00:49:03 -1.9 C 3.91 g/m*3 -1.9 C 0 km/h
1325 27-12-2009 01:01:03 -1.8 C 3.93 g/m*3 -1.8 C 0 km/h
Sensor: Nr:Datum:Temp:Abs-Feuchte:Windchill:Wind:
Aussen-T/F 1326 27-12-2009 01:13:03 -1.9 C 3.91 g/m*3 -1.9 C 0 km/h
1327 27-12-2009 01:25:03 -2 C 3.88 g/m*3 -2 C 0 km/h
1328 27-12-2009 01:37:03 -2.3 C 3.8 g/m*3 -2.3 C 0 km/h
1329 27-12-2009 01:49:04 -2.3 C 3.8 g/m*3 -2.3 C 0 km/h
1330 27-12-2009 02:01:04 -2.3 C 3.8 g/m*3 -2.3 C 0 km/h
1331 27-12-2009 02:13:04 -2.2 C 3.87 g/m*3 -2.2 C 0 km/h
1332 27-12-2009 02:25:04 -2.1 C 3.89 g/m*3 -2.1 C 0 km/h
1333 27-12-2009 02:37:04 -2 C 3.92 g/m*3 -2 C 0 km/h
1334 27-12-2009 02:49:04 -1.9 C 3.95 g/m*3 -1.9 C 0 km/h
1335 27-12-2009 03:01:04 -2.1 C 3.89 g/m*3 -2.1 C 0 km/h
1336 27-12-2009 03:13:04 -2.2 C 3.87 g/m*3 -2.2 C 0 km/h
1337 27-12-2009 03:25:04 -2.1 C 3.89 g/m*3 -2.1 C 0 km/h
1338 27-12-2009 03:37:04 -2.3 C 3.84 g/m*3 -2.3 C 0 km/h
1339 27-12-2009 03:49:04 -2.5 C 3.78 g/m*3 -2.5 C 0 km/h
1340 27-12-2009 04:01:04 -2.6 C 3.76 g/m*3 -2.6 C 0 km/h
1341 27-12-2009 04:13:04 -2.7 C 3.73 g/m*3 -2.7 C 0 km/h
1342 27-12-2009 04:25:04 -2.7 C 3.73 g/m*3 -2.7 C 0 km/h
1343 27-12-2009 04:37:04 -2.8 C 3.71 g/m*3 -2.8 C 0 km/h
1344 27-12-2009 04:49:04 -2.8 C 3.71 g/m*3 -2.8 C 0 km/h
1345 27-12-2009 05:01:04 -2.7 C 3.73 g/m*3 -2.7 C 0 km/h
1346 27-12-2009 05:13:04 -2.6 C 3.8 g/m*3 -2.6 C 0 km/h
1347 27-12-2009 05:25:04 -2.8 C 3.75 g/m*3 -2.8 C 0 km/h
1348 27-12-2009 05:37:04 -2.9 C 3.72 g/m*3 -2.9 C 0 km/h
1349 27-12-2009 05:49:04 -2.8 C 3.75 g/m*3 -2.8 C 0 km/h
1350 27-12-2009 06:01:04 -2.8 C 3.75 g/m*3 -2.8 C 0 km/h
Sensor: Nr:Datum:Temp:Abs-Feuchte:Windchill:Wind:
Aussen-T/F 1351 27-12-2009 06:13:04 -2.9 C 3.72 g/m*3 -2.9 C 0 km/h
1352 27-12-2009 06:25:05 -2.9 C 3.72 g/m*3 -2.9 C 0 km/h
1353 27-12-2009 06:37:05 -3 C 3.69 g/m*3 -3 C 0 km/h
1354 27-12-2009 06:49:05 -3.1 C 3.67 g/m*3 -3.1 C 0 km/h
1355 27-12-2009 07:01:05 -3.1 C 3.67 g/m*3 -3.1 C 0 km/h
1356 27-12-2009 07:13:05 -3.2 C 3.64 g/m*3 -3.2 C 0 km/h
1357 27-12-2009 07:25:05 -3.1 C 3.67 g/m*3 -3.1 C 0 km/h
1358 27-12-2009 07:37:05 -3.2 C 3.64 g/m*3 -3.2 C 0 km/h
1359 27-12-2009 07:49:05 -3.2 C 3.64 g/m*3 -3.2 C 0 km/h
1360 27-12-2009 08:01:05 -3.2 C 3.64 g/m*3 -3.2 C 0 km/h
1361 27-12-2009 08:13:05 -2.9 C 3.72 g/m*3 -2.9 C 0 km/h
1362 27-12-2009 08:25:05 -2.7 C 3.77 g/m*3 -2.7 C 0 km/h
1363 27-12-2009 08:37:05 -2.5 C 3.83 g/m*3 -2.5 C 0 km/h
1364 27-12-2009 08:49:05 -2.4 C 3.89 g/m*3 -2.4 C 0 km/h
1365 27-12-2009 09:01:02 -2.3 C 3.92 g/m*3 -2.3 C 0 km/h
1366 27-12-2009 09:13:02 -2.2 C 3.95 g/m*3 -2.2 C 0 km/h
1367 27-12-2009 09:25:02 -1.4 C 4.18 g/m*3 -1.4 C 0 km/h
1368 27-12-2009 09:37:02 -1.1 C 4.26 g/m*3 -1.1 C 0 km/h
1369 27-12-2009 09:49:01 -0.6 C 4.42 g/m*3 -0.6 C 0 km/h
1370 27-12-2009 10:01:01 -0.4 C 4.48 g/m*3 -0.4 C 0 km/h
1371 27-12-2009 10:13:01 -0.1 C 4.57 g/m*3 -0.1 C 0 km/h
1372 27-12-2009 10:25:01 0.2 C 4.67 g/m*3 0.2 C 0 km/h
1373 27-12-2009 10:37:01 0.5 C 4.71 g/m*3 0.5 C 0 km/h
1374 27-12-2009 10:49:02 0.7 C 4.78 g/m*3 0.7 C 0 km/h
1375 27-12-2009 11:01:02 0.7 C 4.78 g/m*3 0.7 C 0 km/h
Sensor: Nr:Datum:Temp:Abs-Feuchte:Windchill:Wind:
Aussen-T/F 1376 27-12-2009 11:13:02 0.8 C 4.76 g/m*3 0.8 C 0 km/h
1377 27-12-2009 11:25:02 1.2 C 4.84 g/m*3 1.2 C 0 km/h
1378 27-12-2009 11:37:02 1.4 C 4.91 g/m*3 1.4 C 0 km/h
1379 27-12-2009 11:49:02 1.7 C 4.85 g/m*3 1.7 C 0 km/h
1380 27-12-2009 12:01:02 1.6 C 4.65 g/m*3 1.6 C 0 km/h
1381 27-12-2009 12:13:02 1.8 C 4.49 g/m*3 1.8 C 0 km/h
1382 27-12-2009 12:25:02 2 C 4.5 g/m*3 2 C 0 km/h
1383 27-12-2009 12:37:02 2.1 C 4.48 g/m*3 2.1 C 0 km/h
1384 27-12-2009 12:49:02 2.1 C 4.48 g/m*3 2.1 C 0 km/h
1385 27-12-2009 13:01:02 2.1 C 4.48 g/m*3 2.1 C 0 km/h
1386 27-12-2009 13:13:02 2.1 C 4.53 g/m*3 2.1 C 0 km/h
1387 27-12-2009 13:25:02 2.4 C 4.68 g/m*3 2.4 C 0 km/h
1388 27-12-2009 13:37:02 2.4 C 4.68 g/m*3 2.4 C 0 km/h
1389 27-12-2009 13:49:01 2.6 C 4.69 g/m*3 2.6 C 0 km/h
1390 27-12-2009 14:01:01 2.7 C 4.72 g/m*3 2.7 C 0 km/h
1391 27-12-2009 14:13:02 2.7 C 4.72 g/m*3 2.7 C 0 km/h
1392 27-12-2009 14:25:01 2.7 C 4.66 g/m*3 2.7 C 0 km/h
1393 27-12-2009 14:37:01 2.7 C 4.66 g/m*3 2.7 C 0 km/h
1394 27-12-2009 14:49:01 2.6 C 4.57 g/m*3 2.6 C 0 km/h
1395 27-12-2009 15:01:01 2.6 C 4.63 g/m*3 2.6 C 0 km/h
1396 27-12-2009 15:13:01 2.6 C 4.63 g/m*3 2.6 C 0 km/h
1397 27-12-2009 15:25:02 2.6 C 4.69 g/m*3 2.6 C 0 km/h
1398 27-12-2009 15:37:01 2.5 C 4.66 g/m*3 2.5 C 0 km/h
1399 27-12-2009 15:49:02 2.4 C 4.68 g/m*3 2.4 C 0 km/h
1400 27-12-2009 16:01:02 2.4 C 4.74 g/m*3 2.4 C 0 km/h
Sensor: Nr:Datum:Temp:Abs-Feuchte:Windchill:Wind:
Aussen-T/F 1401 27-12-2009 16:13:02 2.4 C 4.74 g/m*3 2.4 C 0 km/h
1402 27-12-2009 16:25:03 2.3 C 4.76 g/m*3 2.3 C 0 km/h
1403 27-12-2009 16:37:02 2.4 C 4.8 g/m*3 2.4 C 0 km/h
1404 27-12-2009 16:49:02 2.6 C 4.86 g/m*3 2.6 C 0 km/h
1405 27-12-2009 17:01:02 3.2 C 4.82 g/m*3 3.2 C 0 km/h
1406 27-12-2009 17:13:02 3.3 C 4.73 g/m*3 3.3 C 0 km/h
1407 27-12-2009 17:25:02 3.2 C 4.64 g/m*3 3.2 C 0 km/h
1408 27-12-2009 17:37:02 3.2 C 4.7 g/m*3 3.2 C 0 km/h
1409 27-12-2009 17:49:02 3.2 C 4.7 g/m*3 3.2 C 0 km/h
1410 27-12-2009 18:01:01 3.1 C 4.67 g/m*3 3.1 C 0 km/h
1411 27-12-2009 18:13:01 3.1 C 4.73 g/m*3 3.1 C 0 km/h
1412 27-12-2009 18:25:02 3.4 C 4.83 g/m*3 3.4 C 0 km/h
1413 27-12-2009 18:37:02 3.5 C 4.8 g/m*3 3.5 C 0 km/h
1414 27-12-2009 18:49:02 3.4 C 4.83 g/m*3 3.4 C 0 km/h
1415 27-12-2009 19:01:03 3.4 C 4.89 g/m*3 3.4 C 0 km/h
1416 27-12-2009 19:13:03 3.4 C 4.95 g/m*3 3.4 C 0 km/h
1417 27-12-2009 19:25:02 3.4 C 4.95 g/m*3 3.4 C 0 km/h
1418 27-12-2009 19:37:02 3.3 C 4.97 g/m*3 3.3 C 0 km/h
1419 27-12-2009 19:49:01 3.4 C 5.01 g/m*3 3.4 C 0 km/h
1420 27-12-2009 20:01:02 3.6 C 5.01 g/m*3 3.6 C 0 km/h
1421 27-12-2009 20:13:02 3.8 C 5.02 g/m*3 3.8 C 0 km/h
1422 27-12-2009 20:25:01 3.9 C 4.99 g/m*3 3.9 C 0 km/h
1423 27-12-2009 20:37:02 4 C 4.9 g/m*3 4 C 0 km/h
1424 27-12-2009 20:49:02 4.1 C 4.86 g/m*3 4.1 C 0 km/h
1425 27-12-2009 21:01:02 4 C 4.83 g/m*3 4 C 0 km/h
Sensor: Nr:Datum:Temp:Abs-Feuchte:Windchill:Wind:
Aussen-T/F 1426 27-12-2009 21:13:02 3.8 C 4.89 g/m*3 3.8 C 0 km/h
1427 27-12-2009 21:25:01 3.6 C 4.89 g/m*3 3.6 C 0 km/h
1428 27-12-2009 21:37:02 3.2 C 4.94 g/m*3 3.2 C 0 km/h
1429 27-12-2009 21:49:02 3 C 4.93 g/m*3 3 C 0 km/h
1430 27-12-2009 22:01:02 3 C 4.93 g/m*3 3 C 0 km/h
1431 27-12-2009 22:13:02 3.2 C 5 g/m*3 3.2 C 0 km/h
1432 27-12-2009 22:25:02 3.4 C 5.01 g/m*3 3.4 C 0 km/h
1433 27-12-2009 22:37:02 3.5 C 4.98 g/m*3 3.5 C 0 km/h
1434 27-12-2009 22:50:03 3.6 C 5.01 g/m*3 3.6 C 0 km/h
1435 27-12-2009 23:02:03 3.2 C 4.94 g/m*3 3.2 C 0 km/h
1436 27-12-2009 23:14:03 3.2 C 4.94 g/m*3 3.2 C 0 km/h
1437 27-12-2009 23:26:03 3.5 C 5.04 g/m*3 3.5 C 0 km/h
1438 27-12-2009 23:38:03 3.4 C 5.07 g/m*3 3.4 C 0 km/h
1439 27-12-2009 23:50:03 3.2 C 5.12 g/m*3 3.2 C 0 km/h
1440 28-12-2009 00:02:03 3.1 C 5.21 g/m*3 3.1 C 0 km/h
1441 28-12-2009 00:14:03 3 C 5.17 g/m*3 3 C 0 km/h
1442 28-12-2009 00:26:03 3.1 C 5.21 g/m*3 3.1 C 0 km/h
1443 28-12-2009 00:38:03 3.4 C 5.25 g/m*3 3.4 C 0 km/h
1444 28-12-2009 00:50:03 3.5 C 5.16 g/m*3 3.5 C 0 km/h
1445 28-12-2009 01:02:03 3.7 C 5.17 g/m*3 3.7 C 0 km/h
1446 28-12-2009 01:14:03 3.8 C 5.14 g/m*3 3.8 C 0 km/h
1447 28-12-2009 01:26:03 3.8 C 5.08 g/m*3 3.8 C 0 km/h
1448 28-12-2009 01:38:03 3.8 C 5.08 g/m*3 3.8 C 0 km/h
1449 28-12-2009 01:50:03 3.7 C 5.11 g/m*3 3.7 C 0 km/h
1450 28-12-2009 02:02:03 3.7 C 5.05 g/m*3 3.7 C 0 km/h
Sensor: Nr:Datum:Temp:Abs-Feuchte:Windchill:Wind:
Aussen-T/F 1451 28-12-2009 02:14:03 3.9 C 4.99 g/m*3 3.9 C 0 km/h
1452 28-12-2009 02:26:04 3.9 C 4.93 g/m*3 3.9 C 0 km/h
1453 28-12-2009 02:38:04 4 C 4.83 g/m*3 4 C 0 km/h
1454 28-12-2009 02:50:04 4 C 4.77 g/m*3 4 C 0 km/h
1455 28-12-2009 03:02:04 4 C 4.7 g/m*3 4 C 0 km/h
1456 28-12-2009 03:14:04 3.9 C 4.74 g/m*3 3.9 C 0 km/h
1457 28-12-2009 03:26:04 3.8 C 4.77 g/m*3 3.8 C 0 km/h
1458 28-12-2009 03:38:04 3.7 C 4.74 g/m*3 3.7 C 0 km/h
1459 28-12-2009 03:50:04 3.6 C 4.7 g/m*3 3.6 C 0 km/h
1460 28-12-2009 04:02:04 3.5 C 4.73 g/m*3 3.5 C 0 km/h
1461 28-12-2009 04:14:04 3.6 C 4.77 g/m*3 3.6 C 0 km/h
1462 28-12-2009 04:26:04 3.6 C 4.77 g/m*3 3.6 C 0 km/h
1463 28-12-2009 04:38:04 3.6 C 4.7 g/m*3 3.6 C 0 km/h
1464 28-12-2009 04:50:04 3.7 C 4.61 g/m*3 3.7 C 0 km/h
1465 28-12-2009 05:02:04 3.7 C 4.61 g/m*3 3.7 C 0 km/h
1466 28-12-2009 05:14:04 3.6 C 4.64 g/m*3 3.6 C 0 km/h
1467 28-12-2009 05:26:04 3.5 C 4.67 g/m*3 3.5 C 0 km/h
1468 28-12-2009 05:38:04 3.5 C 4.73 g/m*3 3.5 C 0 km/h
1469 28-12-2009 05:50:04 3.3 C 4.67 g/m*3 3.3 C 0 km/h
1470 28-12-2009 06:02:04 3.1 C 4.79 g/m*3 3.1 C 0 km/h
1471 28-12-2009 06:14:04 3.1 C 4.91 g/m*3 3.1 C 0 km/h
1472 28-12-2009 06:26:04 3.1 C 4.91 g/m*3 3.1 C 0 km/h
1473 28-12-2009 06:38:04 3.1 C 4.91 g/m*3 3.1 C 0 km/h
1474 28-12-2009 06:50:04 3.1 C 4.91 g/m*3 3.1 C 0 km/h
1475 28-12-2009 07:02:05 3.2 C 4.88 g/m*3 3.2 C 0 km/h
Sensor: Nr:Datum:Temp:Abs-Feuchte:Windchill:Wind:
Aussen-T/F 1476 28-12-2009 07:14:05 3.2 C 4.88 g/m*3 3.2 C 0 km/h
1477 28-12-2009 07:26:05 3.2 C 4.82 g/m*3 3.2 C 0 km/h
1478 28-12-2009 07:38:05 3.2 C 4.76 g/m*3 3.2 C 0 km/h
1479 28-12-2009 07:50:05 3.3 C 4.79 g/m*3 3.3 C 0 km/h
1480 28-12-2009 08:02:05 3.3 C 4.79 g/m*3 3.3 C 0 km/h
1481 28-12-2009 08:14:05 3.3 C 4.79 g/m*3 3.3 C 0 km/h
1482 28-12-2009 08:26:05 3.5 C 4.8 g/m*3 3.5 C 0 km/h
1483 28-12-2009 08:38:05 3.5 C 4.73 g/m*3 3.5 C 0 km/h
1484 28-12-2009 08:50:05 3.5 C 4.67 g/m*3 3.5 C 0 km/h
1485 28-12-2009 09:02:02 3.5 C 4.67 g/m*3 3.5 C 0 km/h
1486 28-12-2009 09:14:02 3.5 C 4.61 g/m*3 3.5 C 0 km/h
1487 28-12-2009 09:26:03 3.7 C 4.49 g/m*3 3.7 C 0 km/h
1488 28-12-2009 09:38:02 3.7 C 4.49 g/m*3 3.7 C 0 km/h
1489 28-12-2009 09:50:02 3.8 C 4.52 g/m*3 3.8 C 0 km/h
1490 28-12-2009 10:02:02 3.8 C 4.45 g/m*3 3.8 C 0 km/h
1491 28-12-2009 10:14:02 3.9 C 4.42 g/m*3 3.9 C 0 km/h
1492 28-12-2009 10:26:02 3.9 C 4.42 g/m*3 3.9 C 0 km/h
1493 28-12-2009 10:38:02 4 C 4.26 g/m*3 4 C 0 km/h
1494 28-12-2009 10:50:02 3.8 C 4.27 g/m*3 3.8 C 0 km/h
1495 28-12-2009 11:02:01 4 C 4.2 g/m*3 4 C 0 km/h
1496 28-12-2009 11:14:01 4.1 C 4.22 g/m*3 4.1 C 0 km/h
1497 28-12-2009 11:26:02 3.9 C 4.29 g/m*3 3.9 C 0 km/h
1498 28-12-2009 11:38:02 3.7 C 4.36 g/m*3 3.7 C 0 km/h
1499 28-12-2009 11:50:02 3.7 C 4.36 g/m*3 3.7 C 0 km/h
1500 28-12-2009 12:02:03 4.3 C 4.48 g/m*3 4.3 C 0 km/h
Sensor: Nr:Datum:Temp:Abs-Feuchte:Windchill:Wind:
Aussen-T/F 1501 28-12-2009 12:14:03 4.7 C 4.46 g/m*3 4.7 C 0 km/h
1502 28-12-2009 12:26:02 4.9 C 4.32 g/m*3 4.9 C 0 km/h
1503 28-12-2009 12:38:02 4.9 C 4.39 g/m*3 4.9 C 0 km/h
1504 28-12-2009 12:50:02 4.9 C 4.39 g/m*3 4.9 C 0 km/h
1505 28-12-2009 13:02:02 5 C 4.28 g/m*3 5 C 0 km/h
1506 28-12-2009 13:14:02 5 C 4.28 g/m*3 5 C 0 km/h
1507 28-12-2009 13:26:01 5 C 4.28 g/m*3 5 C 0 km/h
1508 28-12-2009 13:38:02 5.1 C 4.24 g/m*3 5.1 C 0 km/h
1509 28-12-2009 13:50:02 4.9 C 4.32 g/m*3 4.9 C 0 km/h
1510 28-12-2009 14:02:02 4.8 C 4.29 g/m*3 4.8 C 0 km/h
1511 28-12-2009 14:14:02 4.9 C 4.25 g/m*3 4.9 C 0 km/h
1512 28-12-2009 14:26:01 4.7 C 4.13 g/m*3 4.7 C 0 km/h
1513 28-12-2009 14:38:02 4.7 C 4.13 g/m*3 4.7 C 0 km/h
1514 28-12-2009 14:50:02 4.7 C 4.13 g/m*3 4.7 C 0 km/h
1515 28-12-2009 15:02:02 4.6 C 4.17 g/m*3 4.6 C 0 km/h
1516 28-12-2009 15:14:02 4.5 C 4.21 g/m*3 4.5 C 0 km/h
1517 28-12-2009 15:26:01 4.5 C 4.27 g/m*3 4.5 C 0 km/h
1518 28-12-2009 15:38:02 4.5 C 4.27 g/m*3 4.5 C 0 km/h
1519 28-12-2009 15:50:01 4.5 C 4.21 g/m*3 4.5 C 0 km/h
1520 28-12-2009 16:02:02 4.4 C 4.11 g/m*3 4.4 C 0 km/h
1521 28-12-2009 16:14:02 4.4 C 4.18 g/m*3 4.4 C 0 km/h
1522 28-12-2009 16:26:02 4.3 C 4.15 g/m*3 4.3 C 0 km/h
1523 28-12-2009 16:38:02 4.2 C 4.19 g/m*3 4.2 C 0 km/h
1524 28-12-2009 16:50:02 4 C 4.2 g/m*3 4 C 0 km/h
1525 28-12-2009 17:02:01 3.9 C 4.36 g/m*3 3.9 C 0 km/h
Sensor: Nr:Datum:Temp:Abs-Feuchte:Windchill:Wind:
Aussen-T/F 1526 28-12-2009 17:14:01 3.8 C 4.39 g/m*3 3.8 C 0 km/h
1527 28-12-2009 17:26:02 3.7 C 4.36 g/m*3 3.7 C 0 km/h
1528 28-12-2009 17:38:01 3.7 C 4.36 g/m*3 3.7 C 0 km/h
1529 28-12-2009 17:50:02 3.5 C 4.3 g/m*3 3.5 C 0 km/h
1530 28-12-2009 18:02:01 3.4 C 4.34 g/m*3 3.4 C 0 km/h
1531 28-12-2009 18:14:01 3.3 C 4.37 g/m*3 3.3 C 0 km/h
1532 28-12-2009 18:26:01 3.4 C 4.46 g/m*3 3.4 C 0 km/h
1533 28-12-2009 18:38:01 3.4 C 4.46 g/m*3 3.4 C 0 km/h
1534 28-12-2009 18:50:02 3.4 C 4.4 g/m*3 3.4 C 0 km/h
1535 28-12-2009 19:02:01 3.3 C 4.43 g/m*3 3.3 C 0 km/h
1536 28-12-2009 19:14:01 3.1 C 4.31 g/m*3 3.1 C 0 km/h
1537 28-12-2009 19:26:02 2.9 C 4.37 g/m*3 2.9 C 0 km/h
1538 28-12-2009 19:38:02 2.6 C 4.28 g/m*3 2.6 C 0 km/h
1539 28-12-2009 19:50:01 2.1 C 4.2 g/m*3 2.1 C 0 km/h
1540 28-12-2009 20:02:02 1.6 C 4.16 g/m*3 1.6 C 0 km/h
1541 28-12-2009 20:14:02 1.3 C 4.13 g/m*3 1.3 C 0 km/h
1542 28-12-2009 20:26:01 1 C 4.15 g/m*3 1 C 0 km/h
1543 28-12-2009 20:38:02 0.9 C 4.23 g/m*3 0.9 C 0 km/h
1544 28-12-2009 20:50:02 0.5 C 4.11 g/m*3 0.5 C 0 km/h
1545 28-12-2009 21:02:02 0.4 C 4.13 g/m*3 0.4 C 0 km/h
1546 28-12-2009 21:14:02 0.5 C 4.21 g/m*3 0.5 C 0 km/h
1547 28-12-2009 21:26:01 0.3 C 4.16 g/m*3 0.3 C 0 km/h
1548 28-12-2009 21:38:02 0.1 C 4.1 g/m*3 0.1 C 0 km/h
1549 28-12-2009 21:50:02 -0.3 C 3.99 g/m*3 -0.3 C 0 km/h
1550 28-12-2009 22:02:02 -0.4 C 3.96 g/m*3 -0.4 C 0 km/h
Sensor: Nr:Datum:Temp:Abs-Feuchte:Windchill:Wind:
Aussen-T/F 1551 28-12-2009 22:14:02 -0.5 C 3.93 g/m*3 -0.5 C 0 km/h
1552 28-12-2009 22:26:02 -0.7 C 3.92 g/m*3 -0.7 C 0 km/h
1553 28-12-2009 22:38:02 -0.9 C 3.87 g/m*3 -0.9 C 0 km/h
1554 28-12-2009 22:51:03 -1 C 3.84 g/m*3 -1 C 0 km/h
1555 28-12-2009 23:03:03 -1.2 C 3.79 g/m*3 -1.2 C 0 km/h
1556 28-12-2009 23:15:03 -1.2 C 3.83 g/m*3 -1.2 C 0 km/h
1557 28-12-2009 23:27:03 -1.3 C 3.85 g/m*3 -1.3 C 0 km/h
1558 28-12-2009 23:39:03 -1.3 C 3.85 g/m*3 -1.3 C 0 km/h
1559 28-12-2009 23:51:03 -1.3 C 3.85 g/m*3 -1.3 C 0 km/h
1560 29-12-2009 00:03:03 -1.8 C 3.72 g/m*3 -1.8 C 0 km/h
1561 29-12-2009 00:15:03 -1.7 C 3.75 g/m*3 -1.7 C 0 km/h
1562 29-12-2009 00:27:03 -2 C 3.67 g/m*3 -2 C 0 km/h
1563 29-12-2009 00:39:03 -2 C 3.71 g/m*3 -2 C 0 km/h
1564 29-12-2009 00:51:03 -2.2 C 3.66 g/m*3 -2.2 C 0 km/h
1565 29-12-2009 01:03:03 -2.1 C 3.68 g/m*3 -2.1 C 0 km/h
1566 29-12-2009 01:15:03 -2.1 C 3.68 g/m*3 -2.1 C 0 km/h
1567 29-12-2009 01:27:03 -2.1 C 3.73 g/m*3 -2.1 C 0 km/h
1568 29-12-2009 01:39:03 -2.2 C 3.66 g/m*3 -2.2 C 0 km/h
1569 29-12-2009 01:51:03 -2.1 C 3.73 g/m*3 -2.1 C 0 km/h
1570 29-12-2009 02:03:03 -2.2 C 3.7 g/m*3 -2.2 C 0 km/h
1571 29-12-2009 02:15:03 -2.3 C 3.67 g/m*3 -2.3 C 0 km/h
1572 29-12-2009 02:27:03 -2.3 C 3.67 g/m*3 -2.3 C 0 km/h
1573 29-12-2009 02:39:03 -2.3 C 3.67 g/m*3 -2.3 C 0 km/h
1574 29-12-2009 02:51:04 -2.1 C 3.77 g/m*3 -2.1 C 0 km/h
1575 29-12-2009 03:03:04 -2 C 3.79 g/m*3 -2 C 0 km/h
Sensor: Nr:Datum:Temp:Abs-Feuchte:Windchill:Wind:
Aussen-T/F 1576 29-12-2009 03:15:04 -2.1 C 3.77 g/m*3 -2.1 C 0 km/h
1577 29-12-2009 03:27:04 -2.2 C 3.74 g/m*3 -2.2 C 0 km/h
1578 29-12-2009 03:39:04 -2.3 C 3.71 g/m*3 -2.3 C 0 km/h
1579 29-12-2009 03:51:04 -2.2 C 3.78 g/m*3 -2.2 C 0 km/h
1580 29-12-2009 04:03:04 -2.5 C 3.66 g/m*3 -2.5 C 0 km/h
1581 29-12-2009 04:15:04 -2.5 C 3.66 g/m*3 -2.5 C 0 km/h
1582 29-12-2009 04:27:04 -2.6 C 3.68 g/m*3 -2.6 C 0 km/h
1583 29-12-2009 04:39:04 -2.6 C 3.68 g/m*3 -2.6 C 0 km/h
1584 29-12-2009 04:51:04 -2.6 C 3.68 g/m*3 -2.6 C 0 km/h
1585 29-12-2009 05:03:04 -2.8 C 3.63 g/m*3 -2.8 C 0 km/h
1586 29-12-2009 05:15:04 -2.7 C 3.65 g/m*3 -2.7 C 0 km/h
1587 29-12-2009 05:27:04 -2.7 C 3.69 g/m*3 -2.7 C 0 km/h
1588 29-12-2009 05:39:04 -2.8 C 3.67 g/m*3 -2.8 C 0 km/h
1589 29-12-2009 05:51:04 -2.9 C 3.64 g/m*3 -2.9 C 0 km/h
1590 29-12-2009 06:03:04 -2.9 C 3.64 g/m*3 -2.9 C 0 km/h
1591 29-12-2009 06:15:04 -2.9 C 3.64 g/m*3 -2.9 C 0 km/h
1592 29-12-2009 06:27:04 -2.6 C 3.72 g/m*3 -2.6 C 0 km/h
1593 29-12-2009 06:39:04 -2.3 C 3.84 g/m*3 -2.3 C 0 km/h
1594 29-12-2009 06:51:04 -1.9 C 3.95 g/m*3 -1.9 C 0 km/h
1595 29-12-2009 07:03:04 -1.7 C 4.05 g/m*3 -1.7 C 0 km/h
1596 29-12-2009 07:15:05 -1.6 C 4.07 g/m*3 -1.6 C 0 km/h
1597 29-12-2009 07:27:05 -1.3 C 4.16 g/m*3 -1.3 C 0 km/h
1598 29-12-2009 07:39:02 -1.2 C 4.19 g/m*3 -1.2 C 0 km/h
1599 29-12-2009 07:51:01 -1.1 C 4.22 g/m*3 -1.1 C 0 km/h
1600 29-12-2009 08:03:01 -1.2 C 4.19 g/m*3 -1.2 C 0 km/h
Sensor: Nr:Datum:Temp:Abs-Feuchte:Windchill:Wind:
Aussen-T/F 1601 29-12-2009 08:15:02 -1 C 4.25 g/m*3 -1 C 0 km/h
1602 29-12-2009 08:27:02 -0.9 C 4.28 g/m*3 -0.9 C 0 km/h
1603 29-12-2009 08:39:02 -0.7 C 4.34 g/m*3 -0.7 C 0 km/h
1604 29-12-2009 08:51:02 -0.5 C 4.45 g/m*3 -0.5 C 0 km/h
1605 29-12-2009 09:03:02 -0.3 C 4.51 g/m*3 -0.3 C 0 km/h
1606 29-12-2009 09:15:02 -0.1 C 4.57 g/m*3 -0.1 C 0 km/h
1607 29-12-2009 09:27:02 0.1 C 4.63 g/m*3 0.1 C 0 km/h
1608 29-12-2009 09:39:02 0.3 C 4.7 g/m*3 0.3 C 0 km/h
1609 29-12-2009 09:51:01 0.4 C 4.68 g/m*3 0.4 C 0 km/h
1610 29-12-2009 10:03:02 0.6 C 4.75 g/m*3 0.6 C 0 km/h
1611 29-12-2009 10:15:02 0.7 C 4.78 g/m*3 0.7 C 0 km/h
1612 29-12-2009 10:27:02 1 C 4.83 g/m*3 1 C 0 km/h
1613 29-12-2009 10:39:02 1.3 C 4.87 g/m*3 1.3 C 0 km/h
1614 29-12-2009 10:51:01 1.4 C 4.91 g/m*3 1.4 C 0 km/h
1615 29-12-2009 11:03:02 1.6 C 4.92 g/m*3 1.6 C 0 km/h
1616 29-12-2009 11:15:02 1.8 C 4.93 g/m*3 1.8 C 0 km/h
1617 29-12-2009 11:27:02 1.8 C 4.88 g/m*3 1.8 C 0 km/h
1618 29-12-2009 11:39:01 1.9 C 4.86 g/m*3 1.9 C 0 km/h
1619 29-12-2009 11:51:02 2.2 C 4.9 g/m*3 2.2 C 0 km/h
1620 29-12-2009 12:03:01 2.3 C 4.82 g/m*3 2.3 C 0 km/h
1621 29-12-2009 12:15:01 2.2 C 4.79 g/m*3 2.2 C 0 km/h
1622 29-12-2009 12:27:02 2.3 C 4.82 g/m*3 2.3 C 0 km/h
1623 29-12-2009 12:39:01 2.3 C 4.88 g/m*3 2.3 C 0 km/h
1624 29-12-2009 12:51:02 2.3 C 4.88 g/m*3 2.3 C 0 km/h
1625 29-12-2009 13:03:02 2.3 C 4.93 g/m*3 2.3 C 0 km/h
Sensor: Nr:Datum:Temp:Abs-Feuchte:Windchill:Wind:
Aussen-T/F 1626 29-12-2009 13:15:02 2.2 C 4.96 g/m*3 2.2 C 0 km/h
1627 29-12-2009 13:27:02 2.1 C 4.92 g/m*3 2.1 C 0 km/h
1628 29-12-2009 13:39:02 1.9 C 4.91 g/m*3 1.9 C 0 km/h
1629 29-12-2009 13:51:02 1.8 C 4.93 g/m*3 1.8 C 0 km/h
1630 29-12-2009 14:03:02 1.8 C 4.93 g/m*3 1.8 C 0 km/h
1631 29-12-2009 14:15:01 1.8 C 4.93 g/m*3 1.8 C 0 km/h
1632 29-12-2009 14:27:01 1.8 C 4.99 g/m*3 1.8 C 0 km/h
1633 29-12-2009 14:39:02 1.9 C 5.08 g/m*3 1.9 C 0 km/h
1634 29-12-2009 14:51:02 1.9 C 5.08 g/m*3 1.9 C 0 km/h
1635 29-12-2009 15:03:02 2 C 5.06 g/m*3 2 C 0 km/h
1636 29-12-2009 15:15:01 2 C 5.11 g/m*3 2 C 0 km/h
1637 29-12-2009 15:27:01 1.9 C 5.13 g/m*3 1.9 C 0 km/h
1638 29-12-2009 15:39:02 1.9 C 5.13 g/m*3 1.9 C 0 km/h
1639 29-12-2009 15:51:02 1.9 C 5.13 g/m*3 1.9 C 0 km/h
1640 29-12-2009 16:03:02 1.9 C 5.13 g/m*3 1.9 C 0 km/h
1641 29-12-2009 16:15:02 1.9 C 5.13 g/m*3 1.9 C 0 km/h
1642 29-12-2009 16:27:02 1.8 C 5.15 g/m*3 1.8 C 0 km/h
1643 29-12-2009 16:39:02 1.8 C 5.15 g/m*3 1.8 C 0 km/h
1644 29-12-2009 16:51:01 1.9 C 5.19 g/m*3 1.9 C 0 km/h
1645 29-12-2009 17:03:02 1.9 C 5.19 g/m*3 1.9 C 0 km/h
1646 29-12-2009 17:15:01 2 C 5.22 g/m*3 2 C 0 km/h
1647 29-12-2009 17:27:01 2 C 5.28 g/m*3 2 C 0 km/h
1648 29-12-2009 17:39:01 2.1 C 5.31 g/m*3 2.1 C 0 km/h
1649 29-12-2009 17:51:02 2.1 C 5.31 g/m*3 2.1 C 0 km/h
1650 29-12-2009 18:03:02 2.1 C 5.31 g/m*3 2.1 C 0 km/h
Sensor: Nr:Datum:Temp:Abs-Feuchte:Windchill:Wind:
Aussen-T/F 1651 29-12-2009 18:15:01 2.2 C 5.35 g/m*3 2.2 C 0 km/h
1652 29-12-2009 18:27:01 2.2 C 5.35 g/m*3 2.2 C 0 km/h
1653 29-12-2009 18:39:02 2.2 C 5.35 g/m*3 2.2 C 0 km/h
1654 29-12-2009 18:51:02 2.4 C 5.42 g/m*3 2.4 C 0 km/h
1655 29-12-2009 19:03:02 2.3 C 5.39 g/m*3 2.3 C 0 km/h
1656 29-12-2009 19:15:01 2.4 C 5.42 g/m*3 2.4 C 0 km/h
1657 29-12-2009 19:27:01 2.4 C 5.42 g/m*3 2.4 C 0 km/h
1658 29-12-2009 19:39:02 2.4 C 5.42 g/m*3 2.4 C 0 km/h
1659 29-12-2009 19:51:02 2.4 C 5.42 g/m*3 2.4 C 0 km/h
1660 29-12-2009 20:03:02 2.4 C 5.42 g/m*3 2.4 C 0 km/h
1661 29-12-2009 20:15:02 2.4 C 5.42 g/m*3 2.4 C 0 km/h
1662 29-12-2009 20:27:02 2.4 C 5.42 g/m*3 2.4 C 0 km/h
1663 29-12-2009 20:39:02 2.4 C 5.42 g/m*3 2.4 C 0 km/h
1664 29-12-2009 20:51:02 2.4 C 5.42 g/m*3 2.4 C 0 km/h
1665 29-12-2009 21:03:02 2.4 C 5.42 g/m*3 2.4 C 0 km/h
1666 29-12-2009 21:15:03 2.5 C 5.46 g/m*3 2.5 C 0 km/h
1667 29-12-2009 21:27:03 2.5 C 5.46 g/m*3 2.5 C 0 km/h
1668 29-12-2009 21:39:02 2.5 C 5.46 g/m*3 2.5 C 0 km/h
1669 29-12-2009 21:51:02 2.5 C 5.46 g/m*3 2.5 C 0 km/h
1670 29-12-2009 22:03:02 2.5 C 5.46 g/m*3 2.5 C 0 km/h
1671 29-12-2009 22:15:02 2.5 C 5.46 g/m*3 2.5 C 0 km/h
1672 29-12-2009 22:27:02 2.5 C 5.46 g/m*3 2.5 C 0 km/h
1673 29-12-2009 22:39:02 2.5 C 5.46 g/m*3 2.5 C 0 km/h
1674 29-12-2009 22:51:02 2.6 C 5.5 g/m*3 2.6 C 0 km/h
1675 29-12-2009 23:04:51 2.6 C 5.5 g/m*3 2.6 C 0 km/h
Sensor: Nr:Datum:Temp:Abs-Feuchte:Windchill:Wind:
Aussen-T/F 1676 29-12-2009 23:16:51 2.7 C 5.54 g/m*3 2.7 C 0 km/h
1677 29-12-2009 23:28:51 2.7 C 5.54 g/m*3 2.7 C 0 km/h
1678 29-12-2009 23:40:51 2.8 C 5.57 g/m*3 2.8 C 0 km/h
1679 29-12-2009 23:52:51 2.8 C 5.57 g/m*3 2.8 C 0 km/h
1680 30-12-2009 00:04:51 2.7 C 5.54 g/m*3 2.7 C 0 km/h
1681 30-12-2009 00:16:51 2.9 C 5.61 g/m*3 2.9 C 0 km/h
1682 30-12-2009 00:28:51 3.7 C 5.92 g/m*3 3.7 C 0 km/h
1683 30-12-2009 00:40:51 3.7 C 5.92 g/m*3 3.7 C 0 km/h
1684 30-12-2009 00:52:51 3.5 C 5.84 g/m*3 3.5 C 0 km/h
1685 30-12-2009 01:04:51 3.1 C 5.69 g/m*3 3.1 C 0 km/h
1686 30-12-2009 01:16:51 3.1 C 5.69 g/m*3 3.1 C 0 km/h
1687 30-12-2009 01:28:51 3.1 C 5.69 g/m*3 3.1 C 0 km/h
1688 30-12-2009 01:40:51 3.2 C 5.72 g/m*3 3.2 C 0 km/h
1689 30-12-2009 01:52:51 3.2 C 5.72 g/m*3 3.2 C 0 km/h
1690 30-12-2009 02:04:51 3.2 C 5.72 g/m*3 3.2 C 0 km/h
1691 30-12-2009 02:16:51 3.3 C 5.76 g/m*3 3.3 C 0 km/h
1692 30-12-2009 02:28:51 3.4 C 5.8 g/m*3 3.4 C 0 km/h
1693 30-12-2009 02:40:51 3.4 C 5.8 g/m*3 3.4 C 0 km/h
1694 30-12-2009 02:52:51 3.4 C 5.8 g/m*3 3.4 C 0 km/h
1695 30-12-2009 03:04:51 3.8 C 5.96 g/m*3 3.8 C 0 km/h
1696 30-12-2009 03:16:51 4 C 6.04 g/m*3 4 C 0 km/h
1697 30-12-2009 03:28:52 5.2 C 6.54 g/m*3 5.2 C 0 km/h
1698 30-12-2009 03:40:52 5.2 C 6.54 g/m*3 5.2 C 0 km/h
1699 30-12-2009 03:52:52 5.9 C 6.85 g/m*3 5.9 C 0 km/h
1700 30-12-2009 04:04:52 5.3 C 6.58 g/m*3 5.3 C 0 km/h
Sensor: Nr:Datum:Temp:Abs-Feuchte:Windchill:Wind:
Aussen-T/F 1701 30-12-2009 04:16:52 4.7 C 6.33 g/m*3 4.7 C 0 km/h
1702 30-12-2009 04:28:52 4.8 C 6.37 g/m*3 4.8 C 0 km/h
1703 30-12-2009 04:40:52 4.8 C 6.37 g/m*3 4.8 C 0 km/h
1704 30-12-2009 04:52:52 4.6 C 6.29 g/m*3 4.6 C 0 km/h
1705 30-12-2009 05:04:52 5.2 C 6.54 g/m*3 5.2 C 0 km/h
1706 30-12-2009 05:16:52 4.8 C 6.37 g/m*3 4.8 C 0 km/h
1707 30-12-2009 05:28:52 5.1 C 6.5 g/m*3 5.1 C 0 km/h
1708 30-12-2009 05:40:52 5.2 C 6.54 g/m*3 5.2 C 0 km/h
1709 30-12-2009 05:52:52 4.9 C 6.41 g/m*3 4.9 C 0 km/h
1710 30-12-2009 06:04:52 4.8 C 6.37 g/m*3 4.8 C 0 km/h
1711 30-12-2009 06:16:52 4.8 C 6.37 g/m*3 4.8 C 0 km/h
1712 30-12-2009 06:28:52 5.8 C 6.81 g/m*3 5.8 C 0 km/h
1713 30-12-2009 06:40:52 5.7 C 6.76 g/m*3 5.7 C 0 km/h
1714 30-12-2009 06:52:52 5.5 C 6.67 g/m*3 5.5 C 0 km/h
1715 30-12-2009 07:04:52 6.4 C 7.08 g/m*3 6.4 C 0 km/h
1716 30-12-2009 07:16:52 5.9 C 6.85 g/m*3 5.9 C 0 km/h
1717 30-12-2009 07:28:52 6 C 6.9 g/m*3 6 C 0 km/h
1718 30-12-2009 07:40:52 6.4 C 7.08 g/m*3 6.4 C 0 km/h
1719 30-12-2009 07:52:53 5.9 C 6.85 g/m*3 5.9 C 0 km/h
1720 30-12-2009 08:04:53 5.6 C 6.72 g/m*3 5.6 C 0 km/h
1721 30-12-2009 08:16:53 5.8 C 6.81 g/m*3 5.8 C 0 km/h
1722 30-12-2009 08:28:02 6.1 C 6.94 g/m*3 6.1 C 0 km/h
1723 30-12-2009 08:40:03 6.5 C 7.12 g/m*3 6.5 C 0 km/h
1724 30-12-2009 08:52:02 6.5 C 7.12 g/m*3 6.5 C 0 km/h
1725 30-12-2009 09:04:02 6.4 C 7.08 g/m*3 6.4 C 0 km/h
Sensor: Nr:Datum:Temp:Abs-Feuchte:Windchill:Wind:
Aussen-T/F 1726 30-12-2009 09:16:02 6.9 C 7.31 g/m*3 6.9 C 0 km/h
1727 30-12-2009 09:28:02 7.2 C 7.46 g/m*3 7.2 C 0 km/h
1728 30-12-2009 09:40:03 7.3 C 7.51 g/m*3 7.3 C 0 km/h
1729 30-12-2009 09:52:03 7.3 C 7.51 g/m*3 7.3 C 0 km/h
1730 30-12-2009 10:04:02 7.8 C 7.75 g/m*3 7.8 C 0 km/h
1731 30-12-2009 10:16:03 7.5 C 7.6 g/m*3 7.5 C 0 km/h
1732 30-12-2009 10:28:03 7.3 C 7.51 g/m*3 7.3 C 0 km/h
1733 30-12-2009 10:40:03 7.2 C 7.46 g/m*3 7.2 C 0 km/h
1734 30-12-2009 10:52:02 7.6 C 7.65 g/m*3 7.6 C 0 km/h
1735 30-12-2009 11:04:02 7.8 C 7.75 g/m*3 7.8 C 0 km/h
1736 30-12-2009 11:16:02 7.8 C 7.75 g/m*3 7.8 C 0 km/h
1737 30-12-2009 11:28:02 7.7 C 7.7 g/m*3 7.7 C 0 km/h
1738 30-12-2009 11:40:02 7.9 C 7.8 g/m*3 7.9 C 0 km/h
1739 30-12-2009 11:52:02 7.8 C 7.75 g/m*3 7.8 C 0 km/h
1740 30-12-2009 12:04:02 7.7 C 7.7 g/m*3 7.7 C 0 km/h
1741 30-12-2009 12:16:02 8 C 7.85 g/m*3 8 C 0 km/h
1742 30-12-2009 12:28:02 7.9 C 7.8 g/m*3 7.9 C 0 km/h
1743 30-12-2009 12:40:02 8.1 C 7.9 g/m*3 8.1 C 0 km/h
1744 30-12-2009 12:52:02 8.6 C 8.16 g/m*3 8.6 C 0 km/h
1745 30-12-2009 13:04:02 8.9 C 8.32 g/m*3 8.9 C 0 km/h
1746 30-12-2009 13:16:02 9.2 C 8.48 g/m*3 9.2 C 0 km/h
1747 30-12-2009 13:28:02 9.2 C 8.48 g/m*3 9.2 C 0 km/h
1748 30-12-2009 13:40:02 9.4 C 8.59 g/m*3 9.4 C 0 km/h
1749 30-12-2009 13:52:02 9.3 C 8.54 g/m*3 9.3 C 0 km/h
1750 30-12-2009 14:04:02 9.4 C 8.59 g/m*3 9.4 C 0 km/h
Sensor: Nr:Datum:Temp:Abs-Feuchte:Windchill:Wind:
Aussen-T/F 1751 30-12-2009 14:16:02 9.4 C 8.59 g/m*3 9.4 C 0 km/h
1752 30-12-2009 14:28:02 9.4 C 8.59 g/m*3 9.4 C 0 km/h
1753 30-12-2009 14:40:02 9.4 C 8.59 g/m*3 9.4 C 0 km/h
1754 30-12-2009 14:52:02 9.3 C 8.54 g/m*3 9.3 C 0 km/h
1755 30-12-2009 15:04:02 9.3 C 8.54 g/m*3 9.3 C 0 km/h
1756 30-12-2009 15:16:02 9.3 C 8.54 g/m*3 9.3 C 0 km/h
1757 30-12-2009 15:28:03 9.3 C 8.54 g/m*3 9.3 C 0 km/h
1758 30-12-2009 15:40:01 9.2 C 8.48 g/m*3 9.2 C 0 km/h
1759 30-12-2009 15:52:02 9.3 C 8.54 g/m*3 9.3 C 0 km/h
1760 30-12-2009 16:04:01 9.2 C 8.48 g/m*3 9.2 C 0 km/h
1761 30-12-2009 16:16:02 9.2 C 8.48 g/m*3 9.2 C 0 km/h
1762 30-12-2009 16:28:02 9.1 C 8.43 g/m*3 9.1 C 0 km/h
1763 30-12-2009 16:40:02 9 C 8.38 g/m*3 9 C 0 km/h
1764 30-12-2009 16:52:02 9 C 8.38 g/m*3 9 C 0 km/h
1765 30-12-2009 17:04:02 8.8 C 8.27 g/m*3 8.8 C 0 km/h
1766 30-12-2009 17:16:02 8.6 C 8.16 g/m*3 8.6 C 0 km/h
1767 30-12-2009 17:28:02 8.6 C 8.16 g/m*3 8.6 C 0 km/h
1768 30-12-2009 17:40:02 8.6 C 8.08 g/m*3 8.6 C 0 km/h
1769 30-12-2009 17:52:02 8.5 C 8.03 g/m*3 8.5 C 0 km/h
1770 30-12-2009 18:04:02 8.6 C 8.08 g/m*3 8.6 C 0 km/h
1771 30-12-2009 18:16:01 8.5 C 8.03 g/m*3 8.5 C 0 km/h
1772 30-12-2009 18:28:01 8.4 C 7.97 g/m*3 8.4 C 0 km/h
1773 30-12-2009 18:40:02 8.4 C 7.97 g/m*3 8.4 C 0 km/h
1774 30-12-2009 18:52:02 8.4 C 7.89 g/m*3 8.4 C 0 km/h
1775 30-12-2009 19:04:02 8.5 C 7.94 g/m*3 8.5 C 0 km/h
Sensor: Nr:Datum:Temp:Abs-Feuchte:Windchill:Wind:
Aussen-T/F 1776 30-12-2009 19:16:02 8.6 C 7.91 g/m*3 8.6 C 0 km/h
1777 30-12-2009 19:28:02 8.6 C 7.82 g/m*3 8.6 C 0 km/h
1778 30-12-2009 19:40:02 8.5 C 7.77 g/m*3 8.5 C 0 km/h
1779 30-12-2009 19:52:02 8.5 C 7.77 g/m*3 8.5 C 0 km/h
1780 30-12-2009 20:04:02 8.7 C 7.78 g/m*3 8.7 C 0 km/h
1781 30-12-2009 20:16:02 8.8 C 7.66 g/m*3 8.8 C 0 km/h
1782 30-12-2009 20:28:02 8.9 C 7.62 g/m*3 8.9 C 0 km/h
1783 30-12-2009 20:40:02 8.9 C 7.53 g/m*3 8.9 C 0 km/h
1784 30-12-2009 20:52:01 8.7 C 7.52 g/m*3 8.7 C 0 km/h
1785 30-12-2009 21:04:01 8.5 C 7.51 g/m*3 8.5 C 0 km/h
1786 30-12-2009 21:16:01 8.5 C 7.51 g/m*3 8.5 C 0 km/h
1787 30-12-2009 21:28:01 8.5 C 7.51 g/m*3 8.5 C 0 km/h
1788 30-12-2009 21:40:01 8.5 C 7.51 g/m*3 8.5 C 0 km/h
1789 30-12-2009 21:52:01 8.6 C 7.56 g/m*3 8.6 C 0 km/h
1790 30-12-2009 22:04:02 8.6 C 7.48 g/m*3 8.6 C 0 km/h
1791 30-12-2009 22:16:01 8.7 C 7.44 g/m*3 8.7 C 0 km/h
1792 30-12-2009 22:28:01 8.8 C 7.4 g/m*3 8.8 C 0 km/h
1793 30-12-2009 22:40:02 8.9 C 7.36 g/m*3 8.9 C 0 km/h
1794 30-12-2009 22:52:02 8.9 C 7.36 g/m*3 8.9 C 0 km/h
1795 30-12-2009 23:04:01 8.8 C 7.31 g/m*3 8.8 C 0 km/h
1796 30-12-2009 23:16:01 8.6 C 7.39 g/m*3 8.6 C 0 km/h
1797 30-12-2009 23:28:01 8.2 C 7.37 g/m*3 8.2 C 0 km/h
1798 30-12-2009 23:40:01 8 C 7.44 g/m*3 8 C 0 km/h
1799 30-12-2009 23:52:01 7.9 C 7.56 g/m*3 7.9 C 0 km/h
1800 31-12-2009 00:04:01 7.9 C 7.56 g/m*3 7.9 C 0 km/h
Sensor: Nr:Datum:Temp:Abs-Feuchte:Windchill:Wind:
Aussen-T/F 1801 31-12-2009 00:16:01 7.8 C 7.59 g/m*3 7.8 C 0 km/h
1802 31-12-2009 00:28:01 7.8 C 7.59 g/m*3 7.8 C 0 km/h
1803 31-12-2009 00:40:01 7.7 C 7.54 g/m*3 7.7 C 0 km/h
1804 31-12-2009 00:52:01 7.6 C 7.57 g/m*3 7.6 C 0 km/h
1805 31-12-2009 01:04:01 7.6 C 7.57 g/m*3 7.6 C 0 km/h
1806 31-12-2009 01:16:01 7.6 C 7.57 g/m*3 7.6 C 0 km/h
1807 31-12-2009 01:28:02 7.6 C 7.65 g/m*3 7.6 C 0 km/h
1808 31-12-2009 01:40:02 7.6 C 7.65 g/m*3 7.6 C 0 km/h
1809 31-12-2009 01:52:02 7.6 C 7.65 g/m*3 7.6 C 0 km/h
1810 31-12-2009 02:04:02 7.5 C 7.6 g/m*3 7.5 C 0 km/h
1811 31-12-2009 02:16:02 7.6 C 7.65 g/m*3 7.6 C 0 km/h
1812 31-12-2009 02:28:02 7.4 C 7.55 g/m*3 7.4 C 0 km/h
1813 31-12-2009 02:40:01 7.5 C 7.6 g/m*3 7.5 C 0 km/h
1814 31-12-2009 02:52:01 7.6 C 7.65 g/m*3 7.6 C 0 km/h
1815 31-12-2009 03:04:01 7.6 C 7.65 g/m*3 7.6 C 0 km/h
1816 31-12-2009 03:16:02 7.6 C 7.65 g/m*3 7.6 C 0 km/h
1817 31-12-2009 03:28:02 7.5 C 7.6 g/m*3 7.5 C 0 km/h
1818 31-12-2009 03:40:01 7.5 C 7.6 g/m*3 7.5 C 0 km/h
1819 31-12-2009 03:52:01 7.4 C 7.55 g/m*3 7.4 C 0 km/h
1820 31-12-2009 04:04:02 7.3 C 7.51 g/m*3 7.3 C 0 km/h
1821 31-12-2009 04:16:01 7.1 C 7.41 g/m*3 7.1 C 0 km/h
1822 31-12-2009 04:28:01 7 C 7.36 g/m*3 7 C 0 km/h
1823 31-12-2009 04:40:02 7 C 7.36 g/m*3 7 C 0 km/h
1824 31-12-2009 04:52:01 7 C 7.36 g/m*3 7 C 0 km/h
1825 31-12-2009 05:04:02 7.1 C 7.41 g/m*3 7.1 C 0 km/h
Sensor: Nr:Datum:Temp:Abs-Feuchte:Windchill:Wind:
Aussen-T/F 1826 31-12-2009 05:16:01 7.1 C 7.41 g/m*3 7.1 C 0 km/h
1827 31-12-2009 05:28:01 7 C 7.36 g/m*3 7 C 0 km/h
1828 31-12-2009 05:40:01 7 C 7.36 g/m*3 7 C 0 km/h
1829 31-12-2009 05:52:01 7 C 7.36 g/m*3 7 C 0 km/h
1830 31-12-2009 06:04:02 6.9 C 7.31 g/m*3 6.9 C 0 km/h
1831 31-12-2009 06:16:01 6.7 C 7.22 g/m*3 6.7 C 0 km/h
1832 31-12-2009 06:28:01 6.7 C 7.22 g/m*3 6.7 C 0 km/h
1833 31-12-2009 06:40:01 6.6 C 7.17 g/m*3 6.6 C 0 km/h
1834 31-12-2009 06:52:01 6.6 C 7.17 g/m*3 6.6 C 0 km/h
1835 31-12-2009 07:04:01 6.7 C 7.22 g/m*3 6.7 C 0 km/h
1836 31-12-2009 07:16:01 6.6 C 7.17 g/m*3 6.6 C 0 km/h
1837 31-12-2009 07:28:01 6.7 C 7.22 g/m*3 6.7 C 0 km/h
1838 31-12-2009 07:40:01 6.6 C 7.17 g/m*3 6.6 C 0 km/h
1839 31-12-2009 07:52:01 6.6 C 7.17 g/m*3 6.6 C 0 km/h
1840 31-12-2009 08:04:01 6.6 C 7.17 g/m*3 6.6 C 0 km/h
1841 31-12-2009 08:16:02 6.6 C 7.17 g/m*3 6.6 C 0 km/h
1842 31-12-2009 08:28:02 6.6 C 7.17 g/m*3 6.6 C 0 km/h
1843 31-12-2009 08:40:01 6.6 C 7.17 g/m*3 6.6 C 0 km/h
1844 31-12-2009 08:52:02 6.6 C 7.17 g/m*3 6.6 C 0 km/h
1845 31-12-2009 09:04:01 6.6 C 7.17 g/m*3 6.6 C 0 km/h
1846 31-12-2009 09:16:02 6.6 C 7.17 g/m*3 6.6 C 0 km/h
1847 31-12-2009 09:28:02 6.7 C 7.22 g/m*3 6.7 C 0 km/h
1848 31-12-2009 09:40:01 6.7 C 7.22 g/m*3 6.7 C 0 km/h
1849 31-12-2009 09:52:02 6.7 C 7.22 g/m*3 6.7 C 0 km/h
1850 31-12-2009 10:04:01 6.7 C 7.22 g/m*3 6.7 C 0 km/h
Sensor: Nr:Datum:Temp:Abs-Feuchte:Windchill:Wind:
Aussen-T/F 1851 31-12-2009 10:16:02 6.8 C 7.27 g/m*3 6.8 C 0 km/h
1852 31-12-2009 10:28:02 6.8 C 7.27 g/m*3 6.8 C 0 km/h
1853 31-12-2009 10:40:01 7 C 7.36 g/m*3 7 C 0 km/h
1854 31-12-2009 10:52:02 7.3 C 7.51 g/m*3 7.3 C 0 km/h
1855 31-12-2009 11:04:01 7.4 C 7.55 g/m*3 7.4 C 0 km/h
1856 31-12-2009 11:16:01 7.5 C 7.6 g/m*3 7.5 C 0 km/h
1857 31-12-2009 11:28:01 7.5 C 7.6 g/m*3 7.5 C 0 km/h
1858 31-12-2009 11:40:01 7.4 C 7.55 g/m*3 7.4 C 0 km/h
1859 31-12-2009 11:52:02 7.5 C 7.6 g/m*3 7.5 C 0 km/h
1860 31-12-2009 12:04:01 7.4 C 7.55 g/m*3 7.4 C 0 km/h
1861 31-12-2009 12:16:01 7.4 C 7.55 g/m*3 7.4 C 0 km/h
1862 31-12-2009 12:28:01 7.4 C 7.55 g/m*3 7.4 C 0 km/h
1863 31-12-2009 12:40:02 7.4 C 7.55 g/m*3 7.4 C 0 km/h
1864 31-12-2009 12:52:01 7.2 C 7.46 g/m*3 7.2 C 0 km/h
1865 31-12-2009 13:04:01 7.1 C 7.41 g/m*3 7.1 C 0 km/h
1866 31-12-2009 13:16:02 7 C 7.36 g/m*3 7 C 0 km/h
1867 31-12-2009 13:28:02 7.1 C 7.41 g/m*3 7.1 C 0 km/h
1868 31-12-2009 13:40:01 7.1 C 7.41 g/m*3 7.1 C 0 km/h
1869 31-12-2009 13:52:01 7.2 C 7.46 g/m*3 7.2 C 0 km/h
1870 31-12-2009 14:04:01 6.7 C 7.22 g/m*3 6.7 C 0 km/h
1871 31-12-2009 14:16:02 6.5 C 7.12 g/m*3 6.5 C 0 km/h
1872 31-12-2009 14:28:02 6.3 C 7.03 g/m*3 6.3 C 0 km/h
1873 31-12-2009 14:40:01 6.1 C 6.94 g/m*3 6.1 C 0 km/h
1874 31-12-2009 14:52:02 5.9 C 6.85 g/m*3 5.9 C 0 km/h
1875 31-12-2009 15:04:01 5.9 C 6.85 g/m*3 5.9 C 0 km/h
Sensor: Nr:Datum:Temp:Abs-Feuchte:Windchill:Wind:
Aussen-T/F 1876 31-12-2009 15:16:02 5.6 C 6.72 g/m*3 5.6 C 0 km/h
1877 31-12-2009 15:28:02 5 C 6.46 g/m*3 5 C 0 km/h
1878 31-12-2009 15:40:01 5.1 C 6.5 g/m*3 5.1 C 0 km/h
1879 31-12-2009 15:52:02 4.6 C 6.29 g/m*3 4.6 C 0 km/h
1880 31-12-2009 16:04:01 4.2 C 6.12 g/m*3 4.2 C 0 km/h
1881 31-12-2009 16:16:01 3.9 C 6 g/m*3 3.9 C 0 km/h
1882 31-12-2009 16:28:02 3.7 C 5.92 g/m*3 3.7 C 0 km/h
1883 31-12-2009 16:40:01 3.4 C 5.8 g/m*3 3.4 C 0 km/h
1884 31-12-2009 16:52:01 3.3 C 5.76 g/m*3 3.3 C 0 km/h
1885 31-12-2009 17:05:02 3.2 C 5.66 g/m*3 3.2 C 0 km/h
1886 31-12-2009 17:17:02 2.9 C 5.55 g/m*3 2.9 C 0 km/h
1887 31-12-2009 17:29:02 2.9 C 5.55 g/m*3 2.9 C 0 km/h
1888 31-12-2009 17:41:02 2.7 C 5.48 g/m*3 2.7 C 0 km/h
1889 31-12-2009 17:53:02 2.8 C 5.51 g/m*3 2.8 C 0 km/h
1890 31-12-2009 18:05:02 2.8 C 5.51 g/m*3 2.8 C 0 km/h
1891 31-12-2009 18:17:02 2.7 C 5.48 g/m*3 2.7 C 0 km/h
1892 31-12-2009 18:29:02 2.7 C 5.54 g/m*3 2.7 C 0 km/h
1893 31-12-2009 18:41:02 2.7 C 5.54 g/m*3 2.7 C 0 km/h
1894 31-12-2009 18:53:02 2.6 C 5.5 g/m*3 2.6 C 0 km/h
1895 31-12-2009 19:05:02 2.5 C 5.46 g/m*3 2.5 C 0 km/h
1896 31-12-2009 19:17:02 2.3 C 5.39 g/m*3 2.3 C 0 km/h
1897 31-12-2009 19:29:02 2.1 C 5.31 g/m*3 2.1 C 0 km/h
1898 31-12-2009 19:41:02 2 C 5.28 g/m*3 2 C 0 km/h
1899 31-12-2009 19:53:03 2.1 C 5.31 g/m*3 2.1 C 0 km/h
1900 31-12-2009 20:05:03 1.9 C 5.24 g/m*3 1.9 C 0 km/h
Sensor: Nr:Datum:Temp:Abs-Feuchte:Windchill:Wind:
Aussen-T/F 1901 31-12-2009 20:17:03 1.8 C 5.21 g/m*3 1.8 C 0 km/h
1902 31-12-2009 20:29:03 1.8 C 5.21 g/m*3 1.8 C 0 km/h
1903 31-12-2009 20:41:03 1.8 C 5.21 g/m*3 1.8 C 0 km/h
1904 31-12-2009 20:53:03 1.8 C 5.21 g/m*3 1.8 C 0 km/h
1905 31-12-2009 21:05:03 1.6 C 5.14 g/m*3 1.6 C 0 km/h
1906 31-12-2009 21:17:03 1.5 C 5.1 g/m*3 1.5 C 0 km/h
1907 31-12-2009 21:29:03 1.3 C 5.03 g/m*3 1.3 C 0 km/h
1908 31-12-2009 21:41:03 1.2 C 5 g/m*3 1.2 C 0 km/h
1909 31-12-2009 21:53:03 1.3 C 5.03 g/m*3 1.3 C 0 km/h
1910 31-12-2009 22:05:03 1.3 C 5.03 g/m*3 1.3 C 0 km/h
1911 31-12-2009 22:17:03 1.3 C 5.03 g/m*3 1.3 C 0 km/h
1912 31-12-2009 22:29:03 0.9 C 4.9 g/m*3 0.9 C 0 km/h
1913 31-12-2009 22:41:03 0.8 C 4.86 g/m*3 0.8 C 0 km/h
1914 31-12-2009 22:53:03 0.7 C 4.83 g/m*3 0.7 C 0 km/h
1915 31-12-2009 23:05:03 0.6 C 4.8 g/m*3 0.6 C 0 km/h
1916 31-12-2009 23:17:03 0.6 C 4.8 g/m*3 0.6 C 0 km/h
1917 31-12-2009 23:29:03 0.6 C 4.8 g/m*3 0.6 C 0 km/h
1918 31-12-2009 23:41:03 0.7 C 4.83 g/m*3 0.7 C 0 km/h
1919 31-12-2009 23:53:03 0.7 C 4.83 g/m*3 0.7 C 0 km/h
1920 01-01-2010 00:05:04 0.8 C 4.86 g/m*3 0.8 C 0 km/h
1921 01-01-2010 00:17:04 0.8 C 4.86 g/m*3 0.8 C 0 km/h
1922 01-01-2010 00:29:04 0.8 C 4.86 g/m*3 0.8 C 0 km/h
1923 01-01-2010 00:41:04 0.8 C 4.86 g/m*3 0.8 C 0 km/h
1924 01-01-2010 00:53:04 0.8 C 4.86 g/m*3 0.8 C 0 km/h
1925 01-01-2010 01:05:04 0.7 C 4.83 g/m*3 0.7 C 0 km/h
Sensor: Nr:Datum:Temp:Abs-Feuchte:Windchill:Wind:
Aussen-T/F 1926 01-01-2010 01:17:04 0.5 C 4.76 g/m*3 0.5 C 0 km/h
1927 01-01-2010 01:29:04 0.5 C 4.76 g/m*3 0.5 C 0 km/h
1928 01-01-2010 01:41:04 0.4 C 4.73 g/m*3 0.4 C 0 km/h
1929 01-01-2010 01:53:04 0.5 C 4.76 g/m*3 0.5 C 0 km/h
1930 01-01-2010 02:05:04 0.4 C 4.73 g/m*3 0.4 C 0 km/h
1931 01-01-2010 02:17:04 0.4 C 4.73 g/m*3 0.4 C 0 km/h
1932 01-01-2010 02:29:04 0.3 C 4.7 g/m*3 0.3 C 0 km/h
1933 01-01-2010 02:41:04 0.3 C 4.7 g/m*3 0.3 C 0 km/h
1934 01-01-2010 02:53:04 0.3 C 4.7 g/m*3 0.3 C 0 km/h
1935 01-01-2010 03:05:04 0.3 C 4.7 g/m*3 0.3 C 0 km/h
1936 01-01-2010 03:17:04 0.3 C 4.7 g/m*3 0.3 C 0 km/h
1937 01-01-2010 03:29:04 0.3 C 4.7 g/m*3 0.3 C 0 km/h
1938 01-01-2010 03:41:04 0.3 C 4.7 g/m*3 0.3 C 0 km/h
1939 01-01-2010 03:53:04 0.3 C 4.7 g/m*3 0.3 C 0 km/h
1940 01-01-2010 04:05:05 0.2 C 4.67 g/m*3 0.2 C 0 km/h
1941 01-01-2010 04:17:05 0.3 C 4.7 g/m*3 0.3 C 0 km/h
1942 01-01-2010 04:29:05 0.3 C 4.7 g/m*3 0.3 C 0 km/h
1943 01-01-2010 04:41:05 0.2 C 4.67 g/m*3 0.2 C 0 km/h
1944 01-01-2010 04:53:05 0.3 C 4.7 g/m*3 0.3 C 0 km/h
1945 01-01-2010 05:05:05 0.2 C 4.67 g/m*3 0.2 C 0 km/h
1946 01-01-2010 05:17:05 0.2 C 4.67 g/m*3 0.2 C 0 km/h
1947 01-01-2010 05:29:05 0.2 C 4.67 g/m*3 0.2 C 0 km/h
1948 01-01-2010 05:41:05 0.2 C 4.67 g/m*3 0.2 C 0 km/h
1949 01-01-2010 05:53:05 0.2 C 4.67 g/m*3 0.2 C 0 km/h
1950 01-01-2010 06:05:05 0.1 C 4.63 g/m*3 0.1 C 0 km/h
Sensor: Nr:Datum:Temp:Abs-Feuchte:Windchill:Wind:
Aussen-T/F 1951 01-01-2010 06:17:05 0.1 C 4.63 g/m*3 0.1 C 0 km/h
1952 01-01-2010 06:29:05 0.1 C 4.63 g/m*3 0.1 C 0 km/h
1953 01-01-2010 06:41:05 0.1 C 4.63 g/m*3 0.1 C 0 km/h
1954 01-01-2010 06:53:05 0.2 C 4.67 g/m*3 0.2 C 0 km/h
1955 01-01-2010 07:05:05 0.1 C 4.63 g/m*3 0.1 C 0 km/h
1956 01-01-2010 07:17:05 0.1 C 4.63 g/m*3 0.1 C 0 km/h
1957 01-01-2010 07:29:05 0.1 C 4.63 g/m*3 0.1 C 0 km/h
1958 01-01-2010 07:41:05 0.1 C 4.63 g/m*3 0.1 C 0 km/h
1959 01-01-2010 07:53:05 0.1 C 4.59 g/m*3 0.1 C 0 km/h
1960 01-01-2010 08:05:06 0.1 C 4.59 g/m*3 0.1 C 0 km/h
1961 01-01-2010 08:17:06 0.2 C 4.62 g/m*3 0.2 C 0 km/h
1962 01-01-2010 08:29:06 0.1 C 4.59 g/m*3 0.1 C 0 km/h
1963 01-01-2010 08:41:06 0.1 C 4.59 g/m*3 0.1 C 0 km/h
1964 01-01-2010 08:53:06 0.1 C 4.59 g/m*3 0.1 C 0 km/h
1965 01-01-2010 09:05:06 0.1 C 4.59 g/m*3 0.1 C 0 km/h
1966 01-01-2010 09:17:06 -0.1 C 4.52 g/m*3 -0.1 C 0 km/h
1967 01-01-2010 09:29:06 -0.1 C 4.52 g/m*3 -0.1 C 0 km/h
1968 01-01-2010 09:41:06 -0.1 C 4.52 g/m*3 -0.1 C 0 km/h
1969 01-01-2010 09:53:06 -0.1 C 4.52 g/m*3 -0.1 C 0 km/h
1970 01-01-2010 10:05:06 -0.1 C 4.52 g/m*3 -0.1 C 0 km/h
1971 01-01-2010 10:17:06 -0.1 C 4.52 g/m*3 -0.1 C 0 km/h
1972 01-01-2010 10:29:06 -0.1 C 4.52 g/m*3 -0.1 C 0 km/h
1973 01-01-2010 10:41:06 -0.2 C 4.49 g/m*3 -0.2 C 0 km/h
1974 01-01-2010 10:53:06 -0.2 C 4.44 g/m*3 -0.2 C 0 km/h
1975 01-01-2010 11:05:06 -0.1 C 4.47 g/m*3 -0.1 C 0 km/h
Sensor: Nr:Datum:Temp:Abs-Feuchte:Windchill:Wind:
Aussen-T/F 1976 01-01-2010 11:17:06 -0.2 C 4.4 g/m*3 -0.2 C 0 km/h
1977 01-01-2010 11:29:06 -0.1 C 4.43 g/m*3 -0.1 C 0 km/h
1978 01-01-2010 11:41:06 -0.2 C 4.4 g/m*3 -0.2 C 0 km/h
1979 01-01-2010 11:53:06 -0.2 C 4.4 g/m*3 -0.2 C 0 km/h
1980 01-01-2010 12:05:06 -0.1 C 4.43 g/m*3 -0.1 C 0 km/h
1981 01-01-2010 12:17:07 -0.2 C 4.35 g/m*3 -0.2 C 0 km/h
1982 01-01-2010 12:29:07 -0.2 C 4.35 g/m*3 -0.2 C 0 km/h
1983 01-01-2010 12:41:07 -0.2 C 4.3 g/m*3 -0.2 C 0 km/h
1984 01-01-2010 12:53:07 -0.2 C 4.3 g/m*3 -0.2 C 0 km/h
1985 01-01-2010 13:05:07 -0.2 C 4.3 g/m*3 -0.2 C 0 km/h
1986 01-01-2010 13:17:07 -0.3 C 4.27 g/m*3 -0.3 C 0 km/h
1987 01-01-2010 13:29:07 -0.3 C 4.27 g/m*3 -0.3 C 0 km/h
1988 01-01-2010 13:41:07 -0.3 C 4.27 g/m*3 -0.3 C 0 km/h
1989 01-01-2010 13:53:07 -0.3 C 4.27 g/m*3 -0.3 C 0 km/h
1990 01-01-2010 14:05:07 -0.3 C 4.27 g/m*3 -0.3 C 0 km/h
1991 01-01-2010 14:17:07 -0.3 C 4.22 g/m*3 -0.3 C 0 km/h
1992 01-01-2010 14:29:07 -0.2 C 4.3 g/m*3 -0.2 C 0 km/h
1993 01-01-2010 14:41:07 -0.2 C 4.3 g/m*3 -0.2 C 0 km/h
1994 01-01-2010 14:53:07 -0.2 C 4.3 g/m*3 -0.2 C 0 km/h
1995 01-01-2010 15:05:07 -0.2 C 4.3 g/m*3 -0.2 C 0 km/h
1996 01-01-2010 15:17:07 -0.2 C 4.25 g/m*3 -0.2 C 0 km/h
1997 01-01-2010 15:29:07 -0.2 C 4.25 g/m*3 -0.2 C 0 km/h
1998 01-01-2010 15:41:07 -0.2 C 4.25 g/m*3 -0.2 C 0 km/h
1999 01-01-2010 15:53:02 -0.2 C 4.25 g/m*3 -0.2 C 0 km/h
2000 01-01-2010 16:05:01 -0.2 C 4.3 g/m*3 -0.2 C 0 km/h
Sensor: Nr:Datum:Temp:Abs-Feuchte:Windchill:Wind:
Aussen-T/F 2001 01-01-2010 16:17:02 -0.3 C 4.27 g/m*3 -0.3 C 0 km/h
2002 01-01-2010 16:29:02 -0.3 C 4.27 g/m*3 -0.3 C 0 km/h
2003 01-01-2010 16:41:01 -0.3 C 4.32 g/m*3 -0.3 C 0 km/h
2004 01-01-2010 16:53:02 -0.3 C 4.32 g/m*3 -0.3 C 0 km/h
2005 01-01-2010 17:05:01 -0.4 C 4.29 g/m*3 -0.4 C 0 km/h
2006 01-01-2010 17:17:01 -0.4 C 4.29 g/m*3 -0.4 C 0 km/h
2007 01-01-2010 17:29:01 -0.5 C 4.26 g/m*3 -0.5 C 0 km/h
2008 01-01-2010 17:41:02 -0.5 C 4.26 g/m*3 -0.5 C 0 km/h
2009 01-01-2010 17:53:02 -0.5 C 4.26 g/m*3 -0.5 C 0 km/h
2010 01-01-2010 18:05:03 -0.5 C 4.26 g/m*3 -0.5 C 0 km/h
2011 01-01-2010 18:17:02 -0.6 C 4.23 g/m*3 -0.6 C 0 km/h
2012 01-01-2010 18:29:02 -0.6 C 4.23 g/m*3 -0.6 C 0 km/h
2013 01-01-2010 18:41:02 -0.7 C 4.2 g/m*3 -0.7 C 0 km/h
2014 01-01-2010 18:53:01 -0.8 C 4.22 g/m*3 -0.8 C 0 km/h
2015 01-01-2010 19:05:02 -0.8 C 4.17 g/m*3 -0.8 C 0 km/h
2016 01-01-2010 19:17:01 -0.9 C 4.14 g/m*3 -0.9 C 0 km/h
2017 01-01-2010 19:29:01 -0.8 C 4.17 g/m*3 -0.8 C 0 km/h
2018 01-01-2010 19:41:02 -0.8 C 4.13 g/m*3 -0.8 C 0 km/h
2019 01-01-2010 19:53:01 -0.8 C 4.08 g/m*3 -0.8 C 0 km/h
2020 01-01-2010 20:05:02 -0.7 C 4.06 g/m*3 -0.7 C 0 km/h
2021 01-01-2010 20:17:01 -0.7 C 4.02 g/m*3 -0.7 C 0 km/h
2022 01-01-2010 20:29:01 -0.8 C 3.94 g/m*3 -0.8 C 0 km/h
2023 01-01-2010 20:41:02 -0.8 C 3.94 g/m*3 -0.8 C 0 km/h
2024 01-01-2010 20:53:01 -0.8 C 3.9 g/m*3 -0.8 C 0 km/h
2025 01-01-2010 21:05:02 -0.8 C 3.9 g/m*3 -0.8 C 0 km/h
Sensor: Nr:Datum:Temp:Abs-Feuchte:Windchill:Wind:
Aussen-T/F 2026 01-01-2010 21:17:02 -0.8 C 3.9 g/m*3 -0.8 C 0 km/h
2027 01-01-2010 21:29:02 -0.8 C 3.9 g/m*3 -0.8 C 0 km/h
2028 01-01-2010 21:41:02 -0.8 C 3.9 g/m*3 -0.8 C 0 km/h
2029 01-01-2010 21:53:02 -0.8 C 3.85 g/m*3 -0.8 C 0 km/h
2030 01-01-2010 22:05:02 -0.8 C 3.85 g/m*3 -0.8 C 0 km/h
2031 01-01-2010 22:17:01 -0.9 C 3.82 g/m*3 -0.9 C 0 km/h
2032 01-01-2010 22:29:01 -0.9 C 3.82 g/m*3 -0.9 C 0 km/h
2033 01-01-2010 22:41:02 -0.9 C 3.82 g/m*3 -0.9 C 0 km/h
2034 01-01-2010 22:53:02 -0.9 C 3.82 g/m*3 -0.9 C 0 km/h
2035 01-01-2010 23:05:02 -1 C 3.84 g/m*3 -1 C 0 km/h
2036 01-01-2010 23:17:02 -1 C 3.84 g/m*3 -1 C 0 km/h
2037 01-01-2010 23:29:02 -1 C 3.84 g/m*3 -1 C 0 km/h
2038 01-01-2010 23:41:02 -1 C 3.84 g/m*3 -1 C 0 km/h
2039 01-01-2010 23:53:01 -1 C 3.84 g/m*3 -1 C 0 km/h
2040 02-01-2010 00:05:02 -1 C 3.8 g/m*3 -1 C 0 km/h
2041 02-01-2010 00:17:02 -1.1 C 3.73 g/m*3 -1.1 C 0 km/h
2042 02-01-2010 00:29:02 -1.1 C 3.73 g/m*3 -1.1 C 0 km/h
2043 02-01-2010 00:41:02 -1.2 C 3.7 g/m*3 -1.2 C 0 km/h
2044 02-01-2010 00:53:02 -1.2 C 3.7 g/m*3 -1.2 C 0 km/h
2045 02-01-2010 01:05:02 -1.3 C 3.67 g/m*3 -1.3 C 0 km/h
2046 02-01-2010 01:17:02 -1.3 C 3.67 g/m*3 -1.3 C 0 km/h
2047 02-01-2010 01:29:03 -1.4 C 3.6 g/m*3 -1.4 C 0 km/h
2048 02-01-2010 01:41:01 -1.4 C 3.56 g/m*3 -1.4 C 0 km/h
2049 02-01-2010 01:53:02 -1.5 C 3.54 g/m*3 -1.5 C 0 km/h
2050 02-01-2010 02:05:01 -1.6 C 3.47 g/m*3 -1.6 C 0 km/h
Sensor: Nr:Datum:Temp:Abs-Feuchte:Windchill:Wind:
Aussen-T/F 2051 02-01-2010 02:17:02 -1.5 C 3.49 g/m*3 -1.5 C 0 km/h
2052 02-01-2010 02:29:02 -1.4 C 3.56 g/m*3 -1.4 C 0 km/h
2053 02-01-2010 02:41:02 -1.4 C 3.56 g/m*3 -1.4 C 0 km/h
2054 02-01-2010 02:54:04 -1.5 C 3.49 g/m*3 -1.5 C 0 km/h
2055 02-01-2010 03:06:04 -1.6 C 3.42 g/m*3 -1.6 C 0 km/h
2056 02-01-2010 03:18:04 -1.7 C 3.36 g/m*3 -1.7 C 0 km/h
2057 02-01-2010 03:30:04 -1.8 C 3.33 g/m*3 -1.8 C 0 km/h
2058 02-01-2010 03:42:02 -1.9 C 3.27 g/m*3 -1.9 C 0 km/h
2059 02-01-2010 03:54:02 -1.9 C 3.27 g/m*3 -1.9 C 0 km/h
2060 02-01-2010 04:06:02 -1.9 C 3.27 g/m*3 -1.9 C 0 km/h
2061 02-01-2010 04:18:02 -2 C 3.25 g/m*3 -2 C 0 km/h
2062 02-01-2010 04:30:03 -2.1 C 3.18 g/m*3 -2.1 C 0 km/h
2063 02-01-2010 04:42:02 -2.2 C 3.16 g/m*3 -2.2 C 0 km/h
2064 02-01-2010 04:54:02 -2.1 C 3.22 g/m*3 -2.1 C 0 km/h
2065 02-01-2010 05:06:01 -2.2 C 3.2 g/m*3 -2.2 C 0 km/h
2066 02-01-2010 05:18:02 -2.2 C 3.28 g/m*3 -2.2 C 0 km/h
2067 02-01-2010 05:30:02 -2.2 C 3.33 g/m*3 -2.2 C 0 km/h
2068 02-01-2010 05:42:02 -2.2 C 3.37 g/m*3 -2.2 C 0 km/h
2069 02-01-2010 05:54:02 -2.2 C 3.33 g/m*3 -2.2 C 0 km/h
2070 02-01-2010 06:06:03 -2.3 C 3.18 g/m*3 -2.3 C 0 km/h
2071 02-01-2010 06:18:02 -2.2 C 3.16 g/m*3 -2.2 C 0 km/h
2072 02-01-2010 06:30:02 -2.4 C 3.07 g/m*3 -2.4 C 0 km/h
2073 02-01-2010 06:42:02 -2.5 C 3.01 g/m*3 -2.5 C 0 km/h
2074 02-01-2010 06:54:01 -2.5 C 2.89 g/m*3 -2.5 C 0 km/h
2075 02-01-2010 07:06:02 -2.5 C 2.77 g/m*3 -2.5 C 0 km/h
Sensor: Nr:Datum:Temp:Abs-Feuchte:Windchill:Wind:
Aussen-T/F 2076 02-01-2010 07:18:01 -2.5 C 2.73 g/m*3 -2.5 C 0 km/h
2077 02-01-2010 07:30:01 -2.6 C 2.71 g/m*3 -2.6 C 0 km/h
2078 02-01-2010 07:42:01 -2.7 C 2.77 g/m*3 -2.7 C 0 km/h
2079 02-01-2010 07:54:01 -2.8 C 2.79 g/m*3 -2.8 C 0 km/h
2080 02-01-2010 08:06:02 -2.8 C 2.79 g/m*3 -2.8 C 0 km/h
2081 02-01-2010 08:18:01 -3.1 C 2.73 g/m*3 -3.1 C 0 km/h
2082 02-01-2010 08:30:01 -3.4 C 2.71 g/m*3 -3.4 C 0 km/h
2083 02-01-2010 08:42:01 -3.6 C 2.75 g/m*3 -3.6 C 0 km/h
2084 02-01-2010 08:54:01 -3.7 C 2.84 g/m*3 -3.7 C 0 km/h
2085 02-01-2010 09:06:01 -3.8 C 2.86 g/m*3 -3.8 C 0 km/h
2086 02-01-2010 09:18:02 -3.9 C 2.87 g/m*3 -3.9 C 0 km/h
2087 02-01-2010 09:30:02 -3.7 C 2.95 g/m*3 -3.7 C 0 km/h
2088 02-01-2010 09:42:01 -3.6 C 2.94 g/m*3 -3.6 C 0 km/h
2089 02-01-2010 09:54:02 -3.7 C 2.88 g/m*3 -3.7 C 0 km/h
2090 02-01-2010 10:06:02 -3.6 C 2.94 g/m*3 -3.6 C 0 km/h
2091 02-01-2010 10:18:02 -3.4 C 2.98 g/m*3 -3.4 C 0 km/h
2092 02-01-2010 10:30:02 -3.4 C 2.98 g/m*3 -3.4 C 0 km/h
2093 02-01-2010 10:42:02 -3.3 C 3 g/m*3 -3.3 C 0 km/h
2094 02-01-2010 10:54:02 -3.3 C 3 g/m*3 -3.3 C 0 km/h
2095 02-01-2010 11:06:01 -3.2 C 3.02 g/m*3 -3.2 C 0 km/h
2096 02-01-2010 11:18:02 -3.1 C 3.04 g/m*3 -3.1 C 0 km/h
2097 02-01-2010 11:30:03 -2.9 C 3.05 g/m*3 -2.9 C 0 km/h
2098 02-01-2010 11:42:01 -2.8 C 3.07 g/m*3 -2.8 C 0 km/h
2099 02-01-2010 11:54:02 -2.6 C 3.11 g/m*3 -2.6 C 0 km/h
2100 02-01-2010 12:06:02 -2.3 C 3.18 g/m*3 -2.3 C 0 km/h
Sensor: Nr:Datum:Temp:Abs-Feuchte:Windchill:Wind:
Aussen-T/F 2101 02-01-2010 12:18:02 -2 C 3.25 g/m*3 -2 C 0 km/h
2102 02-01-2010 12:30:02 -1.9 C 3.23 g/m*3 -1.9 C 0 km/h
2103 02-01-2010 12:42:03 -1.9 C 3.23 g/m*3 -1.9 C 0 km/h
2104 02-01-2010 12:54:02 -1.8 C 3.25 g/m*3 -1.8 C 0 km/h
2105 02-01-2010 13:06:02 -1.8 C 3.25 g/m*3 -1.8 C 0 km/h
2106 02-01-2010 13:18:02 -1.7 C 3.31 g/m*3 -1.7 C 0 km/h
2107 02-01-2010 13:30:02 -1.6 C 3.34 g/m*3 -1.6 C 0 km/h
2108 02-01-2010 13:42:02 -1.6 C 3.38 g/m*3 -1.6 C 0 km/h
2109 02-01-2010 13:54:02 -1.2 C 3.43 g/m*3 -1.2 C 0 km/h
2110 02-01-2010 14:06:02 -0.8 C 3.39 g/m*3 -0.8 C 0 km/h
2111 02-01-2010 14:18:02 -0.8 C 3.35 g/m*3 -0.8 C 0 km/h
2112 02-01-2010 14:30:02 -0.7 C 3.32 g/m*3 -0.7 C 0 km/h
2113 02-01-2010 14:42:02 -0.9 C 3.32 g/m*3 -0.9 C 0 km/h
2114 02-01-2010 14:54:02 -0.9 C 3.32 g/m*3 -0.9 C 0 km/h
2115 02-01-2010 15:06:02 -1.1 C 3.32 g/m*3 -1.1 C 0 km/h
2116 02-01-2010 15:18:02 -1.3 C 3.32 g/m*3 -1.3 C 0 km/h
2117 02-01-2010 15:30:02 -1.3 C 3.41 g/m*3 -1.3 C 0 km/h
2118 02-01-2010 15:42:02 -1.3 C 3.45 g/m*3 -1.3 C 0 km/h
2119 02-01-2010 15:54:01 -1.1 C 3.55 g/m*3 -1.1 C 0 km/h
2120 02-01-2010 16:06:01 -0.7 C 3.55 g/m*3 -0.7 C 0 km/h
2121 02-01-2010 16:18:02 -0.6 C 3.53 g/m*3 -0.6 C 0 km/h
2122 02-01-2010 16:30:02 -0.5 C 3.51 g/m*3 -0.5 C 0 km/h
2123 02-01-2010 16:42:01 -0.5 C 3.46 g/m*3 -0.5 C 0 km/h
2124 02-01-2010 16:54:01 -0.5 C 3.46 g/m*3 -0.5 C 0 km/h
2125 02-01-2010 17:06:01 -0.5 C 3.46 g/m*3 -0.5 C 0 km/h
Sensor: Nr:Datum:Temp:Abs-Feuchte:Windchill:Wind:
Aussen-T/F 2126 02-01-2010 17:18:02 -0.5 C 3.51 g/m*3 -0.5 C 0 km/h
2127 02-01-2010 17:30:02 -0.4 C 3.53 g/m*3 -0.4 C 0 km/h
2128 02-01-2010 17:42:01 -0.4 C 3.53 g/m*3 -0.4 C 0 km/h
2129 02-01-2010 17:54:03 -0.5 C 3.51 g/m*3 -0.5 C 0 km/h
2130 02-01-2010 18:06:02 -0.5 C 3.51 g/m*3 -0.5 C 0 km/h
2131 02-01-2010 18:18:02 -0.4 C 3.53 g/m*3 -0.4 C 0 km/h
2132 02-01-2010 18:30:02 -0.4 C 3.53 g/m*3 -0.4 C 0 km/h
2133 02-01-2010 18:42:02 -0.3 C 3.56 g/m*3 -0.3 C 0 km/h
2134 02-01-2010 18:54:02 -0.2 C 3.58 g/m*3 -0.2 C 0 km/h
2135 02-01-2010 19:06:02 -0.1 C 3.61 g/m*3 -0.1 C 0 km/h
2136 02-01-2010 19:18:02 -0.3 C 3.56 g/m*3 -0.3 C 0 km/h
2137 02-01-2010 19:30:03 -0.1 C 3.61 g/m*3 -0.1 C 0 km/h
2138 02-01-2010 19:42:02 -0.2 C 3.63 g/m*3 -0.2 C 0 km/h
2139 02-01-2010 19:54:02 -0.3 C 3.61 g/m*3 -0.3 C 0 km/h
2140 02-01-2010 20:06:01 -0.2 C 3.63 g/m*3 -0.2 C 0 km/h
2141 02-01-2010 20:18:02 -0.1 C 3.71 g/m*3 -0.1 C 0 km/h
2142 02-01-2010 20:30:02 -0.1 C 3.71 g/m*3 -0.1 C 0 km/h
2143 02-01-2010 20:42:02 -0.1 C 3.66 g/m*3 -0.1 C 0 km/h
2144 02-01-2010 20:54:01 -0.1 C 3.71 g/m*3 -0.1 C 0 km/h
2145 02-01-2010 21:06:02 -0.1 C 3.71 g/m*3 -0.1 C 0 km/h
2146 02-01-2010 21:18:01 -0.1 C 3.71 g/m*3 -0.1 C 0 km/h
2147 02-01-2010 21:30:01 -0.1 C 3.66 g/m*3 -0.1 C 0 km/h
2148 02-01-2010 21:42:02 -0.1 C 3.66 g/m*3 -0.1 C 0 km/h
2149 02-01-2010 21:54:02 -0.1 C 3.66 g/m*3 -0.1 C 0 km/h
2150 02-01-2010 22:06:01 -0.1 C 3.66 g/m*3 -0.1 C 0 km/h
Sensor: Nr:Datum:Temp:Abs-Feuchte:Windchill:Wind:
Aussen-T/F 2151 02-01-2010 22:18:02 -0.1 C 3.66 g/m*3 -0.1 C 0 km/h
2152 02-01-2010 22:30:02 -0.1 C 3.66 g/m*3 -0.1 C 0 km/h
2153 02-01-2010 22:42:02 -0.1 C 3.66 g/m*3 -0.1 C 0 km/h
2154 02-01-2010 22:55:03 -0.3 C 3.61 g/m*3 -0.3 C 0 km/h
2155 02-01-2010 23:07:03 -0.3 C 3.61 g/m*3 -0.3 C 0 km/h
2156 02-01-2010 23:19:03 -0.3 C 3.65 g/m*3 -0.3 C 0 km/h
2157 02-01-2010 23:31:03 -0.3 C 3.65 g/m*3 -0.3 C 0 km/h
2158 02-01-2010 23:43:03 -0.3 C 3.7 g/m*3 -0.3 C 0 km/h
2159 02-01-2010 23:55:03 -0.4 C 3.68 g/m*3 -0.4 C 0 km/h
2160 03-01-2010 00:07:03 -0.5 C 3.65 g/m*3 -0.5 C 0 km/h
2161 03-01-2010 00:19:03 -0.4 C 3.68 g/m*3 -0.4 C 0 km/h
2162 03-01-2010 00:31:03 -0.4 C 3.68 g/m*3 -0.4 C 0 km/h
2163 03-01-2010 00:43:03 -0.4 C 3.68 g/m*3 -0.4 C 0 km/h
2164 03-01-2010 00:55:03 -0.4 C 3.72 g/m*3 -0.4 C 0 km/h
2165 03-01-2010 01:07:03 -0.3 C 3.75 g/m*3 -0.3 C 0 km/h
2166 03-01-2010 01:19:03 -0.3 C 3.75 g/m*3 -0.3 C 0 km/h
2167 03-01-2010 01:31:03 -0.1 C 3.75 g/m*3 -0.1 C 0 km/h
2168 03-01-2010 01:43:04 -0.1 C 3.75 g/m*3 -0.1 C 0 km/h
2169 03-01-2010 01:55:04 0 C 3.78 g/m*3 0 C 0 km/h
2170 03-01-2010 02:07:04 0.1 C 3.76 g/m*3 0.1 C 0 km/h
2171 03-01-2010 02:19:04 0.1 C 3.76 g/m*3 0.1 C 0 km/h
2172 03-01-2010 02:31:04 0.1 C 3.71 g/m*3 0.1 C 0 km/h
2173 03-01-2010 02:43:04 -0.2 C 3.63 g/m*3 -0.2 C 0 km/h
2174 03-01-2010 02:55:04 -0.4 C 3.58 g/m*3 -0.4 C 0 km/h
2175 03-01-2010 03:07:04 -0.4 C 3.58 g/m*3 -0.4 C 0 km/h
Sensor: Nr:Datum:Temp:Abs-Feuchte:Windchill:Wind:
Aussen-T/F 2176 03-01-2010 03:19:04 -0.4 C 3.58 g/m*3 -0.4 C 0 km/h
2177 03-01-2010 03:31:04 -0.7 C 3.51 g/m*3 -0.7 C 0 km/h
2178 03-01-2010 03:43:04 -0.7 C 3.55 g/m*3 -0.7 C 0 km/h
2179 03-01-2010 03:55:04 -0.3 C 3.65 g/m*3 -0.3 C 0 km/h
2180 03-01-2010 04:07:04 0 C 3.92 g/m*3 0 C 0 km/h
2181 03-01-2010 04:19:04 -0.4 C 3.96 g/m*3 -0.4 C 0 km/h
2182 03-01-2010 04:31:04 -0.4 C 4.01 g/m*3 -0.4 C 0 km/h
2183 03-01-2010 04:43:04 -0.3 C 4.03 g/m*3 -0.3 C 0 km/h
2184 03-01-2010 04:55:04 -0.1 C 4.09 g/m*3 -0.1 C 0 km/h
2185 03-01-2010 05:07:04 -0.1 C 4.04 g/m*3 -0.1 C 0 km/h
2186 03-01-2010 05:19:04 0.2 C 4.08 g/m*3 0.2 C 0 km/h
2187 03-01-2010 05:31:04 0.2 C 4.03 g/m*3 0.2 C 0 km/h
2188 03-01-2010 05:43:04 0.3 C 4.06 g/m*3 0.3 C 0 km/h
2189 03-01-2010 05:55:05 0.3 C 4.16 g/m*3 0.3 C 0 km/h
2190 03-01-2010 06:07:05 0.1 C 4.24 g/m*3 0.1 C 0 km/h
2191 03-01-2010 06:19:05 0 C 4.31 g/m*3 0 C 0 km/h
2192 03-01-2010 06:31:05 -0.1 C 4.33 g/m*3 -0.1 C 0 km/h
2193 03-01-2010 06:43:05 -0.1 C 4.38 g/m*3 -0.1 C 0 km/h
2194 03-01-2010 06:55:05 0 C 4.41 g/m*3 0 C 0 km/h
2195 03-01-2010 07:07:05 0.1 C 4.44 g/m*3 0.1 C 0 km/h
2196 03-01-2010 07:19:05 0.2 C 4.47 g/m*3 0.2 C 0 km/h
2197 03-01-2010 07:31:05 0.3 C 4.45 g/m*3 0.3 C 0 km/h
2198 03-01-2010 07:43:05 0.3 C 4.4 g/m*3 0.3 C 0 km/h
2199 03-01-2010 07:55:05 0.3 C 4.4 g/m*3 0.3 C 0 km/h
2200 03-01-2010 08:07:05 0.3 C 4.45 g/m*3 0.3 C 0 km/h
Sensor: Nr:Datum:Temp:Abs-Feuchte:Windchill:Wind:
Aussen-T/F 2201 03-01-2010 08:19:03 0.2 C 4.47 g/m*3 0.2 C 0 km/h
2202 03-01-2010 08:31:03 0.3 C 4.5 g/m*3 0.3 C 0 km/h
2203 03-01-2010 08:43:03 0.3 C 4.5 g/m*3 0.3 C 0 km/h
2204 03-01-2010 08:55:03 0.4 C 4.53 g/m*3 0.4 C 0 km/h
2205 03-01-2010 09:07:02 0.3 C 4.5 g/m*3 0.3 C 0 km/h
2206 03-01-2010 09:19:02 0.3 C 4.55 g/m*3 0.3 C 0 km/h
2207 03-01-2010 09:31:03 0.3 C 4.55 g/m*3 0.3 C 0 km/h
2208 03-01-2010 09:43:03 0.4 C 4.58 g/m*3 0.4 C 0 km/h
2209 03-01-2010 09:55:02 0.4 C 4.58 g/m*3 0.4 C 0 km/h
2210 03-01-2010 10:07:02 0.4 C 4.58 g/m*3 0.4 C 0 km/h
2211 03-01-2010 10:19:02 0.6 C 4.6 g/m*3 0.6 C 0 km/h
2212 03-01-2010 10:31:02 0.6 C 4.49 g/m*3 0.6 C 0 km/h
2213 03-01-2010 10:43:02 0.7 C 4.47 g/m*3 0.7 C 0 km/h
2214 03-01-2010 10:55:02 0.6 C 4.39 g/m*3 0.6 C 0 km/h
2215 03-01-2010 11:07:03 0.5 C 4.31 g/m*3 0.5 C 0 km/h
2216 03-01-2010 11:19:02 0.4 C 4.18 g/m*3 0.4 C 0 km/h
2217 03-01-2010 11:31:02 0 C 3.97 g/m*3 0 C 0 km/h
2218 03-01-2010 11:43:02 -0.1 C 3.99 g/m*3 -0.1 C 0 km/h
2219 03-01-2010 11:55:02 -0.5 C 3.84 g/m*3 -0.5 C 0 km/h
2220 03-01-2010 12:07:02 -0.8 C 3.76 g/m*3 -0.8 C 0 km/h
2221 03-01-2010 12:19:02 -0.9 C 3.73 g/m*3 -0.9 C 0 km/h
2222 03-01-2010 12:31:01 -1.6 C 3.55 g/m*3 -1.6 C 0 km/h
2223 03-01-2010 12:43:01 -1.6 C 3.55 g/m*3 -1.6 C 0 km/h
2224 03-01-2010 12:55:02 -1.7 C 3.49 g/m*3 -1.7 C 0 km/h
2225 03-01-2010 13:07:02 -2 C 3.41 g/m*3 -2 C 0 km/h
Sensor: Nr:Datum:Temp:Abs-Feuchte:Windchill:Wind:
Aussen-T/F 2226 03-01-2010 13:19:01 -2.2 C 3.41 g/m*3 -2.2 C 0 km/h
2227 03-01-2010 13:31:02 -2.2 C 3.41 g/m*3 -2.2 C 0 km/h
2228 03-01-2010 13:43:02 -2.2 C 3.37 g/m*3 -2.2 C 0 km/h
2229 03-01-2010 13:55:02 -2.1 C 3.39 g/m*3 -2.1 C 0 km/h
2230 03-01-2010 14:07:03 -2.2 C 3.33 g/m*3 -2.2 C 0 km/h
2231 03-01-2010 14:19:03 -2.3 C 3.26 g/m*3 -2.3 C 0 km/h
2232 03-01-2010 14:31:02 -2.4 C 3.2 g/m*3 -2.4 C 0 km/h
2233 03-01-2010 14:43:02 -2.5 C 3.17 g/m*3 -2.5 C 0 km/h
2234 03-01-2010 14:55:02 -2.5 C 3.09 g/m*3 -2.5 C 0 km/h
2235 03-01-2010 15:07:03 -2.4 C 3.11 g/m*3 -2.4 C 0 km/h
2236 03-01-2010 15:19:02 -2.7 C 2.97 g/m*3 -2.7 C 0 km/h
2237 03-01-2010 15:31:03 -2.9 C 2.89 g/m*3 -2.9 C 0 km/h
2238 03-01-2010 15:43:03 -2.8 C 2.91 g/m*3 -2.8 C 0 km/h
2239 03-01-2010 15:55:02 -3 C 2.87 g/m*3 -3 C 0 km/h
2240 03-01-2010 16:07:01 -3.3 C 2.77 g/m*3 -3.3 C 0 km/h
2241 03-01-2010 16:19:02 -3.7 C 2.69 g/m*3 -3.7 C 0 km/h
2242 03-01-2010 16:31:02 -3.9 C 2.69 g/m*3 -3.9 C 0 km/h
2243 03-01-2010 16:43:02 -4.1 C 2.65 g/m*3 -4.1 C 0 km/h
2244 03-01-2010 16:55:02 -4 C 2.67 g/m*3 -4 C 0 km/h
2245 03-01-2010 17:07:01 -4 C 2.71 g/m*3 -4 C 0 km/h
2246 03-01-2010 17:19:01 -4.5 C 2.61 g/m*3 -4.5 C 0 km/h
2247 03-01-2010 17:31:02 -4.6 C 2.63 g/m*3 -4.6 C 0 km/h
2248 03-01-2010 17:43:02 -4.8 C 2.59 g/m*3 -4.8 C 0 km/h
2249 03-01-2010 17:55:02 -4.8 C 2.63 g/m*3 -4.8 C 0 km/h
2250 03-01-2010 18:07:02 -4.6 C 2.7 g/m*3 -4.6 C 0 km/h
Sensor: Nr:Datum:Temp:Abs-Feuchte:Windchill:Wind:
Aussen-T/F 2251 03-01-2010 18:19:02 -4.5 C 2.72 g/m*3 -4.5 C 0 km/h
2252 03-01-2010 18:31:02 -4.5 C 2.68 g/m*3 -4.5 C 0 km/h
2253 03-01-2010 18:43:02 -4.5 C 2.68 g/m*3 -4.5 C 0 km/h
2254 03-01-2010 18:55:02 -4.5 C 2.68 g/m*3 -4.5 C 0 km/h
2255 03-01-2010 19:07:02 -4.5 C 2.68 g/m*3 -4.5 C 0 km/h
2256 03-01-2010 19:19:02 -4.4 C 2.74 g/m*3 -4.4 C 0 km/h
2257 03-01-2010 19:31:02 -4.4 C 2.74 g/m*3 -4.4 C 0 km/h
2258 03-01-2010 19:43:02 -4.4 C 2.77 g/m*3 -4.4 C 0 km/h
2259 03-01-2010 19:55:01 -4.4 C 2.77 g/m*3 -4.4 C 0 km/h
2260 03-01-2010 20:07:02 -4.3 C 2.79 g/m*3 -4.3 C 0 km/h
2261 03-01-2010 20:19:01 -4.3 C 2.79 g/m*3 -4.3 C 0 km/h
2262 03-01-2010 20:31:01 -4.3 C 2.79 g/m*3 -4.3 C 0 km/h
2263 03-01-2010 20:43:01 -4.3 C 2.79 g/m*3 -4.3 C 0 km/h
2264 03-01-2010 20:55:01 -4.3 C 2.79 g/m*3 -4.3 C 0 km/h
2265 03-01-2010 21:07:01 -4.2 C 2.85 g/m*3 -4.2 C 0 km/h
2266 03-01-2010 21:19:02 -4.2 C 2.81 g/m*3 -4.2 C 0 km/h
2267 03-01-2010 21:31:01 -4.3 C 2.76 g/m*3 -4.3 C 0 km/h
2268 03-01-2010 21:43:01 -4.3 C 2.76 g/m*3 -4.3 C 0 km/h
2269 03-01-2010 21:55:01 -4.3 C 2.76 g/m*3 -4.3 C 0 km/h
2270 03-01-2010 22:07:02 -4.4 C 2.74 g/m*3 -4.4 C 0 km/h
2271 03-01-2010 22:19:01 -4.4 C 2.74 g/m*3 -4.4 C 0 km/h
2272 03-01-2010 22:31:01 -4.5 C 2.72 g/m*3 -4.5 C 0 km/h
2273 03-01-2010 22:43:01 -4.5 C 2.75 g/m*3 -4.5 C 0 km/h
2274 03-01-2010 22:56:02 -4.4 C 2.77 g/m*3 -4.4 C 0 km/h
2275 03-01-2010 23:08:02 -4.5 C 2.75 g/m*3 -4.5 C 0 km/h
Sensor: Nr:Datum:Temp:Abs-Feuchte:Windchill:Wind:
Aussen-T/F 2276 03-01-2010 23:20:02 -4.5 C 2.75 g/m*3 -4.5 C 0 km/h
2277 03-01-2010 23:32:02 -4.5 C 2.75 g/m*3 -4.5 C 0 km/h
2278 03-01-2010 23:44:02 -4.6 C 2.73 g/m*3 -4.6 C 0 km/h
2279 03-01-2010 23:56:02 -4.6 C 2.73 g/m*3 -4.6 C 0 km/h
2280 04-01-2010 00:08:02 -4.5 C 2.75 g/m*3 -4.5 C 0 km/h
2281 04-01-2010 00:20:02 -4.5 C 2.75 g/m*3 -4.5 C 0 km/h
2282 04-01-2010 00:32:02 -4.3 C 2.83 g/m*3 -4.3 C 0 km/h
2283 04-01-2010 00:44:02 -4.4 C 2.81 g/m*3 -4.4 C 0 km/h
2284 04-01-2010 00:56:02 -4.2 C 2.85 g/m*3 -4.2 C 0 km/h
2285 04-01-2010 01:08:02 -4.4 C 2.77 g/m*3 -4.4 C 0 km/h
2286 04-01-2010 01:20:02 -4.3 C 2.79 g/m*3 -4.3 C 0 km/h
2287 04-01-2010 01:32:02 -4.3 C 2.79 g/m*3 -4.3 C 0 km/h
2288 04-01-2010 01:44:02 -4.4 C 2.77 g/m*3 -4.4 C 0 km/h
2289 04-01-2010 01:56:02 -4.4 C 2.74 g/m*3 -4.4 C 0 km/h
2290 04-01-2010 02:08:02 -4.3 C 2.76 g/m*3 -4.3 C 0 km/h
2291 04-01-2010 02:20:02 -4.3 C 2.72 g/m*3 -4.3 C 0 km/h
2292 04-01-2010 02:32:03 -4.3 C 2.72 g/m*3 -4.3 C 0 km/h
2293 04-01-2010 02:44:03 -4.3 C 2.72 g/m*3 -4.3 C 0 km/h
2294 04-01-2010 02:56:03 -4.3 C 2.65 g/m*3 -4.3 C 0 km/h
2295 04-01-2010 03:08:03 -4.3 C 2.61 g/m*3 -4.3 C 0 km/h
2296 04-01-2010 03:20:03 -4.3 C 2.58 g/m*3 -4.3 C 0 km/h
2297 04-01-2010 03:32:03 -4.3 C 2.54 g/m*3 -4.3 C 0 km/h
2298 04-01-2010 03:44:03 -4.4 C 2.52 g/m*3 -4.4 C 0 km/h
2299 04-01-2010 03:56:03 -4.4 C 2.52 g/m*3 -4.4 C 0 km/h
2300 04-01-2010 04:08:03 -4.3 C 2.58 g/m*3 -4.3 C 0 km/h
Sensor: Nr:Datum:Temp:Abs-Feuchte:Windchill:Wind:
Aussen-T/F 2301 04-01-2010 04:20:03 -4.3 C 2.58 g/m*3 -4.3 C 0 km/h
2302 04-01-2010 04:32:03 -4.3 C 2.58 g/m*3 -4.3 C 0 km/h
2303 04-01-2010 04:44:03 -4.3 C 2.58 g/m*3 -4.3 C 0 km/h
2304 04-01-2010 04:56:03 -4.3 C 2.58 g/m*3 -4.3 C 0 km/h
2305 04-01-2010 05:08:03 -4.2 C 2.63 g/m*3 -4.2 C 0 km/h
2306 04-01-2010 05:20:03 -4.2 C 2.63 g/m*3 -4.2 C 0 km/h
2307 04-01-2010 05:32:03 -4.2 C 2.63 g/m*3 -4.2 C 0 km/h
2308 04-01-2010 05:44:03 -4.4 C 2.56 g/m*3 -4.4 C 0 km/h
2309 04-01-2010 05:56:03 -4.4 C 2.56 g/m*3 -4.4 C 0 km/h
2310 04-01-2010 06:08:03 -4.4 C 2.63 g/m*3 -4.4 C 0 km/h
2311 04-01-2010 06:20:03 -4.4 C 2.67 g/m*3 -4.4 C 0 km/h
2312 04-01-2010 06:32:03 -4.4 C 2.67 g/m*3 -4.4 C 0 km/h
2313 04-01-2010 06:44:03 -4.3 C 2.72 g/m*3 -4.3 C 0 km/h
2314 04-01-2010 06:56:04 -4.3 C 2.72 g/m*3 -4.3 C 0 km/h
2315 04-01-2010 07:08:04 -4.3 C 2.72 g/m*3 -4.3 C 0 km/h
2316 04-01-2010 07:20:04 -4.4 C 2.67 g/m*3 -4.4 C 0 km/h
2317 04-01-2010 07:32:04 -4.4 C 2.63 g/m*3 -4.4 C 0 km/h
2318 04-01-2010 07:44:04 -4.4 C 2.6 g/m*3 -4.4 C 0 km/h
2319 04-01-2010 07:56:04 -4.4 C 2.6 g/m*3 -4.4 C 0 km/h
2320 04-01-2010 08:08:04 -4.4 C 2.6 g/m*3 -4.4 C 0 km/h
2321 04-01-2010 08:20:04 -4.4 C 2.56 g/m*3 -4.4 C 0 km/h
2322 04-01-2010 08:32:04 -4.4 C 2.56 g/m*3 -4.4 C 0 km/h
2323 04-01-2010 08:44:04 -4.4 C 2.56 g/m*3 -4.4 C 0 km/h
2324 04-01-2010 08:56:04 -4.4 C 2.56 g/m*3 -4.4 C 0 km/h
2325 04-01-2010 09:08:04 -4.3 C 2.58 g/m*3 -4.3 C 0 km/h
Sensor: Nr:Datum:Temp:Abs-Feuchte:Windchill:Wind:
Aussen-T/F 2326 04-01-2010 09:20:04 -4.3 C 2.58 g/m*3 -4.3 C 0 km/h
2327 04-01-2010 09:32:04 -4.3 C 2.58 g/m*3 -4.3 C 0 km/h
2328 04-01-2010 09:44:04 -4.2 C 2.56 g/m*3 -4.2 C 0 km/h
2329 04-01-2010 09:56:04 -4.1 C 2.54 g/m*3 -4.1 C 0 km/h
2330 04-01-2010 10:08:02 -4 C 2.56 g/m*3 -4 C 0 km/h
2331 04-01-2010 10:20:03 -4 C 2.56 g/m*3 -4 C 0 km/h
2332 04-01-2010 10:32:02 -3.7 C 2.62 g/m*3 -3.7 C 0 km/h
2333 04-01-2010 10:44:02 -3.6 C 2.56 g/m*3 -3.6 C 0 km/h
2334 04-01-2010 10:56:02 -3.4 C 2.63 g/m*3 -3.4 C 0 km/h
2335 04-01-2010 11:08:02 -3.1 C 2.65 g/m*3 -3.1 C 0 km/h
2336 04-01-2010 11:20:02 -3 C 2.63 g/m*3 -3 C 0 km/h
2337 04-01-2010 11:32:02 -3.1 C 2.54 g/m*3 -3.1 C 0 km/h
2338 04-01-2010 11:44:02 -3.1 C 2.46 g/m*3 -3.1 C 0 km/h
2339 04-01-2010 11:56:02 -3.1 C 2.46 g/m*3 -3.1 C 0 km/h
2340 04-01-2010 12:08:02 -3.2 C 2.4 g/m*3 -3.2 C 0 km/h
2341 04-01-2010 12:20:02 -3 C 2.4 g/m*3 -3 C 0 km/h
2342 04-01-2010 12:32:02 -3.5 C 2.24 g/m*3 -3.5 C 0 km/h
2343 04-01-2010 12:44:02 -3.7 C 2.21 g/m*3 -3.7 C 0 km/h
2344 04-01-2010 12:56:02 -3.9 C 2.25 g/m*3 -3.9 C 0 km/h
2345 04-01-2010 13:08:02 -4 C 2.27 g/m*3 -4 C 0 km/h
2346 04-01-2010 13:20:02 -4.1 C 2.29 g/m*3 -4.1 C 0 km/h
2347 04-01-2010 13:32:01 -4 C 2.34 g/m*3 -4 C 0 km/h
2348 04-01-2010 13:44:01 -3.8 C 2.41 g/m*3 -3.8 C 0 km/h
2349 04-01-2010 13:56:02 -3.6 C 2.41 g/m*3 -3.6 C 0 km/h
2350 04-01-2010 14:08:01 -3.4 C 2.41 g/m*3 -3.4 C 0 km/h
Sensor: Nr:Datum:Temp:Abs-Feuchte:Windchill:Wind:
Aussen-T/F 2351 04-01-2010 14:20:01 -3.2 C 2.4 g/m*3 -3.2 C 0 km/h
2352 04-01-2010 14:32:02 -3.2 C 2.28 g/m*3 -3.2 C 0 km/h
2353 04-01-2010 14:44:02 -3.4 C 2.21 g/m*3 -3.4 C 0 km/h
2354 04-01-2010 14:56:02 -3.7 C 2.21 g/m*3 -3.7 C 0 km/h
2355 04-01-2010 15:08:01 -4 C 2.23 g/m*3 -4 C 0 km/h
2356 04-01-2010 15:20:02 -4.2 C 2.24 g/m*3 -4.2 C 0 km/h
2357 04-01-2010 15:32:02 -4.2 C 2.24 g/m*3 -4.2 C 0 km/h
2358 04-01-2010 15:44:02 -4.3 C 2.18 g/m*3 -4.3 C 0 km/h
2359 04-01-2010 15:56:01 -4.6 C 2.17 g/m*3 -4.6 C 0 km/h
2360 04-01-2010 16:08:02 -4.9 C 2.19 g/m*3 -4.9 C 0 km/h
2361 04-01-2010 16:20:01 -5.2 C 2.18 g/m*3 -5.2 C 0 km/h
2362 04-01-2010 16:32:01 -5.5 C 2.17 g/m*3 -5.5 C 0 km/h
2363 04-01-2010 16:44:01 -5.7 C 2.2 g/m*3 -5.7 C 0 km/h
2364 04-01-2010 16:56:01 -5.9 C 2.17 g/m*3 -5.9 C 0 km/h
2365 04-01-2010 17:08:02 -6.2 C 2.15 g/m*3 -6.2 C 0 km/h
2366 04-01-2010 17:20:01 -6.3 C 2.17 g/m*3 -6.3 C 0 km/h
2367 04-01-2010 17:32:01 -6.4 C 2.18 g/m*3 -6.4 C 0 km/h
2368 04-01-2010 17:44:01 -6.5 C 2.2 g/m*3 -6.5 C 0 km/h
2369 04-01-2010 17:56:01 -6.5 C 2.2 g/m*3 -6.5 C 0 km/h
2370 04-01-2010 18:08:02 -6.7 C 2.2 g/m*3 -6.7 C 0 km/h
2371 04-01-2010 18:20:01 -6.8 C 2.21 g/m*3 -6.8 C 0 km/h
2372 04-01-2010 18:32:02 -6.9 C 2.19 g/m*3 -6.9 C 0 km/h
2373 04-01-2010 18:44:02 -7 C 2.18 g/m*3 -7 C 0 km/h
2374 04-01-2010 18:56:01 -7.1 C 2.19 g/m*3 -7.1 C 0 km/h
2375 04-01-2010 19:08:02 -7.2 C 2.18 g/m*3 -7.2 C 0 km/h
Sensor: Nr:Datum:Temp:Abs-Feuchte:Windchill:Wind:
Aussen-T/F 2376 04-01-2010 19:20:02 -7.3 C 2.19 g/m*3 -7.3 C 0 km/h
2377 04-01-2010 19:32:01 -7.3 C 2.22 g/m*3 -7.3 C 0 km/h
2378 04-01-2010 19:44:01 -7.6 C 2.14 g/m*3 -7.6 C 0 km/h
2379 04-01-2010 19:56:02 -7.7 C 2.15 g/m*3 -7.7 C 0 km/h
2380 04-01-2010 20:08:02 -7.7 C 2.18 g/m*3 -7.7 C 0 km/h
2381 04-01-2010 20:20:02 -7.8 C 2.16 g/m*3 -7.8 C 0 km/h
2382 04-01-2010 20:32:02 -7.9 C 2.15 g/m*3 -7.9 C 0 km/h
2383 04-01-2010 20:44:02 -7.9 C 2.18 g/m*3 -7.9 C 0 km/h
2384 04-01-2010 20:56:02 -8.1 C 2.14 g/m*3 -8.1 C 0 km/h
2385 04-01-2010 21:08:02 -8.4 C 2.1 g/m*3 -8.4 C 0 km/h
2386 04-01-2010 21:20:02 -8.5 C 2.08 g/m*3 -8.5 C 0 km/h
2387 04-01-2010 21:32:02 -8.5 C 2.08 g/m*3 -8.5 C 0 km/h
2388 04-01-2010 21:44:02 -8.6 C 2.09 g/m*3 -8.6 C 0 km/h
2389 04-01-2010 21:56:02 -8.7 C 2.08 g/m*3 -8.7 C 0 km/h
2390 04-01-2010 22:08:02 -8.7 C 2.08 g/m*3 -8.7 C 0 km/h
2391 04-01-2010 22:20:02 -8.7 C 2.1 g/m*3 -8.7 C 0 km/h
2392 04-01-2010 22:33:03 -8.8 C 2.09 g/m*3 -8.8 C 0 km/h
2393 04-01-2010 22:45:03 -9 C 2.06 g/m*3 -9 C 0 km/h
2394 04-01-2010 22:57:03 -9 C 2.06 g/m*3 -9 C 0 km/h
2395 04-01-2010 23:09:03 -9 C 2.06 g/m*3 -9 C 0 km/h
2396 04-01-2010 23:21:04 -9.2 C 2.03 g/m*3 -9.2 C 0 km/h
2397 04-01-2010 23:33:04 -9.2 C 2.03 g/m*3 -9.2 C 0 km/h
2398 04-01-2010 23:45:04 -9.3 C 2.01 g/m*3 -9.3 C 0 km/h
2399 04-01-2010 23:57:04 -9.4 C 2 g/m*3 -9.4 C 0 km/h
2400 05-01-2010 00:09:04 -9.6 C 1.97 g/m*3 -9.6 C 0 km/h
Sensor: Nr:Datum:Temp:Abs-Feuchte:Windchill:Wind:
Aussen-T/F 2401 05-01-2010 00:21:04 -9.5 C 1.98 g/m*3 -9.5 C 0 km/h
2402 05-01-2010 00:33:04 -9.5 C 1.98 g/m*3 -9.5 C 0 km/h
2403 05-01-2010 00:45:04 -9.5 C 2.01 g/m*3 -9.5 C 0 km/h
2404 05-01-2010 00:57:04 -9.7 C 1.98 g/m*3 -9.7 C 0 km/h
2405 05-01-2010 01:09:04 -9.7 C 1.98 g/m*3 -9.7 C 0 km/h
2406 05-01-2010 01:21:04 -9.8 C 1.96 g/m*3 -9.8 C 0 km/h
2407 05-01-2010 01:33:04 -9.8 C 1.96 g/m*3 -9.8 C 0 km/h
2408 05-01-2010 01:45:04 -9.8 C 1.96 g/m*3 -9.8 C 0 km/h
2409 05-01-2010 01:57:04 -9.9 C 1.95 g/m*3 -9.9 C 0 km/h
2410 05-01-2010 02:09:04 -10 C 1.93 g/m*3 -10 C 0 km/h
2411 05-01-2010 02:21:05 -10 C 1.93 g/m*3 -10 C 0 km/h
2412 05-01-2010 02:33:05 -10.1 C 1.92 g/m*3 -10.1 C 0 km/h
2413 05-01-2010 02:45:05 -10.2 C 1.9 g/m*3 -10.2 C 0 km/h
2414 05-01-2010 02:57:05 -10.2 C 1.9 g/m*3 -10.2 C 0 km/h
2415 05-01-2010 03:09:05 -10.1 C 1.92 g/m*3 -10.1 C 0 km/h
2416 05-01-2010 03:21:05 -10.2 C 1.9 g/m*3 -10.2 C 0 km/h
2417 05-01-2010 03:33:05 -10.3 C 1.89 g/m*3 -10.3 C 0 km/h
2418 05-01-2010 03:45:05 -10.2 C 1.9 g/m*3 -10.2 C 0 km/h
2419 05-01-2010 03:57:05 -10.2 C 1.9 g/m*3 -10.2 C 0 km/h
2420 05-01-2010 04:09:05 -10.2 C 1.9 g/m*3 -10.2 C 0 km/h
2421 05-01-2010 04:21:05 -10.3 C 1.89 g/m*3 -10.3 C 0 km/h
2422 05-01-2010 04:33:05 -10.2 C 1.9 g/m*3 -10.2 C 0 km/h
2423 05-01-2010 04:45:05 -10.1 C 1.92 g/m*3 -10.1 C 0 km/h
2424 05-01-2010 04:57:05 -9.6 C 2.01 g/m*3 -9.6 C 0 km/h
2425 05-01-2010 05:09:05 -9.1 C 2.12 g/m*3 -9.1 C 0 km/h
Sensor: Nr:Datum:Temp:Abs-Feuchte:Windchill:Wind:
Aussen-T/F 2426 05-01-2010 05:21:05 -8.7 C 2.18 g/m*3 -8.7 C 0 km/h
2427 05-01-2010 05:33:05 -8.5 C 2.21 g/m*3 -8.5 C 0 km/h
2428 05-01-2010 05:45:05 -8.4 C 2.2 g/m*3 -8.4 C 0 km/h
2429 05-01-2010 05:57:05 -8.2 C 2.24 g/m*3 -8.2 C 0 km/h
2430 05-01-2010 06:09:05 -8 C 2.27 g/m*3 -8 C 0 km/h
2431 05-01-2010 06:21:05 -7.9 C 2.29 g/m*3 -7.9 C 0 km/h
2432 05-01-2010 06:33:06 -7.9 C 2.26 g/m*3 -7.9 C 0 km/h
2433 05-01-2010 06:45:06 -8.2 C 2.18 g/m*3 -8.2 C 0 km/h
2434 05-01-2010 06:57:06 -8.6 C 2.12 g/m*3 -8.6 C 0 km/h
2435 05-01-2010 07:09:06 -8.8 C 2.06 g/m*3 -8.8 C 0 km/h
2436 05-01-2010 07:21:06 -8.9 C 2.05 g/m*3 -8.9 C 0 km/h
2437 05-01-2010 07:33:06 -8.9 C 2.07 g/m*3 -8.9 C 0 km/h
2438 05-01-2010 07:45:06 -8.9 C 2.07 g/m*3 -8.9 C 0 km/h
2439 05-01-2010 07:57:06 -8.9 C 2.07 g/m*3 -8.9 C 0 km/h
2440 05-01-2010 08:09:06 -8.9 C 2.07 g/m*3 -8.9 C 0 km/h
2441 05-01-2010 08:21:06 -9 C 2.06 g/m*3 -9 C 0 km/h
2442 05-01-2010 08:33:03 -9 C 2.06 g/m*3 -9 C 0 km/h
2443 05-01-2010 08:45:02 -9 C 2.06 g/m*3 -9 C 0 km/h
2444 05-01-2010 08:57:02 -9 C 2.06 g/m*3 -9 C 0 km/h
2445 05-01-2010 09:09:02 -9 C 2.06 g/m*3 -9 C 0 km/h
2446 05-01-2010 09:21:02 -9 C 2.06 g/m*3 -9 C 0 km/h
2447 05-01-2010 09:33:02 -9 C 2.06 g/m*3 -9 C 0 km/h
2448 05-01-2010 09:45:01 -8.9 C 2.07 g/m*3 -8.9 C 0 km/h
2449 05-01-2010 09:57:01 -8.9 C 2.07 g/m*3 -8.9 C 0 km/h
2450 05-01-2010 10:09:02 -8.6 C 2.14 g/m*3 -8.6 C 0 km/h
Sensor: Nr:Datum:Temp:Abs-Feuchte:Windchill:Wind:
Aussen-T/F 2451 05-01-2010 10:21:01 -8.4 C 2.18 g/m*3 -8.4 C 0 km/h
2452 05-01-2010 10:33:01 -8.4 C 2.15 g/m*3 -8.4 C 0 km/h
2453 05-01-2010 10:45:01 -8.3 C 2.17 g/m*3 -8.3 C 0 km/h
2454 05-01-2010 10:57:01 -8.3 C 2.17 g/m*3 -8.3 C 0 km/h
2455 05-01-2010 11:09:01 -8.2 C 2.18 g/m*3 -8.2 C 0 km/h
2456 05-01-2010 11:21:02 -8 C 2.22 g/m*3 -8 C 0 km/h
2457 05-01-2010 11:33:01 -7.9 C 2.23 g/m*3 -7.9 C 0 km/h
2458 05-01-2010 11:45:01 -7.8 C 2.25 g/m*3 -7.8 C 0 km/h
2459 05-01-2010 11:57:01 -7.7 C 2.26 g/m*3 -7.7 C 0 km/h
2460 05-01-2010 12:09:01 -7.5 C 2.3 g/m*3 -7.5 C 0 km/h
2461 05-01-2010 12:21:02 -7.3 C 2.33 g/m*3 -7.3 C 0 km/h
2462 05-01-2010 12:33:01 -7.2 C 2.35 g/m*3 -7.2 C 0 km/h
2463 05-01-2010 12:45:03 -7.1 C 2.37 g/m*3 -7.1 C 0 km/h
2464 05-01-2010 12:57:03 -6.8 C 2.42 g/m*3 -6.8 C 0 km/h
2465 05-01-2010 13:09:02 -6.6 C 2.46 g/m*3 -6.6 C 0 km/h
2466 05-01-2010 13:21:02 -6.6 C 2.43 g/m*3 -6.6 C 0 km/h
2467 05-01-2010 13:33:02 -6.5 C 2.44 g/m*3 -6.5 C 0 km/h
2468 05-01-2010 13:45:02 -6.4 C 2.46 g/m*3 -6.4 C 0 km/h
2469 05-01-2010 13:57:02 -6.4 C 2.46 g/m*3 -6.4 C 0 km/h
2470 05-01-2010 14:09:02 -6.1 C 2.52 g/m*3 -6.1 C 0 km/h
2471 05-01-2010 14:21:02 -6 C 2.53 g/m*3 -6 C 0 km/h
2472 05-01-2010 14:33:01 -5.9 C 2.52 g/m*3 -5.9 C 0 km/h
2473 05-01-2010 14:45:02 -5.7 C 2.56 g/m*3 -5.7 C 0 km/h
2474 05-01-2010 14:57:02 -5.7 C 2.52 g/m*3 -5.7 C 0 km/h
2475 05-01-2010 15:09:01 -5.6 C 2.54 g/m*3 -5.6 C 0 km/h
Sensor: Nr:Datum:Temp:Abs-Feuchte:Windchill:Wind:
Aussen-T/F 2476 05-01-2010 15:21:02 -5.6 C 2.54 g/m*3 -5.6 C 0 km/h
2477 05-01-2010 15:33:01 -5.6 C 2.51 g/m*3 -5.6 C 0 km/h
2478 05-01-2010 15:45:02 -5.6 C 2.51 g/m*3 -5.6 C 0 km/h
2479 05-01-2010 15:57:02 -5.6 C 2.54 g/m*3 -5.6 C 0 km/h
2480 05-01-2010 16:09:02 -5.7 C 2.52 g/m*3 -5.7 C 0 km/h
2481 05-01-2010 16:21:02 -5.7 C 2.52 g/m*3 -5.7 C 0 km/h
2482 05-01-2010 16:33:03 -5.8 C 2.54 g/m*3 -5.8 C 0 km/h
2483 05-01-2010 16:45:04 -6 C 2.5 g/m*3 -6 C 0 km/h
2484 05-01-2010 16:57:04 -6.2 C 2.47 g/m*3 -6.2 C 0 km/h
2485 05-01-2010 17:09:02 -6.3 C 2.45 g/m*3 -6.3 C 0 km/h
2486 05-01-2010 17:21:02 -6.5 C 2.44 g/m*3 -6.5 C 0 km/h
2487 05-01-2010 17:33:01 -6.6 C 2.43 g/m*3 -6.6 C 0 km/h
2488 05-01-2010 17:45:03 -6.8 C 2.39 g/m*3 -6.8 C 0 km/h
2489 05-01-2010 17:57:03 -6.9 C 2.37 g/m*3 -6.9 C 0 km/h
2490 05-01-2010 18:09:03 -7 C 2.38 g/m*3 -7 C 0 km/h
2491 05-01-2010 18:21:02 -7.1 C 2.37 g/m*3 -7.1 C 0 km/h
2492 05-01-2010 18:33:03 -7.3 C 2.33 g/m*3 -7.3 C 0 km/h
2493 05-01-2010 18:45:02 -7.3 C 2.33 g/m*3 -7.3 C 0 km/h
2494 05-01-2010 18:57:03 -7.4 C 2.34 g/m*3 -7.4 C 0 km/h
2495 05-01-2010 19:09:01 -7.3 C 2.36 g/m*3 -7.3 C 0 km/h
2496 05-01-2010 19:21:02 -7.2 C 2.38 g/m*3 -7.2 C 0 km/h
2497 05-01-2010 19:33:02 -7.2 C 2.38 g/m*3 -7.2 C 0 km/h
2498 05-01-2010 19:45:02 -7.3 C 2.36 g/m*3 -7.3 C 0 km/h
2499 05-01-2010 19:57:02 -7.4 C 2.34 g/m*3 -7.4 C 0 km/h
2500 05-01-2010 20:09:02 -7.5 C 2.33 g/m*3 -7.5 C 0 km/h
Sensor: Nr:Datum:Temp:Abs-Feuchte:Windchill:Wind:
Aussen-T/F 2501 05-01-2010 20:21:04 -7.4 C 2.37 g/m*3 -7.4 C 0 km/h
2502 05-01-2010 20:33:02 -7.4 C 2.37 g/m*3 -7.4 C 0 km/h
2503 05-01-2010 20:45:02 -7 C 2.44 g/m*3 -7 C 0 km/h
2504 05-01-2010 20:57:03 -6.9 C 2.46 g/m*3 -6.9 C 0 km/h
2505 05-01-2010 21:09:01 -6.9 C 2.46 g/m*3 -6.9 C 0 km/h
2506 05-01-2010 21:21:02 -6.9 C 2.46 g/m*3 -6.9 C 0 km/h
2507 05-01-2010 21:33:02 -7.1 C 2.43 g/m*3 -7.1 C 0 km/h
2508 05-01-2010 21:45:01 -7.3 C 2.39 g/m*3 -7.3 C 0 km/h
2509 05-01-2010 21:57:02 -7.3 C 2.39 g/m*3 -7.3 C 0 km/h
2510 05-01-2010 22:09:02 -7.5 C 2.33 g/m*3 -7.5 C 0 km/h
2511 05-01-2010 22:21:02 -7.7 C 2.29 g/m*3 -7.7 C 0 km/h
2512 05-01-2010 22:33:01 -7.8 C 2.28 g/m*3 -7.8 C 0 km/h
2513 05-01-2010 22:45:02 -7.9 C 2.26 g/m*3 -7.9 C 0 km/h
2514 05-01-2010 22:57:02 -7.9 C 2.26 g/m*3 -7.9 C 0 km/h
2515 05-01-2010 23:09:02 -8 C 2.27 g/m*3 -8 C 0 km/h
2516 05-01-2010 23:21:02 -8.2 C 2.21 g/m*3 -8.2 C 0 km/h
2517 05-01-2010 23:34:04 -8.2 C 2.24 g/m*3 -8.2 C 0 km/h
2518 05-01-2010 23:46:04 -8.2 C 2.24 g/m*3 -8.2 C 0 km/h
2519 05-01-2010 23:58:04 -8.3 C 2.22 g/m*3 -8.3 C 0 km/h
2520 06-01-2010 00:10:04 -8.4 C 2.2 g/m*3 -8.4 C 0 km/h
2521 06-01-2010 00:22:04 -8.5 C 2.16 g/m*3 -8.5 C 0 km/h
2522 06-01-2010 00:34:04 -8.6 C 2.17 g/m*3 -8.6 C 0 km/h
2523 06-01-2010 00:46:04 -8.6 C 2.17 g/m*3 -8.6 C 0 km/h
2524 06-01-2010 00:58:04 -8.7 C 2.15 g/m*3 -8.7 C 0 km/h
2525 06-01-2010 01:10:04 -8.9 C 2.12 g/m*3 -8.9 C 0 km/h
Sensor: Nr:Datum:Temp:Abs-Feuchte:Windchill:Wind:
Aussen-T/F 2526 06-01-2010 01:22:04 -8.9 C 2.12 g/m*3 -8.9 C 0 km/h
2527 06-01-2010 01:34:05 -9 C 2.11 g/m*3 -9 C 0 km/h
2528 06-01-2010 01:46:05 -9.1 C 2.09 g/m*3 -9.1 C 0 km/h
2529 06-01-2010 01:58:05 -9.2 C 2.08 g/m*3 -9.2 C 0 km/h
2530 06-01-2010 02:10:05 -9.2 C 2.08 g/m*3 -9.2 C 0 km/h
2531 06-01-2010 02:22:05 -9.3 C 2.06 g/m*3 -9.3 C 0 km/h
2532 06-01-2010 02:34:05 -9.4 C 2.05 g/m*3 -9.4 C 0 km/h
2533 06-01-2010 02:46:05 -9.4 C 2.05 g/m*3 -9.4 C 0 km/h
2534 06-01-2010 02:58:05 -9.4 C 2.05 g/m*3 -9.4 C 0 km/h
2535 06-01-2010 03:10:05 -9.4 C 2.05 g/m*3 -9.4 C 0 km/h
2536 06-01-2010 03:22:05 -9.4 C 2.05 g/m*3 -9.4 C 0 km/h
2537 06-01-2010 03:34:05 -9.5 C 2.03 g/m*3 -9.5 C 0 km/h
2538 06-01-2010 03:46:05 -9.6 C 1.99 g/m*3 -9.6 C 0 km/h
2539 06-01-2010 03:58:05 -9.6 C 1.99 g/m*3 -9.6 C 0 km/h
2540 06-01-2010 04:10:05 -9.7 C 1.98 g/m*3 -9.7 C 0 km/h
2541 06-01-2010 04:22:05 -9.8 C 1.96 g/m*3 -9.8 C 0 km/h
2542 06-01-2010 04:34:05 -9.7 C 1.98 g/m*3 -9.7 C 0 km/h
2543 06-01-2010 04:46:05 -9.8 C 1.96 g/m*3 -9.8 C 0 km/h
2544 06-01-2010 04:58:05 -9.8 C 1.96 g/m*3 -9.8 C 0 km/h
2545 06-01-2010 05:10:05 -9.8 C 1.96 g/m*3 -9.8 C 0 km/h
2546 06-01-2010 05:22:05 -9.8 C 1.96 g/m*3 -9.8 C 0 km/h
2547 06-01-2010 05:34:05 -9.9 C 1.95 g/m*3 -9.9 C 0 km/h
2548 06-01-2010 05:46:06 -10 C 1.93 g/m*3 -10 C 0 km/h
2549 06-01-2010 05:58:06 -10 C 1.93 g/m*3 -10 C 0 km/h
2550 06-01-2010 06:10:06 -10 C 1.93 g/m*3 -10 C 0 km/h
Sensor: Nr:Datum:Temp:Abs-Feuchte:Windchill:Wind:
Aussen-T/F 2551 06-01-2010 06:22:06 -10 C 1.93 g/m*3 -10 C 0 km/h
2552 06-01-2010 06:34:06 -10 C 1.93 g/m*3 -10 C 0 km/h
2553 06-01-2010 06:46:06 -10.2 C 1.9 g/m*3 -10.2 C 0 km/h
2554 06-01-2010 06:58:06 -10.2 C 1.88 g/m*3 -10.2 C 0 km/h
2555 06-01-2010 07:10:06 -10.3 C 1.87 g/m*3 -10.3 C 0 km/h
2556 06-01-2010 07:22:06 -10.3 C 1.87 g/m*3 -10.3 C 0 km/h
2557 06-01-2010 07:34:06 -10.4 C 1.85 g/m*3 -10.4 C 0 km/h
2558 06-01-2010 07:46:06 -10.4 C 1.85 g/m*3 -10.4 C 0 km/h
2559 06-01-2010 07:58:06 -10.1 C 1.89 g/m*3 -10.1 C 0 km/h
2560 06-01-2010 08:10:04 -9.7 C 1.98 g/m*3 -9.7 C 0 km/h
2561 06-01-2010 08:22:04 -9.5 C 1.98 g/m*3 -9.5 C 0 km/h
2562 06-01-2010 08:34:04 -9.4 C 2 g/m*3 -9.4 C 0 km/h
2563 06-01-2010 08:46:02 -9.3 C 1.99 g/m*3 -9.3 C 0 km/h
2564 06-01-2010 08:58:02 -9.3 C 1.96 g/m*3 -9.3 C 0 km/h
2565 06-01-2010 09:10:02 -9.2 C 1.98 g/m*3 -9.2 C 0 km/h
2566 06-01-2010 09:22:01 -9.1 C 1.97 g/m*3 -9.1 C 0 km/h
2567 06-01-2010 09:34:02 -8.9 C 2 g/m*3 -8.9 C 0 km/h
2568 06-01-2010 09:46:03 -8.7 C 2.03 g/m*3 -8.7 C 0 km/h
2569 06-01-2010 09:58:03 -8.6 C 2.01 g/m*3 -8.6 C 0 km/h
2570 06-01-2010 10:10:02 -8.3 C 2.06 g/m*3 -8.3 C 0 km/h
2571 06-01-2010 10:22:02 -8.2 C 2.05 g/m*3 -8.2 C 0 km/h
2572 06-01-2010 10:34:02 -8 C 2.08 g/m*3 -8 C 0 km/h
2573 06-01-2010 10:46:02 -7.6 C 2.11 g/m*3 -7.6 C 0 km/h
2574 06-01-2010 10:58:02 -7.3 C 2.13 g/m*3 -7.3 C 0 km/h
2575 06-01-2010 11:10:02 -7.1 C 2.13 g/m*3 -7.1 C 0 km/h
Sensor: Nr:Datum:Temp:Abs-Feuchte:Windchill:Wind:
Aussen-T/F 2576 06-01-2010 11:22:02 -6.8 C 2.18 g/m*3 -6.8 C 0 km/h
2577 06-01-2010 11:34:01 -6.8 C 2.18 g/m*3 -6.8 C 0 km/h
2578 06-01-2010 11:46:02 -6.6 C 2.21 g/m*3 -6.6 C 0 km/h
2579 06-01-2010 11:58:02 -6.5 C 2.23 g/m*3 -6.5 C 0 km/h
2580 06-01-2010 12:10:01 -6.3 C 2.26 g/m*3 -6.3 C 0 km/h
2581 06-01-2010 12:22:02 -6.4 C 2.21 g/m*3 -6.4 C 0 km/h
2582 06-01-2010 12:34:01 -6.3 C 2.26 g/m*3 -6.3 C 0 km/h
2583 06-01-2010 12:46:02 -6 C 2.31 g/m*3 -6 C 0 km/h
2584 06-01-2010 12:58:02 -5.8 C 2.35 g/m*3 -5.8 C 0 km/h
2585 06-01-2010 13:10:02 -5.6 C 2.35 g/m*3 -5.6 C 0 km/h
2586 06-01-2010 13:22:02 -5.4 C 2.38 g/m*3 -5.4 C 0 km/h
2587 06-01-2010 13:34:02 -5.3 C 2.4 g/m*3 -5.3 C 0 km/h
2588 06-01-2010 13:46:02 -4.9 C 2.43 g/m*3 -4.9 C 0 km/h
2589 06-01-2010 13:58:02 -4.8 C 2.45 g/m*3 -4.8 C 0 km/h
2590 06-01-2010 14:10:01 -4.5 C 2.54 g/m*3 -4.5 C 0 km/h
2591 06-01-2010 14:22:02 -4.5 C 2.51 g/m*3 -4.5 C 0 km/h
2592 06-01-2010 14:34:01 -4.4 C 2.49 g/m*3 -4.4 C 0 km/h
2593 06-01-2010 14:46:01 -4.2 C 2.52 g/m*3 -4.2 C 0 km/h
2594 06-01-2010 14:58:01 -4.1 C 2.51 g/m*3 -4.1 C 0 km/h
2595 06-01-2010 15:10:02 -3.9 C 2.54 g/m*3 -3.9 C 0 km/h
2596 06-01-2010 15:22:01 -4 C 2.52 g/m*3 -4 C 0 km/h
2597 06-01-2010 15:34:01 -4 C 2.52 g/m*3 -4 C 0 km/h
2598 06-01-2010 15:46:01 -4 C 2.56 g/m*3 -4 C 0 km/h
2599 06-01-2010 15:58:01 -4 C 2.6 g/m*3 -4 C 0 km/h
2600 06-01-2010 16:10:02 -4 C 2.6 g/m*3 -4 C 0 km/h
Sensor: Nr:Datum:Temp:Abs-Feuchte:Windchill:Wind:
Aussen-T/F 2601 06-01-2010 16:22:01 -4.1 C 2.58 g/m*3 -4.1 C 0 km/h
2602 06-01-2010 16:34:02 -4.1 C 2.62 g/m*3 -4.1 C 0 km/h
2603 06-01-2010 16:46:01 -4.2 C 2.6 g/m*3 -4.2 C 0 km/h
2604 06-01-2010 16:58:01 -4.2 C 2.63 g/m*3 -4.2 C 0 km/h
2605 06-01-2010 17:10:02 -4.2 C 2.63 g/m*3 -4.2 C 0 km/h
2606 06-01-2010 17:22:01 -4.3 C 2.61 g/m*3 -4.3 C 0 km/h
2607 06-01-2010 17:34:02 -4.3 C 2.65 g/m*3 -4.3 C 0 km/h
2608 06-01-2010 17:46:01 -4.3 C 2.65 g/m*3 -4.3 C 0 km/h
2609 06-01-2010 17:58:01 -4.3 C 2.69 g/m*3 -4.3 C 0 km/h
2610 06-01-2010 18:10:02 -4.3 C 2.69 g/m*3 -4.3 C 0 km/h
2611 06-01-2010 18:22:01 -4.3 C 2.69 g/m*3 -4.3 C 0 km/h
2612 06-01-2010 18:34:02 -4.4 C 2.67 g/m*3 -4.4 C 0 km/h
2613 06-01-2010 18:46:01 -4.4 C 2.67 g/m*3 -4.4 C 0 km/h
2614 06-01-2010 18:58:01 -4.4 C 2.67 g/m*3 -4.4 C 0 km/h
2615 06-01-2010 19:10:02 -4.4 C 2.67 g/m*3 -4.4 C 0 km/h
2616 06-01-2010 19:22:01 -4.4 C 2.7 g/m*3 -4.4 C 0 km/h
2617 06-01-2010 19:34:02 -4.4 C 2.7 g/m*3 -4.4 C 0 km/h
2618 06-01-2010 19:46:01 -4.4 C 2.7 g/m*3 -4.4 C 0 km/h
2619 06-01-2010 19:58:01 -4.5 C 2.68 g/m*3 -4.5 C 0 km/h
2620 06-01-2010 20:10:02 -4.4 C 2.74 g/m*3 -4.4 C 0 km/h
2621 06-01-2010 20:22:02 -4.4 C 2.7 g/m*3 -4.4 C 0 km/h
2622 06-01-2010 20:34:01 -4.2 C 2.67 g/m*3 -4.2 C 0 km/h
2623 06-01-2010 20:46:01 -4.2 C 2.63 g/m*3 -4.2 C 0 km/h
2624 06-01-2010 20:58:01 -4.2 C 2.6 g/m*3 -4.2 C 0 km/h
2625 06-01-2010 21:10:01 -4.2 C 2.52 g/m*3 -4.2 C 0 km/h
Sensor: Nr:Datum:Temp:Abs-Feuchte:Windchill:Wind:
Aussen-T/F 2626 06-01-2010 21:22:02 -4.3 C 2.47 g/m*3 -4.3 C 0 km/h
2627 06-01-2010 21:34:01 -4.5 C 2.36 g/m*3 -4.5 C 0 km/h
2628 06-01-2010 21:46:03 -4.7 C 2.3 g/m*3 -4.7 C 0 km/h
2629 06-01-2010 21:58:03 -4.8 C 2.28 g/m*3 -4.8 C 0 km/h
2630 06-01-2010 22:10:02 -4.8 C 2.25 g/m*3 -4.8 C 0 km/h
2631 06-01-2010 22:22:02 -4.9 C 2.23 g/m*3 -4.9 C 0 km/h
2632 06-01-2010 22:35:04 -5 C 2.21 g/m*3 -5 C 0 km/h
2633 06-01-2010 22:47:04 -5 C 2.21 g/m*3 -5 C 0 km/h
2634 06-01-2010 22:59:04 -5.2 C 2.22 g/m*3 -5.2 C 0 km/h
2635 06-01-2010 23:11:04 -5.3 C 2.23 g/m*3 -5.3 C 0 km/h
2636 06-01-2010 23:23:04 -5.3 C 2.27 g/m*3 -5.3 C 0 km/h
2637 06-01-2010 23:35:04 -5.3 C 2.3 g/m*3 -5.3 C 0 km/h
2638 06-01-2010 23:47:04 -5.3 C 2.3 g/m*3 -5.3 C 0 km/h
2639 06-01-2010 23:59:04 -5.2 C 2.35 g/m*3 -5.2 C 0 km/h
2640 07-01-2010 00:11:04 -5.2 C 2.35 g/m*3 -5.2 C 0 km/h
2641 07-01-2010 00:23:04 -5.3 C 2.37 g/m*3 -5.3 C 0 km/h
2642 07-01-2010 00:35:04 -5.3 C 2.37 g/m*3 -5.3 C 0 km/h
2643 07-01-2010 00:47:04 -5.3 C 2.37 g/m*3 -5.3 C 0 km/h
2644 07-01-2010 00:59:04 -5.2 C 2.38 g/m*3 -5.2 C 0 km/h
2645 07-01-2010 01:11:04 -5.1 C 2.4 g/m*3 -5.1 C 0 km/h
2646 07-01-2010 01:23:04 -5.2 C 2.42 g/m*3 -5.2 C 0 km/h
2647 07-01-2010 01:35:04 -5.2 C 2.38 g/m*3 -5.2 C 0 km/h
2648 07-01-2010 01:47:04 -5.1 C 2.4 g/m*3 -5.1 C 0 km/h
2649 07-01-2010 01:59:05 -5.4 C 2.32 g/m*3 -5.4 C 0 km/h
2650 07-01-2010 02:11:05 -5.9 C 2.23 g/m*3 -5.9 C 0 km/h
Sensor: Nr:Datum:Temp:Abs-Feuchte:Windchill:Wind:
Aussen-T/F 2651 07-01-2010 02:23:05 -5.8 C 2.31 g/m*3 -5.8 C 0 km/h
2652 07-01-2010 02:35:05 -5.7 C 2.33 g/m*3 -5.7 C 0 km/h
2653 07-01-2010 02:47:05 -5.7 C 2.36 g/m*3 -5.7 C 0 km/h
2654 07-01-2010 02:59:05 -5.9 C 2.3 g/m*3 -5.9 C 0 km/h
2655 07-01-2010 03:11:05 -6.1 C 2.3 g/m*3 -6.1 C 0 km/h
2656 07-01-2010 03:23:05 -6.1 C 2.3 g/m*3 -6.1 C 0 km/h
2657 07-01-2010 03:35:05 -6 C 2.34 g/m*3 -6 C 0 km/h
2658 07-01-2010 03:47:05 -5.8 C 2.41 g/m*3 -5.8 C 0 km/h
2659 07-01-2010 03:59:05 -5.6 C 2.45 g/m*3 -5.6 C 0 km/h
2660 07-01-2010 04:11:05 -5.6 C 2.45 g/m*3 -5.6 C 0 km/h
2661 07-01-2010 04:23:05 -5.6 C 2.45 g/m*3 -5.6 C 0 km/h
2662 07-01-2010 04:35:05 -5.4 C 2.48 g/m*3 -5.4 C 0 km/h
2663 07-01-2010 04:47:05 -5.3 C 2.53 g/m*3 -5.3 C 0 km/h
2664 07-01-2010 04:59:05 -5.2 C 2.55 g/m*3 -5.2 C 0 km/h
2665 07-01-2010 05:11:05 -5.2 C 2.55 g/m*3 -5.2 C 0 km/h
2666 07-01-2010 05:23:05 -5.2 C 2.55 g/m*3 -5.2 C 0 km/h
2667 07-01-2010 05:35:05 -5.1 C 2.57 g/m*3 -5.1 C 0 km/h
2668 07-01-2010 05:47:05 -5 C 2.59 g/m*3 -5 C 0 km/h
2669 07-01-2010 05:59:05 -5 C 2.59 g/m*3 -5 C 0 km/h
2670 07-01-2010 06:11:05 -5 C 2.59 g/m*3 -5 C 0 km/h
2671 07-01-2010 06:23:06 -4.9 C 2.61 g/m*3 -4.9 C 0 km/h
2672 07-01-2010 06:35:06 -5 C 2.59 g/m*3 -5 C 0 km/h
2673 07-01-2010 06:47:06 -4.9 C 2.61 g/m*3 -4.9 C 0 km/h
2674 07-01-2010 06:59:06 -5 C 2.59 g/m*3 -5 C 0 km/h
2675 07-01-2010 07:11:06 -4.9 C 2.64 g/m*3 -4.9 C 0 km/h
Sensor: Nr:Datum:Temp:Abs-Feuchte:Windchill:Wind:
Aussen-T/F 2676 07-01-2010 07:23:06 -5 C 2.62 g/m*3 -5 C 0 km/h
2677 07-01-2010 07:35:06 -5 C 2.62 g/m*3 -5 C 0 km/h
2678 07-01-2010 07:47:06 -5 C 2.62 g/m*3 -5 C 0 km/h
2679 07-01-2010 07:59:06 -4.9 C 2.64 g/m*3 -4.9 C 0 km/h
2680 07-01-2010 08:11:06 -4.8 C 2.69 g/m*3 -4.8 C 0 km/h
2681 07-01-2010 08:23:03 -4.8 C 2.69 g/m*3 -4.8 C 0 km/h
2682 07-01-2010 08:35:04 -4.8 C 2.69 g/m*3 -4.8 C 0 km/h
2683 07-01-2010 08:47:02 -4.7 C 2.71 g/m*3 -4.7 C 0 km/h
2684 07-01-2010 08:59:02 -4.8 C 2.69 g/m*3 -4.8 C 0 km/h
2685 07-01-2010 09:11:02 -4.8 C 2.69 g/m*3 -4.8 C 0 km/h
2686 07-01-2010 09:23:02 -4.6 C 2.77 g/m*3 -4.6 C 0 km/h
2687 07-01-2010 09:35:02 -4.5 C 2.75 g/m*3 -4.5 C 0 km/h
2688 07-01-2010 09:47:02 -4.3 C 2.79 g/m*3 -4.3 C 0 km/h
2689 07-01-2010 09:59:02 -4.1 C 2.83 g/m*3 -4.1 C 0 km/h
2690 07-01-2010 10:11:02 -3.9 C 2.87 g/m*3 -3.9 C 0 km/h
2691 07-01-2010 10:23:01 -3.7 C 2.92 g/m*3 -3.7 C 0 km/h
2692 07-01-2010 10:35:02 -3.4 C 2.94 g/m*3 -3.4 C 0 km/h
2693 07-01-2010 10:47:02 -3.3 C 2.92 g/m*3 -3.3 C 0 km/h
2694 07-01-2010 10:59:02 -3.2 C 2.87 g/m*3 -3.2 C 0 km/h
2695 07-01-2010 11:11:02 -2.9 C 2.93 g/m*3 -2.9 C 0 km/h
2696 07-01-2010 11:23:01 -2.8 C 2.91 g/m*3 -2.8 C 0 km/h
2697 07-01-2010 11:35:02 -3.1 C 2.81 g/m*3 -3.1 C 0 km/h
2698 07-01-2010 11:47:02 -2.9 C 2.85 g/m*3 -2.9 C 0 km/h
2699 07-01-2010 11:59:02 -2.6 C 2.91 g/m*3 -2.6 C 0 km/h
2700 07-01-2010 12:11:02 -2 C 3.03 g/m*3 -2 C 0 km/h
Sensor: Nr:Datum:Temp:Abs-Feuchte:Windchill:Wind:
Aussen-T/F 2701 07-01-2010 12:23:01 -1.6 C 3.08 g/m*3 -1.6 C 0 km/h
2702 07-01-2010 12:35:02 -1.9 C 2.97 g/m*3 -1.9 C 0 km/h
2703 07-01-2010 12:47:01 -2.3 C 2.89 g/m*3 -2.3 C 0 km/h
2704 07-01-2010 12:59:01 -2.1 C 2.97 g/m*3 -2.1 C 0 km/h
2705 07-01-2010 13:11:02 -1.6 C 3.08 g/m*3 -1.6 C 0 km/h
2706 07-01-2010 13:23:02 -1.4 C 3.08 g/m*3 -1.4 C 0 km/h
2707 07-01-2010 13:35:02 -1.2 C 3.12 g/m*3 -1.2 C 0 km/h
2708 07-01-2010 13:47:01 -1.1 C 3.1 g/m*3 -1.1 C 0 km/h
2709 07-01-2010 13:59:01 -1.1 C 3.1 g/m*3 -1.1 C 0 km/h
2710 07-01-2010 14:11:02 -1.1 C 3.05 g/m*3 -1.1 C 0 km/h
2711 07-01-2010 14:23:01 -1.3 C 3.01 g/m*3 -1.3 C 0 km/h
2712 07-01-2010 14:35:02 -1.3 C 3.01 g/m*3 -1.3 C 0 km/h
2713 07-01-2010 14:47:02 -1.4 C 3.03 g/m*3 -1.4 C 0 km/h
2714 07-01-2010 14:59:02 -1.4 C 3.03 g/m*3 -1.4 C 0 km/h
2715 07-01-2010 15:11:02 -1.4 C 3.03 g/m*3 -1.4 C 0 km/h
2716 07-01-2010 15:23:02 -1.6 C 3.03 g/m*3 -1.6 C 0 km/h
2717 07-01-2010 15:35:02 -1.8 C 2.95 g/m*3 -1.8 C 0 km/h
2718 07-01-2010 15:47:02 -1.8 C 3.04 g/m*3 -1.8 C 0 km/h
2719 07-01-2010 15:59:02 -1.9 C 3.06 g/m*3 -1.9 C 0 km/h
2720 07-01-2010 16:11:03 -2 C 3.03 g/m*3 -2 C 0 km/h
2721 07-01-2010 16:23:02 -2.1 C 3.06 g/m*3 -2.1 C 0 km/h
2722 07-01-2010 16:35:02 -2.2 C 3.08 g/m*3 -2.2 C 0 km/h
2723 07-01-2010 16:47:02 -2.2 C 3.12 g/m*3 -2.2 C 0 km/h
2724 07-01-2010 16:59:02 -2.3 C 3.1 g/m*3 -2.3 C 0 km/h
2725 07-01-2010 17:11:02 -2.4 C 3.11 g/m*3 -2.4 C 0 km/h
Sensor: Nr:Datum:Temp:Abs-Feuchte:Windchill:Wind:
Aussen-T/F 2726 07-01-2010 17:23:02 -2.5 C 3.13 g/m*3 -2.5 C 0 km/h
2727 07-01-2010 17:35:02 -2.6 C 3.11 g/m*3 -2.6 C 0 km/h
2728 07-01-2010 17:47:02 -2.7 C 3.13 g/m*3 -2.7 C 0 km/h
2729 07-01-2010 17:59:02 -2.8 C 3.11 g/m*3 -2.8 C 0 km/h
2730 07-01-2010 18:11:02 -3 C 3.06 g/m*3 -3 C 0 km/h
2731 07-01-2010 18:23:01 -3.1 C 3.08 g/m*3 -3.1 C 0 km/h
2732 07-01-2010 18:35:02 -3.1 C 3.08 g/m*3 -3.1 C 0 km/h
2733 07-01-2010 18:47:02 -3.1 C 3.08 g/m*3 -3.1 C 0 km/h
2734 07-01-2010 18:59:02 -3.1 C 3.04 g/m*3 -3.1 C 0 km/h
2735 07-01-2010 19:11:02 -3.1 C 3.04 g/m*3 -3.1 C 0 km/h
2736 07-01-2010 19:23:02 -3.2 C 3.02 g/m*3 -3.2 C 0 km/h
2737 07-01-2010 19:35:02 -3.3 C 3 g/m*3 -3.3 C 0 km/h
2738 07-01-2010 19:47:02 -3.3 C 3.04 g/m*3 -3.3 C 0 km/h
2739 07-01-2010 19:59:02 -3.3 C 3.04 g/m*3 -3.3 C 0 km/h
2740 07-01-2010 20:11:02 -3.5 C 2.99 g/m*3 -3.5 C 0 km/h
2741 07-01-2010 20:23:02 -3.7 C 2.99 g/m*3 -3.7 C 0 km/h
2742 07-01-2010 20:35:02 -3.5 C 3.03 g/m*3 -3.5 C 0 km/h
2743 07-01-2010 20:47:01 -3.5 C 3.03 g/m*3 -3.5 C 0 km/h
2744 07-01-2010 20:59:01 -3.4 C 3.05 g/m*3 -3.4 C 0 km/h
2745 07-01-2010 21:11:02 -3.3 C 3.08 g/m*3 -3.3 C 0 km/h
2746 07-01-2010 21:23:01 -3.3 C 3.08 g/m*3 -3.3 C 0 km/h
2747 07-01-2010 21:35:01 -3.3 C 3.08 g/m*3 -3.3 C 0 km/h
2748 07-01-2010 21:47:01 -3.3 C 3.04 g/m*3 -3.3 C 0 km/h
2749 07-01-2010 21:59:01 -3.4 C 3.02 g/m*3 -3.4 C 0 km/h
2750 07-01-2010 22:11:01 -3.4 C 3.02 g/m*3 -3.4 C 0 km/h
Sensor: Nr:Datum:Temp:Abs-Feuchte:Windchill:Wind:
Aussen-T/F 2751 07-01-2010 22:23:02 -3.4 C 2.98 g/m*3 -3.4 C 0 km/h
2752 07-01-2010 22:35:01 -3.6 C 2.94 g/m*3 -3.6 C 0 km/h
2753 07-01-2010 22:47:02 -3.8 C 2.89 g/m*3 -3.8 C 0 km/h
2754 07-01-2010 22:59:02 -4.1 C 2.83 g/m*3 -4.1 C 0 km/h
2755 07-01-2010 23:11:02 -4.2 C 2.81 g/m*3 -4.2 C 0 km/h
2756 07-01-2010 23:23:02 -4.2 C 2.85 g/m*3 -4.2 C 0 km/h
2757 07-01-2010 23:36:03 -4.3 C 2.83 g/m*3 -4.3 C 0 km/h
2758 07-01-2010 23:48:03 -4.4 C 2.81 g/m*3 -4.4 C 0 km/h
2759 08-01-2010 00:00:03 -4.4 C 2.81 g/m*3 -4.4 C 0 km/h
2760 08-01-2010 00:12:03 -4.2 C 2.89 g/m*3 -4.2 C 0 km/h
2761 08-01-2010 00:24:03 -4.1 C 2.91 g/m*3 -4.1 C 0 km/h
2762 08-01-2010 00:36:03 -4.2 C 2.89 g/m*3 -4.2 C 0 km/h
2763 08-01-2010 00:48:03 -4.3 C 2.86 g/m*3 -4.3 C 0 km/h
2764 08-01-2010 01:00:03 -4.4 C 2.84 g/m*3 -4.4 C 0 km/h
2765 08-01-2010 01:12:03 -4.6 C 2.8 g/m*3 -4.6 C 0 km/h
2766 08-01-2010 01:24:03 -4.6 C 2.8 g/m*3 -4.6 C 0 km/h
2767 08-01-2010 01:36:04 -4.7 C 2.78 g/m*3 -4.7 C 0 km/h
2768 08-01-2010 01:48:04 -4.8 C 2.76 g/m*3 -4.8 C 0 km/h
2769 08-01-2010 02:00:04 -5 C 2.72 g/m*3 -5 C 0 km/h
2770 08-01-2010 02:12:04 -5.2 C 2.68 g/m*3 -5.2 C 0 km/h
2771 08-01-2010 02:24:04 -5.4 C 2.65 g/m*3 -5.4 C 0 km/h
2772 08-01-2010 02:36:04 -5.5 C 2.63 g/m*3 -5.5 C 0 km/h
2773 08-01-2010 02:48:04 -5.5 C 2.66 g/m*3 -5.5 C 0 km/h
2774 08-01-2010 03:00:04 -5.6 C 2.64 g/m*3 -5.6 C 0 km/h
2775 08-01-2010 03:12:04 -5.6 C 2.67 g/m*3 -5.6 C 0 km/h
Sensor: Nr:Datum:Temp:Abs-Feuchte:Windchill:Wind:
Aussen-T/F 2776 08-01-2010 03:24:04 -5.5 C 2.69 g/m*3 -5.5 C 0 km/h
2777 08-01-2010 03:36:04 -5.6 C 2.67 g/m*3 -5.6 C 0 km/h
2778 08-01-2010 03:48:04 -5.5 C 2.69 g/m*3 -5.5 C 0 km/h
2779 08-01-2010 04:00:04 -5.4 C 2.75 g/m*3 -5.4 C 0 km/h
2780 08-01-2010 04:12:04 -5.5 C 2.69 g/m*3 -5.5 C 0 km/h
2781 08-01-2010 04:24:04 -5.5 C 2.69 g/m*3 -5.5 C 0 km/h
2782 08-01-2010 04:36:04 -5.5 C 2.69 g/m*3 -5.5 C 0 km/h
2783 08-01-2010 04:48:04 -5.6 C 2.67 g/m*3 -5.6 C 0 km/h
2784 08-01-2010 05:00:04 -5.8 C 2.64 g/m*3 -5.8 C 0 km/h
2785 08-01-2010 05:12:04 -6 C 2.57 g/m*3 -6 C 0 km/h
2786 08-01-2010 05:24:04 -6.2 C 2.53 g/m*3 -6.2 C 0 km/h
2787 08-01-2010 05:36:04 -6.5 C 2.47 g/m*3 -6.5 C 0 km/h
2788 08-01-2010 05:48:05 -6.6 C 2.49 g/m*3 -6.6 C 0 km/h
2789 08-01-2010 06:00:05 -6.5 C 2.5 g/m*3 -6.5 C 0 km/h
2790 08-01-2010 06:12:05 -6.5 C 2.5 g/m*3 -6.5 C 0 km/h
2791 08-01-2010 06:24:05 -6.8 C 2.45 g/m*3 -6.8 C 0 km/h
2792 08-01-2010 06:36:05 -7 C 2.41 g/m*3 -7 C 0 km/h
2793 08-01-2010 06:48:05 -7.2 C 2.35 g/m*3 -7.2 C 0 km/h
2794 08-01-2010 07:00:05 -7.5 C 2.3 g/m*3 -7.5 C 0 km/h
2795 08-01-2010 07:12:05 -7.6 C 2.28 g/m*3 -7.6 C 0 km/h
2796 08-01-2010 07:24:05 -7.7 C 2.26 g/m*3 -7.7 C 0 km/h
2797 08-01-2010 07:36:05 -7.6 C 2.31 g/m*3 -7.6 C 0 km/h
2798 08-01-2010 07:48:05 -7.6 C 2.31 g/m*3 -7.6 C 0 km/h
2799 08-01-2010 08:00:05 -7.7 C 2.29 g/m*3 -7.7 C 0 km/h
2800 08-01-2010 08:12:05 -7.9 C 2.23 g/m*3 -7.9 C 0 km/h
Sensor: Nr:Datum:Temp:Abs-Feuchte:Windchill:Wind:
Aussen-T/F 2801 08-01-2010 08:24:05 -8 C 2.22 g/m*3 -8 C 0 km/h
2802 08-01-2010 08:36:05 -8.2 C 2.18 g/m*3 -8.2 C 0 km/h
2803 08-01-2010 08:48:05 -8.2 C 2.18 g/m*3 -8.2 C 0 km/h
2804 08-01-2010 09:00:05 -8.2 C 2.18 g/m*3 -8.2 C 0 km/h
2805 08-01-2010 09:12:05 -8.2 C 2.18 g/m*3 -8.2 C 0 km/h
2806 08-01-2010 09:24:05 -8.2 C 2.18 g/m*3 -8.2 C 0 km/h
2807 08-01-2010 09:36:05 -8.2 C 2.18 g/m*3 -8.2 C 0 km/h
2808 08-01-2010 09:48:01 -7.9 C 2.23 g/m*3 -7.9 C 0 km/h
2809 08-01-2010 10:00:01 -7.3 C 2.36 g/m*3 -7.3 C 0 km/h
2810 08-01-2010 10:12:01 -6.7 C 2.47 g/m*3 -6.7 C 0 km/h
2811 08-01-2010 10:24:02 -6.2 C 2.56 g/m*3 -6.2 C 0 km/h
2812 08-01-2010 10:36:01 -6 C 2.53 g/m*3 -6 C 0 km/h
2813 08-01-2010 10:48:02 -5.6 C 2.58 g/m*3 -5.6 C 0 km/h
2814 08-01-2010 11:00:02 -5.6 C 2.48 g/m*3 -5.6 C 0 km/h
2815 08-01-2010 11:12:02 -5.5 C 2.46 g/m*3 -5.5 C 0 km/h
2816 08-01-2010 11:24:02 -5.2 C 2.48 g/m*3 -5.2 C 0 km/h
2817 08-01-2010 11:36:03 -5 C 2.49 g/m*3 -5 C 0 km/h
2818 08-01-2010 11:48:02 -5 C 2.45 g/m*3 -5 C 0 km/h
2819 08-01-2010 12:00:02 -4.6 C 2.52 g/m*3 -4.6 C 0 km/h
2820 08-01-2010 12:12:01 -4.8 C 2.42 g/m*3 -4.8 C 0 km/h
2821 08-01-2010 12:24:02 -5 C 2.35 g/m*3 -5 C 0 km/h
2822 08-01-2010 12:36:02 -4.9 C 2.37 g/m*3 -4.9 C 0 km/h
2823 08-01-2010 12:48:02 -4.4 C 2.49 g/m*3 -4.4 C 0 km/h
2824 08-01-2010 13:00:02 -4.7 C 2.37 g/m*3 -4.7 C 0 km/h
2825 08-01-2010 13:12:03 -4.8 C 2.35 g/m*3 -4.8 C 0 km/h
Sensor: Nr:Datum:Temp:Abs-Feuchte:Windchill:Wind:
Aussen-T/F 2826 08-01-2010 13:24:02 -4.9 C 2.37 g/m*3 -4.9 C 0 km/h
2827 08-01-2010 13:36:02 -4.9 C 2.37 g/m*3 -4.9 C 0 km/h
2828 08-01-2010 13:48:01 -4.9 C 2.4 g/m*3 -4.9 C 0 km/h
2829 08-01-2010 14:00:01 -4.6 C 2.49 g/m*3 -4.6 C 0 km/h
2830 08-01-2010 14:12:02 -4 C 2.6 g/m*3 -4 C 0 km/h
2831 08-01-2010 14:24:01 -3.5 C 2.65 g/m*3 -3.5 C 0 km/h
2832 08-01-2010 14:36:02 -3.3 C 2.65 g/m*3 -3.3 C 0 km/h
2833 08-01-2010 14:48:02 -3.2 C 2.63 g/m*3 -3.2 C 0 km/h
2834 08-01-2010 15:00:02 -3.2 C 2.63 g/m*3 -3.2 C 0 km/h
2835 08-01-2010 15:12:02 -3.2 C 2.63 g/m*3 -3.2 C 0 km/h
2836 08-01-2010 15:24:01 -3.2 C 2.63 g/m*3 -3.2 C 0 km/h
2837 08-01-2010 15:36:02 -3 C 2.71 g/m*3 -3 C 0 km/h
2838 08-01-2010 15:48:02 -2.8 C 2.71 g/m*3 -2.8 C 0 km/h
2839 08-01-2010 16:00:02 -2.7 C 2.65 g/m*3 -2.7 C 0 km/h
2840 08-01-2010 16:12:02 -2.7 C 2.57 g/m*3 -2.7 C 0 km/h
2841 08-01-2010 16:24:02 -2.7 C 2.53 g/m*3 -2.7 C 0 km/h
2842 08-01-2010 16:36:02 -2.8 C 2.55 g/m*3 -2.8 C 0 km/h
2843 08-01-2010 16:48:02 -2.8 C 2.55 g/m*3 -2.8 C 0 km/h
2844 08-01-2010 17:00:02 -2.8 C 2.55 g/m*3 -2.8 C 0 km/h
2845 08-01-2010 17:12:02 -2.8 C 2.59 g/m*3 -2.8 C 0 km/h
2846 08-01-2010 17:24:02 -2.8 C 2.55 g/m*3 -2.8 C 0 km/h
2847 08-01-2010 17:36:02 -2.8 C 2.55 g/m*3 -2.8 C 0 km/h
2848 08-01-2010 17:48:02 -2.9 C 2.49 g/m*3 -2.9 C 0 km/h
2849 08-01-2010 18:00:02 -3 C 2.51 g/m*3 -3 C 0 km/h
2850 08-01-2010 18:12:02 -3 C 2.51 g/m*3 -3 C 0 km/h
Sensor: Nr:Datum:Temp:Abs-Feuchte:Windchill:Wind:
Aussen-T/F 2851 08-01-2010 18:24:02 -3 C 2.47 g/m*3 -3 C 0 km/h
2852 08-01-2010 18:36:01 -3 C 2.44 g/m*3 -3 C 0 km/h
2853 08-01-2010 18:48:02 -3.1 C 2.42 g/m*3 -3.1 C 0 km/h
2854 08-01-2010 19:00:02 -3.1 C 2.42 g/m*3 -3.1 C 0 km/h
2855 08-01-2010 19:12:01 -3.1 C 2.46 g/m*3 -3.1 C 0 km/h
2856 08-01-2010 19:24:02 -3.2 C 2.44 g/m*3 -3.2 C 0 km/h
2857 08-01-2010 19:36:02 -3.3 C 2.38 g/m*3 -3.3 C 0 km/h
2858 08-01-2010 19:48:02 -3.3 C 2.38 g/m*3 -3.3 C 0 km/h
2859 08-01-2010 20:00:03 -3.3 C 2.38 g/m*3 -3.3 C 0 km/h
2860 08-01-2010 20:12:02 -3.3 C 2.38 g/m*3 -3.3 C 0 km/h
2861 08-01-2010 20:24:02 -3.3 C 2.38 g/m*3 -3.3 C 0 km/h
2862 08-01-2010 20:36:03 -3.3 C 2.42 g/m*3 -3.3 C 0 km/h
2863 08-01-2010 20:48:02 -3.3 C 2.42 g/m*3 -3.3 C 0 km/h
2864 08-01-2010 21:00:02 -3.4 C 2.44 g/m*3 -3.4 C 0 km/h
2865 08-01-2010 21:12:02 -3.4 C 2.48 g/m*3 -3.4 C 0 km/h
2866 08-01-2010 21:24:01 -3.4 C 2.52 g/m*3 -3.4 C 0 km/h
2867 08-01-2010 21:36:02 -3.4 C 2.56 g/m*3 -3.4 C 0 km/h
2868 08-01-2010 21:48:02 -3.5 C 2.62 g/m*3 -3.5 C 0 km/h
2869 08-01-2010 22:00:02 -3.5 C 2.62 g/m*3 -3.5 C 0 km/h
2870 08-01-2010 22:12:02 -3.4 C 2.6 g/m*3 -3.4 C 0 km/h
2871 08-01-2010 22:25:03 -3.4 C 2.56 g/m*3 -3.4 C 0 km/h
2872 08-01-2010 22:37:03 -3.5 C 2.58 g/m*3 -3.5 C 0 km/h
2873 08-01-2010 22:49:03 -3.5 C 2.62 g/m*3 -3.5 C 0 km/h
2874 08-01-2010 23:01:03 -3.6 C 2.63 g/m*3 -3.6 C 0 km/h
2875 08-01-2010 23:13:03 -3.7 C 2.73 g/m*3 -3.7 C 0 km/h
Sensor: Nr:Datum:Temp:Abs-Feuchte:Windchill:Wind:
Aussen-T/F 2876 08-01-2010 23:25:03 -3.8 C 2.78 g/m*3 -3.8 C 0 km/h
2877 08-01-2010 23:37:03 -3.8 C 2.82 g/m*3 -3.8 C 0 km/h
2878 08-01-2010 23:49:03 -3.9 C 2.84 g/m*3 -3.9 C 0 km/h
2879 09-01-2010 00:01:03 -3.9 C 2.87 g/m*3 -3.9 C 0 km/h
2880 09-01-2010 00:13:03 -3.9 C 2.87 g/m*3 -3.9 C 0 km/h
2881 09-01-2010 00:25:03 -3.9 C 2.91 g/m*3 -3.9 C 0 km/h
2882 09-01-2010 00:37:03 -3.9 C 2.91 g/m*3 -3.9 C 0 km/h
2883 09-01-2010 00:49:03 -4 C 2.89 g/m*3 -4 C 0 km/h
2884 09-01-2010 01:01:03 -4 C 2.89 g/m*3 -4 C 0 km/h
2885 09-01-2010 01:13:03 -4 C 2.89 g/m*3 -4 C 0 km/h
2886 09-01-2010 01:25:04 -3.9 C 2.91 g/m*3 -3.9 C 0 km/h
2887 09-01-2010 01:37:04 -3.9 C 2.87 g/m*3 -3.9 C 0 km/h
2888 09-01-2010 01:49:04 -3.9 C 2.84 g/m*3 -3.9 C 0 km/h
2889 09-01-2010 02:01:04 -3.9 C 2.76 g/m*3 -3.9 C 0 km/h
2890 09-01-2010 02:13:04 -3.8 C 2.71 g/m*3 -3.8 C 0 km/h
2891 09-01-2010 02:25:04 -3.8 C 2.63 g/m*3 -3.8 C 0 km/h
2892 09-01-2010 02:37:04 -3.7 C 2.62 g/m*3 -3.7 C 0 km/h
2893 09-01-2010 02:49:04 -3.7 C 2.62 g/m*3 -3.7 C 0 km/h
2894 09-01-2010 03:01:04 -3.7 C 2.58 g/m*3 -3.7 C 0 km/h
2895 09-01-2010 03:13:04 -3.6 C 2.56 g/m*3 -3.6 C 0 km/h
2896 09-01-2010 03:25:04 -3.7 C 2.54 g/m*3 -3.7 C 0 km/h
2897 09-01-2010 03:37:04 -3.8 C 2.56 g/m*3 -3.8 C 0 km/h
2898 09-01-2010 03:49:04 -3.8 C 2.6 g/m*3 -3.8 C 0 km/h
2899 09-01-2010 04:01:04 -3.9 C 2.62 g/m*3 -3.9 C 0 km/h
2900 09-01-2010 04:13:04 -4 C 2.63 g/m*3 -4 C 0 km/h
Sensor: Nr:Datum:Temp:Abs-Feuchte:Windchill:Wind:
Aussen-T/F 2901 09-01-2010 04:25:04 -4 C 2.71 g/m*3 -4 C 0 km/h
2902 09-01-2010 04:37:04 -4.1 C 2.76 g/m*3 -4.1 C 0 km/h
2903 09-01-2010 04:49:04 -4.1 C 2.83 g/m*3 -4.1 C 0 km/h
2904 09-01-2010 05:01:04 -4.1 C 2.87 g/m*3 -4.1 C 0 km/h
2905 09-01-2010 05:13:04 -4.1 C 2.91 g/m*3 -4.1 C 0 km/h
2906 09-01-2010 05:25:05 -4.1 C 2.94 g/m*3 -4.1 C 0 km/h
2907 09-01-2010 05:37:05 -4.1 C 2.98 g/m*3 -4.1 C 0 km/h
2908 09-01-2010 05:49:05 -4.1 C 2.98 g/m*3 -4.1 C 0 km/h
2909 09-01-2010 06:01:05 -4.1 C 3.01 g/m*3 -4.1 C 0 km/h
2910 09-01-2010 06:13:05 -4.1 C 3.01 g/m*3 -4.1 C 0 km/h
2911 09-01-2010 06:25:05 -4.1 C 3.05 g/m*3 -4.1 C 0 km/h
2912 09-01-2010 06:37:05 -4 C 3.07 g/m*3 -4 C 0 km/h
2913 09-01-2010 06:49:05 -3.9 C 3.13 g/m*3 -3.9 C 0 km/h
2914 09-01-2010 07:01:05 -3.9 C 3.13 g/m*3 -3.9 C 0 km/h
2915 09-01-2010 07:13:05 -3.8 C 3.15 g/m*3 -3.8 C 0 km/h
2916 09-01-2010 07:25:03 -3.8 C 3.19 g/m*3 -3.8 C 0 km/h
2917 09-01-2010 07:37:02 -3.7 C 3.21 g/m*3 -3.7 C 0 km/h
2918 09-01-2010 07:49:02 -3.7 C 3.21 g/m*3 -3.7 C 0 km/h
2919 09-01-2010 08:01:01 -3.5 C 3.26 g/m*3 -3.5 C 0 km/h
2920 09-01-2010 08:13:01 -3.5 C 3.26 g/m*3 -3.5 C 0 km/h
2921 09-01-2010 08:25:02 -3.4 C 3.32 g/m*3 -3.4 C 0 km/h
2922 09-01-2010 08:37:01 -3.4 C 3.32 g/m*3 -3.4 C 0 km/h
2923 09-01-2010 08:49:02 -3.3 C 3.35 g/m*3 -3.3 C 0 km/h
2924 09-01-2010 09:01:01 -3.2 C 3.37 g/m*3 -3.2 C 0 km/h
2925 09-01-2010 09:13:01 -3.1 C 3.39 g/m*3 -3.1 C 0 km/h
Sensor: Nr:Datum:Temp:Abs-Feuchte:Windchill:Wind:
Aussen-T/F 2926 09-01-2010 09:25:01 -2.9 C 3.48 g/m*3 -2.9 C 0 km/h
2927 09-01-2010 09:37:02 -2.7 C 3.53 g/m*3 -2.7 C 0 km/h
2928 09-01-2010 09:49:02 -2.6 C 3.52 g/m*3 -2.6 C 0 km/h
2929 09-01-2010 10:01:02 -2.5 C 3.54 g/m*3 -2.5 C 0 km/h
2930 09-01-2010 10:13:02 -2.3 C 3.59 g/m*3 -2.3 C 0 km/h
2931 09-01-2010 10:25:02 -2 C 3.67 g/m*3 -2 C 0 km/h
2932 09-01-2010 10:37:02 -1.8 C 3.68 g/m*3 -1.8 C 0 km/h
2933 09-01-2010 10:49:02 -1.7 C 3.66 g/m*3 -1.7 C 0 km/h
2934 09-01-2010 11:01:02 -1.7 C 3.62 g/m*3 -1.7 C 0 km/h
2935 09-01-2010 11:13:02 -1.8 C 3.59 g/m*3 -1.8 C 0 km/h
2936 09-01-2010 11:25:02 -1.8 C 3.59 g/m*3 -1.8 C 0 km/h
2937 09-01-2010 11:37:02 -1.9 C 3.52 g/m*3 -1.9 C 0 km/h
2938 09-01-2010 11:49:01 -2 C 3.41 g/m*3 -2 C 0 km/h
2939 09-01-2010 12:01:01 -1.9 C 3.44 g/m*3 -1.9 C 0 km/h
2940 09-01-2010 12:13:01 -1.9 C 3.44 g/m*3 -1.9 C 0 km/h
2941 09-01-2010 12:25:01 -2 C 3.37 g/m*3 -2 C 0 km/h
2942 09-01-2010 12:37:01 -2 C 3.29 g/m*3 -2 C 0 km/h
2943 09-01-2010 12:49:01 -1.9 C 3.23 g/m*3 -1.9 C 0 km/h
2944 09-01-2010 13:01:01 -1.9 C 3.14 g/m*3 -1.9 C 0 km/h
2945 09-01-2010 13:13:01 -1.8 C 3.12 g/m*3 -1.8 C 0 km/h
2946 09-01-2010 13:25:02 -1.8 C 3.08 g/m*3 -1.8 C 0 km/h
2947 09-01-2010 13:37:01 -1.7 C 3.06 g/m*3 -1.7 C 0 km/h
2948 09-01-2010 13:49:03 -1.7 C 3.06 g/m*3 -1.7 C 0 km/h
2949 09-01-2010 14:01:02 -1.7 C 3.06 g/m*3 -1.7 C 0 km/h
2950 09-01-2010 14:13:02 -1.7 C 3.06 g/m*3 -1.7 C 0 km/h
Sensor: Nr:Datum:Temp:Abs-Feuchte:Windchill:Wind:
Aussen-T/F 2951 09-01-2010 14:25:02 -1.7 C 3.01 g/m*3 -1.7 C 0 km/h
2952 09-01-2010 14:37:02 -1.6 C 3.03 g/m*3 -1.6 C 0 km/h
2953 09-01-2010 14:49:02 -1.7 C 3.01 g/m*3 -1.7 C 0 km/h
2954 09-01-2010 15:01:02 -1.7 C 3.01 g/m*3 -1.7 C 0 km/h
2955 09-01-2010 15:13:02 -1.7 C 2.97 g/m*3 -1.7 C 0 km/h
2956 09-01-2010 15:25:02 -1.7 C 2.97 g/m*3 -1.7 C 0 km/h
2957 09-01-2010 15:37:01 -1.7 C 2.97 g/m*3 -1.7 C 0 km/h
2958 09-01-2010 15:49:02 -1.7 C 2.97 g/m*3 -1.7 C 0 km/h
2959 09-01-2010 16:01:01 -1.7 C 3.01 g/m*3 -1.7 C 0 km/h
2960 09-01-2010 16:13:01 -1.7 C 2.97 g/m*3 -1.7 C 0 km/h
2961 09-01-2010 16:25:02 -1.7 C 2.97 g/m*3 -1.7 C 0 km/h
2962 09-01-2010 16:37:02 -1.8 C 2.99 g/m*3 -1.8 C 0 km/h
2963 09-01-2010 16:49:02 -1.8 C 2.95 g/m*3 -1.8 C 0 km/h
2964 09-01-2010 17:01:02 -1.8 C 2.95 g/m*3 -1.8 C 0 km/h
2965 09-01-2010 17:13:02 -1.8 C 2.95 g/m*3 -1.8 C 0 km/h
2966 09-01-2010 17:25:02 -1.8 C 2.95 g/m*3 -1.8 C 0 km/h
2967 09-01-2010 17:37:02 -1.8 C 2.95 g/m*3 -1.8 C 0 km/h
2968 09-01-2010 17:49:01 -1.8 C 2.95 g/m*3 -1.8 C 0 km/h
2969 09-01-2010 18:01:02 -1.8 C 2.99 g/m*3 -1.8 C 0 km/h
2970 09-01-2010 18:13:02 -1.9 C 2.97 g/m*3 -1.9 C 0 km/h
2971 09-01-2010 18:25:01 -1.8 C 2.99 g/m*3 -1.8 C 0 km/h
2972 09-01-2010 18:37:01 -1.9 C 3.01 g/m*3 -1.9 C 0 km/h
2973 09-01-2010 18:49:01 -1.9 C 2.97 g/m*3 -1.9 C 0 km/h
2974 09-01-2010 19:01:02 -1.9 C 2.97 g/m*3 -1.9 C 0 km/h
2975 09-01-2010 19:13:02 -1.8 C 2.99 g/m*3 -1.8 C 0 km/h
Sensor: Nr:Datum:Temp:Abs-Feuchte:Windchill:Wind:
Aussen-T/F 2976 09-01-2010 19:25:01 -1.9 C 2.97 g/m*3 -1.9 C 0 km/h
2977 09-01-2010 19:37:01 -1.9 C 2.97 g/m*3 -1.9 C 0 km/h
2978 09-01-2010 19:49:01 -1.8 C 2.95 g/m*3 -1.8 C 0 km/h
2979 09-01-2010 20:01:02 -1.8 C 2.95 g/m*3 -1.8 C 0 km/h
2980 09-01-2010 20:13:02 -1.9 C 2.97 g/m*3 -1.9 C 0 km/h
2981 09-01-2010 20:25:02 -1.9 C 2.97 g/m*3 -1.9 C 0 km/h
2982 09-01-2010 20:37:01 -1.9 C 2.97 g/m*3 -1.9 C 0 km/h
2983 09-01-2010 20:49:02 -1.9 C 2.97 g/m*3 -1.9 C 0 km/h
2984 09-01-2010 21:01:01 -1.9 C 2.97 g/m*3 -1.9 C 0 km/h
2985 09-01-2010 21:13:01 -1.9 C 2.97 g/m*3 -1.9 C 0 km/h
2986 09-01-2010 21:25:02 -1.9 C 2.93 g/m*3 -1.9 C 0 km/h
2987 09-01-2010 21:37:01 -2 C 2.95 g/m*3 -2 C 0 km/h
2988 09-01-2010 21:49:03 -1.9 C 2.97 g/m*3 -1.9 C 0 km/h
2989 09-01-2010 22:01:02 -2 C 2.95 g/m*3 -2 C 0 km/h
2990 09-01-2010 22:13:02 -2 C 2.99 g/m*3 -2 C 0 km/h
2991 09-01-2010 22:26:02 -2 C 2.99 g/m*3 -2 C 0 km/h
2992 09-01-2010 22:38:02 -2 C 2.99 g/m*3 -2 C 0 km/h
2993 09-01-2010 22:50:02 -2 C 3.03 g/m*3 -2 C 0 km/h
2994 09-01-2010 23:02:03 -2 C 3.03 g/m*3 -2 C 0 km/h
2995 09-01-2010 23:14:03 -2 C 3.03 g/m*3 -2 C 0 km/h
2996 09-01-2010 23:26:03 -2 C 3.03 g/m*3 -2 C 0 km/h
2997 09-01-2010 23:38:03 -2.1 C 3.01 g/m*3 -2.1 C 0 km/h
2998 09-01-2010 23:50:03 -2.1 C 3.01 g/m*3 -2.1 C 0 km/h
2999 10-01-2010 00:02:03 -2.1 C 3.01 g/m*3 -2.1 C 0 km/h
3000 10-01-2010 00:14:03 -2.1 C 3.01 g/m*3 -2.1 C 0 km/h
Sensor: Nr:Datum:Temp:Abs-Feuchte:Windchill:Wind:
Aussen-T/F 3001 10-01-2010 00:26:03 -2.1 C 3.01 g/m*3 -2.1 C 0 km/h
3002 10-01-2010 00:38:03 -2.1 C 3.01 g/m*3 -2.1 C 0 km/h
3003 10-01-2010 00:50:03 -2.1 C 3.01 g/m*3 -2.1 C 0 km/h
3004 10-01-2010 01:02:03 -2.1 C 3.01 g/m*3 -2.1 C 0 km/h
3005 10-01-2010 01:14:03 -2.2 C 2.99 g/m*3 -2.2 C 0 km/h
3006 10-01-2010 01:26:03 -2.2 C 2.99 g/m*3 -2.2 C 0 km/h
3007 10-01-2010 01:38:03 -2.2 C 2.99 g/m*3 -2.2 C 0 km/h
3008 10-01-2010 01:50:03 -2.2 C 2.99 g/m*3 -2.2 C 0 km/h
3009 10-01-2010 02:02:03 -2.3 C 2.97 g/m*3 -2.3 C 0 km/h
3010 10-01-2010 02:14:03 -2.3 C 3.01 g/m*3 -2.3 C 0 km/h
3011 10-01-2010 02:26:03 -2.4 C 2.99 g/m*3 -2.4 C 0 km/h
3012 10-01-2010 02:38:03 -2.4 C 2.99 g/m*3 -2.4 C 0 km/h
3013 10-01-2010 02:50:03 -2.5 C 3.01 g/m*3 -2.5 C 0 km/h
3014 10-01-2010 03:02:04 -2.4 C 3.03 g/m*3 -2.4 C 0 km/h
3015 10-01-2010 03:14:04 -2.4 C 3.03 g/m*3 -2.4 C 0 km/h
3016 10-01-2010 03:26:04 -2.5 C 3.01 g/m*3 -2.5 C 0 km/h
3017 10-01-2010 03:38:04 -2.5 C 3.05 g/m*3 -2.5 C 0 km/h
3018 10-01-2010 03:50:04 -2.6 C 3.03 g/m*3 -2.6 C 0 km/h
3019 10-01-2010 04:02:04 -2.6 C 3.03 g/m*3 -2.6 C 0 km/h
3020 10-01-2010 04:14:04 -2.6 C 3.03 g/m*3 -2.6 C 0 km/h
3021 10-01-2010 04:26:04 -2.6 C 3.03 g/m*3 -2.6 C 0 km/h
3022 10-01-2010 04:38:04 -2.6 C 3.07 g/m*3 -2.6 C 0 km/h
3023 10-01-2010 04:50:04 -2.6 C 3.07 g/m*3 -2.6 C 0 km/h
3024 10-01-2010 05:02:04 -2.6 C 3.11 g/m*3 -2.6 C 0 km/h
3025 10-01-2010 05:14:04 -2.6 C 3.15 g/m*3 -2.6 C 0 km/h
Sensor: Nr:Datum:Temp:Abs-Feuchte:Windchill:Wind:
Aussen-T/F 3026 10-01-2010 05:26:04 -2.6 C 3.15 g/m*3 -2.6 C 0 km/h
3027 10-01-2010 05:38:04 -2.8 C 3.11 g/m*3 -2.8 C 0 km/h
3028 10-01-2010 05:50:04 -2.8 C 3.15 g/m*3 -2.8 C 0 km/h
3029 10-01-2010 06:02:04 -2.8 C 3.15 g/m*3 -2.8 C 0 km/h
3030 10-01-2010 06:14:04 -2.8 C 3.15 g/m*3 -2.8 C 0 km/h
3031 10-01-2010 06:26:04 -2.8 C 3.19 g/m*3 -2.8 C 0 km/h
3032 10-01-2010 06:38:04 -2.7 C 3.21 g/m*3 -2.7 C 0 km/h
3033 10-01-2010 06:50:04 -2.7 C 3.21 g/m*3 -2.7 C 0 km/h
3034 10-01-2010 07:02:04 -2.8 C 3.19 g/m*3 -2.8 C 0 km/h
3035 10-01-2010 07:14:05 -2.7 C 3.21 g/m*3 -2.7 C 0 km/h
3036 10-01-2010 07:26:05 -2.8 C 3.19 g/m*3 -2.8 C 0 km/h
3037 10-01-2010 07:38:05 -2.9 C 3.2 g/m*3 -2.9 C 0 km/h
3038 10-01-2010 07:50:05 -3 C 3.18 g/m*3 -3 C 0 km/h
3039 10-01-2010 08:02:05 -2.9 C 3.24 g/m*3 -2.9 C 0 km/h
3040 10-01-2010 08:14:05 -2.8 C 3.27 g/m*3 -2.8 C 0 km/h
3041 10-01-2010 08:26:05 -2.9 C 3.24 g/m*3 -2.9 C 0 km/h
3042 10-01-2010 08:38:05 -3 C 3.22 g/m*3 -3 C 0 km/h
3043 10-01-2010 08:50:05 -2.9 C 3.28 g/m*3 -2.9 C 0 km/h
3044 10-01-2010 09:02:02 -2.8 C 3.31 g/m*3 -2.8 C 0 km/h
3045 10-01-2010 09:14:02 -2.7 C 3.33 g/m*3 -2.7 C 0 km/h
3046 10-01-2010 09:26:02 -2.6 C 3.35 g/m*3 -2.6 C 0 km/h
3047 10-01-2010 09:38:02 -2.6 C 3.35 g/m*3 -2.6 C 0 km/h
3048 10-01-2010 09:50:02 -2.6 C 3.35 g/m*3 -2.6 C 0 km/h
3049 10-01-2010 10:02:02 -2.6 C 3.35 g/m*3 -2.6 C 0 km/h
3050 10-01-2010 10:14:02 -2.4 C 3.4 g/m*3 -2.4 C 0 km/h
Sensor: Nr:Datum:Temp:Abs-Feuchte:Windchill:Wind:
Aussen-T/F 3051 10-01-2010 10:26:01 -2.1 C 3.52 g/m*3 -2.1 C 0 km/h
3052 10-01-2010 10:38:02 -1.9 C 3.52 g/m*3 -1.9 C 0 km/h
3053 10-01-2010 10:50:02 -1.8 C 3.55 g/m*3 -1.8 C 0 km/h
3054 10-01-2010 11:02:02 -1.8 C 3.51 g/m*3 -1.8 C 0 km/h
3055 10-01-2010 11:14:02 -1.6 C 3.55 g/m*3 -1.6 C 0 km/h
3056 10-01-2010 11:26:02 -1.7 C 3.49 g/m*3 -1.7 C 0 km/h
3057 10-01-2010 11:38:02 -1.3 C 3.59 g/m*3 -1.3 C 0 km/h
3058 10-01-2010 11:50:02 -1 C 3.62 g/m*3 -1 C 0 km/h
3059 10-01-2010 12:02:02 -0.7 C 3.69 g/m*3 -0.7 C 0 km/h
3060 10-01-2010 12:14:02 -0.6 C 3.67 g/m*3 -0.6 C 0 km/h
3061 10-01-2010 12:26:02 -0.8 C 3.53 g/m*3 -0.8 C 0 km/h
3062 10-01-2010 12:38:02 -0.7 C 3.51 g/m*3 -0.7 C 0 km/h
3063 10-01-2010 12:50:02 -0.6 C 3.49 g/m*3 -0.6 C 0 km/h
3064 10-01-2010 13:02:03 -0.5 C 3.37 g/m*3 -0.5 C 0 km/h
3065 10-01-2010 13:14:03 -0.6 C 3.21 g/m*3 -0.6 C 0 km/h
3066 10-01-2010 13:26:02 -0.5 C 3.23 g/m*3 -0.5 C 0 km/h
3067 10-01-2010 13:38:03 -0.4 C 3.3 g/m*3 -0.4 C 0 km/h
3068 10-01-2010 13:50:02 -0.4 C 3.3 g/m*3 -0.4 C 0 km/h
3069 10-01-2010 14:02:01 -0.5 C 3.28 g/m*3 -0.5 C 0 km/h
3070 10-01-2010 14:14:01 -0.4 C 3.3 g/m*3 -0.4 C 0 km/h
3071 10-01-2010 14:26:02 -0.4 C 3.35 g/m*3 -0.4 C 0 km/h
3072 10-01-2010 14:38:01 -0.5 C 3.32 g/m*3 -0.5 C 0 km/h
3073 10-01-2010 14:50:02 -0.4 C 3.35 g/m*3 -0.4 C 0 km/h
3074 10-01-2010 15:02:01 -0.4 C 3.35 g/m*3 -0.4 C 0 km/h
3075 10-01-2010 15:14:01 -0.5 C 3.28 g/m*3 -0.5 C 0 km/h
Sensor: Nr:Datum:Temp:Abs-Feuchte:Windchill:Wind:
Aussen-T/F 3076 10-01-2010 15:26:01 -0.5 C 3.28 g/m*3 -0.5 C 0 km/h
3077 10-01-2010 15:38:02 -0.6 C 3.3 g/m*3 -0.6 C 0 km/h
3078 10-01-2010 15:50:02 -0.6 C 3.3 g/m*3 -0.6 C 0 km/h
3079 10-01-2010 16:02:01 -0.6 C 3.3 g/m*3 -0.6 C 0 km/h
3080 10-01-2010 16:14:01 -0.8 C 3.3 g/m*3 -0.8 C 0 km/h
3081 10-01-2010 16:26:02 -1 C 3.3 g/m*3 -1 C 0 km/h
3082 10-01-2010 16:38:02 -1.2 C 3.25 g/m*3 -1.2 C 0 km/h
3083 10-01-2010 16:50:02 -1.3 C 3.28 g/m*3 -1.3 C 0 km/h
3084 10-01-2010 17:02:02 -1.5 C 3.23 g/m*3 -1.5 C 0 km/h
3085 10-01-2010 17:14:02 -1.6 C 3.25 g/m*3 -1.6 C 0 km/h
3086 10-01-2010 17:26:01 -1.7 C 3.27 g/m*3 -1.7 C 0 km/h
3087 10-01-2010 17:38:02 -1.8 C 3.25 g/m*3 -1.8 C 0 km/h
3088 10-01-2010 17:50:02 -1.9 C 3.23 g/m*3 -1.9 C 0 km/h
3089 10-01-2010 18:02:02 -1.9 C 3.27 g/m*3 -1.9 C 0 km/h
3090 10-01-2010 18:14:02 -1.8 C 3.29 g/m*3 -1.8 C 0 km/h
3091 10-01-2010 18:26:02 -1.8 C 3.33 g/m*3 -1.8 C 0 km/h
3092 10-01-2010 18:38:02 -1.8 C 3.33 g/m*3 -1.8 C 0 km/h
3093 10-01-2010 18:50:02 -1.9 C 3.31 g/m*3 -1.9 C 0 km/h
3094 10-01-2010 19:02:02 -1.9 C 3.31 g/m*3 -1.9 C 0 km/h
3095 10-01-2010 19:14:02 -1.8 C 3.38 g/m*3 -1.8 C 0 km/h
3096 10-01-2010 19:26:02 -1.8 C 3.38 g/m*3 -1.8 C 0 km/h
3097 10-01-2010 19:38:02 -1.9 C 3.35 g/m*3 -1.9 C 0 km/h
3098 10-01-2010 19:50:02 -1.9 C 3.35 g/m*3 -1.9 C 0 km/h
3099 10-01-2010 20:02:02 -1.8 C 3.38 g/m*3 -1.8 C 0 km/h
3100 10-01-2010 20:14:02 -1.8 C 3.42 g/m*3 -1.8 C 0 km/h
Sensor: Nr:Datum:Temp:Abs-Feuchte:Windchill:Wind:
Aussen-T/F 3101 10-01-2010 20:26:02 -1.8 C 3.42 g/m*3 -1.8 C 0 km/h
3102 10-01-2010 20:38:02 -1.8 C 3.38 g/m*3 -1.8 C 0 km/h
3103 10-01-2010 20:50:01 -1.8 C 3.42 g/m*3 -1.8 C 0 km/h
3104 10-01-2010 21:02:01 -1.8 C 3.42 g/m*3 -1.8 C 0 km/h
3105 10-01-2010 21:14:01 -1.8 C 3.42 g/m*3 -1.8 C 0 km/h
3106 10-01-2010 21:26:02 -1.8 C 3.42 g/m*3 -1.8 C 0 km/h
3107 10-01-2010 21:38:01 -1.8 C 3.42 g/m*3 -1.8 C 0 km/h
3108 10-01-2010 21:50:03 -1.7 C 3.44 g/m*3 -1.7 C 0 km/h
3109 10-01-2010 22:02:02 -1.8 C 3.42 g/m*3 -1.8 C 0 km/h
3110 10-01-2010 22:14:02 -1.8 C 3.42 g/m*3 -1.8 C 0 km/h
3111 10-01-2010 22:26:02 -1.8 C 3.42 g/m*3 -1.8 C 0 km/h
3112 10-01-2010 22:39:03 -1.8 C 3.42 g/m*3 -1.8 C 0 km/h
3113 10-01-2010 22:51:03 -1.8 C 3.42 g/m*3 -1.8 C 0 km/h
3114 10-01-2010 23:03:03 -1.8 C 3.42 g/m*3 -1.8 C 0 km/h
3115 10-01-2010 23:15:03 -1.8 C 3.42 g/m*3 -1.8 C 0 km/h
3116 10-01-2010 23:27:03 -1.8 C 3.42 g/m*3 -1.8 C 0 km/h
3117 10-01-2010 23:39:03 -1.8 C 3.42 g/m*3 -1.8 C 0 km/h
3118 10-01-2010 23:51:03 -1.8 C 3.42 g/m*3 -1.8 C 0 km/h
3119 11-01-2010 00:03:03 -1.8 C 3.42 g/m*3 -1.8 C 0 km/h
3120 11-01-2010 00:15:03 -1.8 C 3.42 g/m*3 -1.8 C 0 km/h
3121 11-01-2010 00:27:03 -1.8 C 3.42 g/m*3 -1.8 C 0 km/h
3122 11-01-2010 00:39:03 -1.9 C 3.4 g/m*3 -1.9 C 0 km/h
3123 11-01-2010 00:51:03 -1.9 C 3.4 g/m*3 -1.9 C 0 km/h
3124 11-01-2010 01:03:03 -2.1 C 3.35 g/m*3 -2.1 C 0 km/h
3125 11-01-2010 01:15:03 -2.2 C 3.33 g/m*3 -2.2 C 0 km/h
Sensor: Nr:Datum:Temp:Abs-Feuchte:Windchill:Wind:
Aussen-T/F 3126 11-01-2010 01:27:03 -2.3 C 3.34 g/m*3 -2.3 C 0 km/h
3127 11-01-2010 01:39:03 -2.2 C 3.37 g/m*3 -2.2 C 0 km/h
3128 11-01-2010 01:51:03 -2.1 C 3.39 g/m*3 -2.1 C 0 km/h
3129 11-01-2010 02:03:03 -2.1 C 3.43 g/m*3 -2.1 C 0 km/h
3130 11-01-2010 02:15:03 -2.1 C 3.43 g/m*3 -2.1 C 0 km/h
3131 11-01-2010 02:27:03 -2.1 C 3.43 g/m*3 -2.1 C 0 km/h
3132 11-01-2010 02:39:04 -2.1 C 3.43 g/m*3 -2.1 C 0 km/h
3133 11-01-2010 02:51:04 -2.1 C 3.47 g/m*3 -2.1 C 0 km/h
3134 11-01-2010 03:03:04 -2.1 C 3.47 g/m*3 -2.1 C 0 km/h
3135 11-01-2010 03:15:04 -2.1 C 3.47 g/m*3 -2.1 C 0 km/h
3136 11-01-2010 03:27:04 -2.1 C 3.52 g/m*3 -2.1 C 0 km/h
3137 11-01-2010 03:39:04 -2.1 C 3.52 g/m*3 -2.1 C 0 km/h
3138 11-01-2010 03:51:04 -2.1 C 3.52 g/m*3 -2.1 C 0 km/h
3139 11-01-2010 04:03:04 -2.1 C 3.52 g/m*3 -2.1 C 0 km/h
3140 11-01-2010 04:15:04 -2 C 3.54 g/m*3 -2 C 0 km/h
3141 11-01-2010 04:27:04 -2 C 3.54 g/m*3 -2 C 0 km/h
3142 11-01-2010 04:39:04 -2 C 3.5 g/m*3 -2 C 0 km/h
3143 11-01-2010 04:51:04 -2 C 3.5 g/m*3 -2 C 0 km/h
3144 11-01-2010 05:03:04 -2 C 3.5 g/m*3 -2 C 0 km/h
3145 11-01-2010 05:15:04 -2 C 3.5 g/m*3 -2 C 0 km/h
3146 11-01-2010 05:27:04 -2 C 3.5 g/m*3 -2 C 0 km/h
3147 11-01-2010 05:39:04 -2 C 3.5 g/m*3 -2 C 0 km/h
3148 11-01-2010 05:51:04 -1.9 C 3.52 g/m*3 -1.9 C 0 km/h
3149 11-01-2010 06:03:04 -1.9 C 3.52 g/m*3 -1.9 C 0 km/h
3150 11-01-2010 06:15:04 -1.9 C 3.52 g/m*3 -1.9 C 0 km/h
Sensor: Nr:Datum:Temp:Abs-Feuchte:Windchill:Wind:
Aussen-T/F 3151 11-01-2010 06:27:04 -1.9 C 3.52 g/m*3 -1.9 C 0 km/h
3152 11-01-2010 06:39:04 -1.9 C 3.52 g/m*3 -1.9 C 0 km/h
3153 11-01-2010 06:51:05 -2 C 3.5 g/m*3 -2 C 0 km/h
3154 11-01-2010 07:03:05 -2 C 3.5 g/m*3 -2 C 0 km/h
3155 11-01-2010 07:15:03 -2 C 3.5 g/m*3 -2 C 0 km/h
3156 11-01-2010 07:27:03 -2 C 3.5 g/m*3 -2 C 0 km/h
3157 11-01-2010 07:39:03 -1.9 C 3.52 g/m*3 -1.9 C 0 km/h
3158 11-01-2010 07:51:02 -1.9 C 3.52 g/m*3 -1.9 C 0 km/h
3159 11-01-2010 08:03:02 -2 C 3.5 g/m*3 -2 C 0 km/h
3160 11-01-2010 08:15:01 -2.1 C 3.47 g/m*3 -2.1 C 0 km/h
3161 11-01-2010 08:27:01 -2.1 C 3.52 g/m*3 -2.1 C 0 km/h
3162 11-01-2010 08:39:02 -2.1 C 3.52 g/m*3 -2.1 C 0 km/h
3163 11-01-2010 08:51:02 -2 C 3.54 g/m*3 -2 C 0 km/h
3164 11-01-2010 09:03:02 -2.1 C 3.52 g/m*3 -2.1 C 0 km/h
3165 11-01-2010 09:15:02 -1.9 C 3.57 g/m*3 -1.9 C 0 km/h
3166 11-01-2010 09:27:02 -1.9 C 3.57 g/m*3 -1.9 C 0 km/h
3167 11-01-2010 09:39:02 -1.8 C 3.59 g/m*3 -1.8 C 0 km/h
3168 11-01-2010 09:51:02 -1.7 C 3.62 g/m*3 -1.7 C 0 km/h
3169 11-01-2010 10:03:03 -1.5 C 3.67 g/m*3 -1.5 C 0 km/h
3170 11-01-2010 10:15:02 -1.3 C 3.72 g/m*3 -1.3 C 0 km/h
3171 11-01-2010 10:27:02 -1.3 C 3.67 g/m*3 -1.3 C 0 km/h
3172 11-01-2010 10:39:02 -1.2 C 3.7 g/m*3 -1.2 C 0 km/h
3173 11-01-2010 10:51:02 -1 C 3.71 g/m*3 -1 C 0 km/h
3174 11-01-2010 11:03:02 -0.9 C 3.73 g/m*3 -0.9 C 0 km/h
3175 11-01-2010 11:15:02 -0.8 C 3.71 g/m*3 -0.8 C 0 km/h
Sensor: Nr:Datum:Temp:Abs-Feuchte:Windchill:Wind:
Aussen-T/F 3176 11-01-2010 11:27:02 -0.6 C 3.72 g/m*3 -0.6 C 0 km/h
3177 11-01-2010 11:39:02 -0.6 C 3.67 g/m*3 -0.6 C 0 km/h
3178 11-01-2010 11:51:02 -0.8 C 3.53 g/m*3 -0.8 C 0 km/h
3179 11-01-2010 12:03:02 -0.6 C 3.53 g/m*3 -0.6 C 0 km/h
3180 11-01-2010 12:15:02 -0.6 C 3.49 g/m*3 -0.6 C 0 km/h
3181 11-01-2010 12:27:02 -0.5 C 3.51 g/m*3 -0.5 C 0 km/h
3182 11-01-2010 12:39:02 -0.6 C 3.44 g/m*3 -0.6 C 0 km/h
3183 11-01-2010 12:51:02 -0.6 C 3.49 g/m*3 -0.6 C 0 km/h
3184 11-01-2010 13:03:02 -0.5 C 3.46 g/m*3 -0.5 C 0 km/h
3185 11-01-2010 13:15:02 -0.4 C 3.49 g/m*3 -0.4 C 0 km/h
3186 11-01-2010 13:27:02 -0.5 C 3.46 g/m*3 -0.5 C 0 km/h
3187 11-01-2010 13:39:01 -0.6 C 3.49 g/m*3 -0.6 C 0 km/h
3188 11-01-2010 13:51:02 -0.6 C 3.49 g/m*3 -0.6 C 0 km/h
3189 11-01-2010 14:03:01 -0.6 C 3.49 g/m*3 -0.6 C 0 km/h
3190 11-01-2010 14:15:02 -0.6 C 3.53 g/m*3 -0.6 C 0 km/h
3191 11-01-2010 14:27:02 -0.5 C 3.56 g/m*3 -0.5 C 0 km/h
3192 11-01-2010 14:39:01 -0.6 C 3.49 g/m*3 -0.6 C 0 km/h
3193 11-01-2010 14:51:02 -0.7 C 3.51 g/m*3 -0.7 C 0 km/h
3194 11-01-2010 15:03:02 -0.7 C 3.55 g/m*3 -0.7 C 0 km/h
3195 11-01-2010 15:15:02 -0.7 C 3.55 g/m*3 -0.7 C 0 km/h
3196 11-01-2010 15:27:02 -0.8 C 3.58 g/m*3 -0.8 C 0 km/h
3197 11-01-2010 15:39:03 -0.8 C 3.62 g/m*3 -0.8 C 0 km/h
3198 11-01-2010 15:51:02 -0.8 C 3.67 g/m*3 -0.8 C 0 km/h
3199 11-01-2010 16:03:01 -0.8 C 3.71 g/m*3 -0.8 C 0 km/h
3200 11-01-2010 16:15:02 -0.8 C 3.76 g/m*3 -0.8 C 0 km/h
Sensor: Nr:Datum:Temp:Abs-Feuchte:Windchill:Wind:
Aussen-T/F 3201 11-01-2010 16:27:02 -0.8 C 3.8 g/m*3 -0.8 C 0 km/h
3202 11-01-2010 16:39:02 -1 C 3.75 g/m*3 -1 C 0 km/h
3203 11-01-2010 16:51:01 -1.1 C 3.77 g/m*3 -1.1 C 0 km/h
3204 11-01-2010 17:03:02 -1.2 C 3.74 g/m*3 -1.2 C 0 km/h
3205 11-01-2010 17:15:01 -1.2 C 3.79 g/m*3 -1.2 C 0 km/h
3206 11-01-2010 17:27:01 -1.1 C 3.82 g/m*3 -1.1 C 0 km/h
3207 11-01-2010 17:39:02 -1.2 C 3.79 g/m*3 -1.2 C 0 km/h
3208 11-01-2010 17:51:02 -1.3 C 3.81 g/m*3 -1.3 C 0 km/h
3209 11-01-2010 18:03:02 -1.3 C 3.81 g/m*3 -1.3 C 0 km/h
3210 11-01-2010 18:15:01 -1.3 C 3.85 g/m*3 -1.3 C 0 km/h
3211 11-01-2010 18:27:01 -1.2 C 3.88 g/m*3 -1.2 C 0 km/h
3212 11-01-2010 18:39:02 -1.3 C 3.85 g/m*3 -1.3 C 0 km/h
3213 11-01-2010 18:51:02 -1.4 C 3.82 g/m*3 -1.4 C 0 km/h
3214 11-01-2010 19:03:02 -1.4 C 3.82 g/m*3 -1.4 C 0 km/h
3215 11-01-2010 19:15:01 -1.4 C 3.82 g/m*3 -1.4 C 0 km/h
3216 11-01-2010 19:27:01 -1.3 C 3.85 g/m*3 -1.3 C 0 km/h
3217 11-01-2010 19:39:02 -1.4 C 3.82 g/m*3 -1.4 C 0 km/h
3218 11-01-2010 19:51:02 -1.3 C 3.85 g/m*3 -1.3 C 0 km/h
3219 11-01-2010 20:03:02 -1.3 C 3.85 g/m*3 -1.3 C 0 km/h
3220 11-01-2010 20:15:01 -1.3 C 3.85 g/m*3 -1.3 C 0 km/h
3221 11-01-2010 20:27:01 -1.3 C 3.85 g/m*3 -1.3 C 0 km/h
3222 11-01-2010 20:39:02 -1.3 C 3.85 g/m*3 -1.3 C 0 km/h
3223 11-01-2010 20:51:02 -1.3 C 3.85 g/m*3 -1.3 C 0 km/h
3224 11-01-2010 21:03:02 -1.3 C 3.85 g/m*3 -1.3 C 0 km/h
3225 11-01-2010 21:15:02 -1.3 C 3.81 g/m*3 -1.3 C 0 km/h
Sensor: Nr:Datum:Temp:Abs-Feuchte:Windchill:Wind:
Aussen-T/F 3226 11-01-2010 21:27:02 -1.3 C 3.81 g/m*3 -1.3 C 0 km/h
3227 11-01-2010 21:39:02 -1.3 C 3.81 g/m*3 -1.3 C 0 km/h
3228 11-01-2010 21:51:02 -1.3 C 3.81 g/m*3 -1.3 C 0 km/h
3229 11-01-2010 22:03:02 -1.3 C 3.81 g/m*3 -1.3 C 0 km/h
3230 11-01-2010 22:15:02 -1.3 C 3.81 g/m*3 -1.3 C 0 km/h
3231 11-01-2010 22:27:02 -1.2 C 3.83 g/m*3 -1.2 C 0 km/h
3232 11-01-2010 22:40:04 -1.2 C 3.83 g/m*3 -1.2 C 0 km/h
3233 11-01-2010 22:52:04 -1.1 C 3.86 g/m*3 -1.1 C 0 km/h
3234 11-01-2010 23:04:04 -1.1 C 3.86 g/m*3 -1.1 C 0 km/h
3235 11-01-2010 23:16:04 -1.2 C 3.83 g/m*3 -1.2 C 0 km/h
3236 11-01-2010 23:28:04 -1.2 C 3.83 g/m*3 -1.2 C 0 km/h
3237 11-01-2010 23:40:04 -1.2 C 3.83 g/m*3 -1.2 C 0 km/h
3238